<?xml version="1.0" encoding="UTF-8" standalone="no" ?>
<gpx xmlns="http://www.topografix.com/GPX/1/1" xmlns:xsi="http://www.w3.org/2001/XMLSchema-instance" xsi:schemaLocation="http://www.topografix.com/GPX/1/1 http://www.topografix.com/GPX/1/1/gpx.xsd" version="1.1" creator="VisuGPX - https://www.visugpx.com">
  <metadata>
    <name>SRsc1</name>
  </metadata>
  <trk>
    <name><![CDATA[Sortie ski rando le matin]]></name>
    <trkseg>
      <trkpt lat="44.91926" lon="6.55018">
        <ele>2256.2</ele>
        <time>2025-02-12T09:07:44Z</time>
      </trkpt>
      <trkpt lat="44.9192" lon="6.55026">
        <ele>2254.9</ele>
        <time>2025-02-12T09:07:45Z</time>
      </trkpt>
      <trkpt lat="44.91914" lon="6.55035">
        <ele>2253.6</ele>
        <time>2025-02-12T09:07:47Z</time>
      </trkpt>
      <trkpt lat="44.91908" lon="6.55043">
        <ele>2252.3</ele>
        <time>2025-02-12T09:07:49Z</time>
      </trkpt>
      <trkpt lat="44.91901" lon="6.55053">
        <ele>2250.7</ele>
        <time>2025-02-12T09:07:51Z</time>
      </trkpt>
      <trkpt lat="44.91895" lon="6.55062">
        <ele>2249.3</ele>
        <time>2025-02-12T09:07:53Z</time>
      </trkpt>
      <trkpt lat="44.91889" lon="6.5507">
        <ele>2247.9</ele>
        <time>2025-02-12T09:07:55Z</time>
      </trkpt>
      <trkpt lat="44.9187" lon="6.55097">
        <ele>2243.7</ele>
        <time>2025-02-12T09:08:00Z</time>
      </trkpt>
      <trkpt lat="44.91865" lon="6.55103">
        <ele>2242.8</ele>
        <time>2025-02-12T09:08:01Z</time>
      </trkpt>
      <trkpt lat="44.91861" lon="6.5511">
        <ele>2241.9</ele>
        <time>2025-02-12T09:08:03Z</time>
      </trkpt>
      <trkpt lat="44.91855" lon="6.55119">
        <ele>2240.7</ele>
        <time>2025-02-12T09:08:04Z</time>
      </trkpt>
      <trkpt lat="44.91844" lon="6.55138">
        <ele>2238.4</ele>
        <time>2025-02-12T09:08:06Z</time>
      </trkpt>
      <trkpt lat="44.91842" lon="6.55144">
        <ele>2237.7</ele>
        <time>2025-02-12T09:08:07Z</time>
      </trkpt>
      <trkpt lat="44.91838" lon="6.55154">
        <ele>2236.1</ele>
        <time>2025-02-12T09:08:09Z</time>
      </trkpt>
      <trkpt lat="44.91836" lon="6.55156">
        <ele>2235.6</ele>
        <time>2025-02-12T09:08:12Z</time>
      </trkpt>
      <trkpt lat="44.91835" lon="6.55159">
        <ele>2235.3</ele>
        <time>2025-02-12T09:08:13Z</time>
      </trkpt>
      <trkpt lat="44.91833" lon="6.55165">
        <ele>2234.1</ele>
        <time>2025-02-12T09:08:15Z</time>
      </trkpt>
      <trkpt lat="44.91828" lon="6.55178">
        <ele>2231.7</ele>
        <time>2025-02-12T09:08:17Z</time>
      </trkpt>
      <trkpt lat="44.91827" lon="6.55186">
        <ele>2230.4</ele>
        <time>2025-02-12T09:08:18Z</time>
      </trkpt>
      <trkpt lat="44.91832" lon="6.55197">
        <ele>2228</ele>
        <time>2025-02-12T09:08:19Z</time>
      </trkpt>
      <trkpt lat="44.91842" lon="6.5522">
        <ele>2223.6</ele>
        <time>2025-02-12T09:08:21Z</time>
      </trkpt>
      <trkpt lat="44.91851" lon="6.5523">
        <ele>2221</ele>
        <time>2025-02-12T09:08:23Z</time>
      </trkpt>
      <trkpt lat="44.91857" lon="6.55241">
        <ele>2219.1</ele>
        <time>2025-02-12T09:08:24Z</time>
      </trkpt>
      <trkpt lat="44.91861" lon="6.55249">
        <ele>2217.7</ele>
        <time>2025-02-12T09:08:25Z</time>
      </trkpt>
      <trkpt lat="44.91868" lon="6.55264">
        <ele>2215</ele>
        <time>2025-02-12T09:08:27Z</time>
      </trkpt>
      <trkpt lat="44.91872" lon="6.55272">
        <ele>2213.8</ele>
        <time>2025-02-12T09:08:28Z</time>
      </trkpt>
      <trkpt lat="44.91876" lon="6.55288">
        <ele>2211.2</ele>
        <time>2025-02-12T09:08:30Z</time>
      </trkpt>
      <trkpt lat="44.91878" lon="6.55302">
        <ele>2208.8</ele>
        <time>2025-02-12T09:08:32Z</time>
      </trkpt>
      <trkpt lat="44.91879" lon="6.55309">
        <ele>2207.6</ele>
        <time>2025-02-12T09:08:33Z</time>
      </trkpt>
      <trkpt lat="44.91881" lon="6.55316">
        <ele>2206.3</ele>
        <time>2025-02-12T09:08:34Z</time>
      </trkpt>
      <trkpt lat="44.91882" lon="6.55324">
        <ele>2204.9</ele>
        <time>2025-02-12T09:08:35Z</time>
      </trkpt>
      <trkpt lat="44.91883" lon="6.55332">
        <ele>2203.2</ele>
        <time>2025-02-12T09:08:36Z</time>
      </trkpt>
      <trkpt lat="44.91886" lon="6.5535">
        <ele>2199.6</ele>
        <time>2025-02-12T09:08:38Z</time>
      </trkpt>
      <trkpt lat="44.91892" lon="6.55383">
        <ele>2193.7</ele>
        <time>2025-02-12T09:08:41Z</time>
      </trkpt>
      <trkpt lat="44.91894" lon="6.55394">
        <ele>2191.8</ele>
        <time>2025-02-12T09:08:42Z</time>
      </trkpt>
      <trkpt lat="44.91895" lon="6.55405">
        <ele>2190.6</ele>
        <time>2025-02-12T09:08:43Z</time>
      </trkpt>
      <trkpt lat="44.91898" lon="6.55426">
        <ele>2190.6</ele>
        <time>2025-02-12T09:08:45Z</time>
      </trkpt>
      <trkpt lat="44.91901" lon="6.55447">
        <ele>2187.7</ele>
        <time>2025-02-12T09:08:47Z</time>
      </trkpt>
      <trkpt lat="44.91903" lon="6.55456">
        <ele>2186.4</ele>
        <time>2025-02-12T09:08:48Z</time>
      </trkpt>
      <trkpt lat="44.91904" lon="6.55465">
        <ele>2185.1</ele>
        <time>2025-02-12T09:08:49Z</time>
      </trkpt>
      <trkpt lat="44.91907" lon="6.55484">
        <ele>2182.5</ele>
        <time>2025-02-12T09:08:51Z</time>
      </trkpt>
      <trkpt lat="44.91909" lon="6.55503">
        <ele>2180</ele>
        <time>2025-02-12T09:08:53Z</time>
      </trkpt>
      <trkpt lat="44.91912" lon="6.55522">
        <ele>2177.3</ele>
        <time>2025-02-12T09:08:55Z</time>
      </trkpt>
      <trkpt lat="44.91917" lon="6.55539">
        <ele>2174.8</ele>
        <time>2025-02-12T09:08:57Z</time>
      </trkpt>
      <trkpt lat="44.91919" lon="6.55548">
        <ele>2173.4</ele>
        <time>2025-02-12T09:08:58Z</time>
      </trkpt>
      <trkpt lat="44.91922" lon="6.55557">
        <ele>2171.9</ele>
        <time>2025-02-12T09:08:59Z</time>
      </trkpt>
      <trkpt lat="44.91928" lon="6.55574">
        <ele>2168.7</ele>
        <time>2025-02-12T09:09:01Z</time>
      </trkpt>
      <trkpt lat="44.91934" lon="6.55593">
        <ele>2165.4</ele>
        <time>2025-02-12T09:09:03Z</time>
      </trkpt>
      <trkpt lat="44.91936" lon="6.55603">
        <ele>2163.7</ele>
        <time>2025-02-12T09:09:04Z</time>
      </trkpt>
      <trkpt lat="44.91943" lon="6.55636">
        <ele>2158.8</ele>
        <time>2025-02-12T09:09:07Z</time>
      </trkpt>
      <trkpt lat="44.91948" lon="6.55657">
        <ele>2156.3</ele>
        <time>2025-02-12T09:09:09Z</time>
      </trkpt>
      <trkpt lat="44.91956" lon="6.55693">
        <ele>2153.8</ele>
        <time>2025-02-12T09:09:13Z</time>
      </trkpt>
      <trkpt lat="44.91959" lon="6.55715">
        <ele>2152.8</ele>
        <time>2025-02-12T09:09:16Z</time>
      </trkpt>
      <trkpt lat="44.91959" lon="6.55721">
        <ele>2152.5</ele>
        <time>2025-02-12T09:09:17Z</time>
      </trkpt>
      <trkpt lat="44.91959" lon="6.55726">
        <ele>2152.2</ele>
        <time>2025-02-12T09:09:18Z</time>
      </trkpt>
      <trkpt lat="44.91957" lon="6.55748">
        <ele>2150.9</ele>
        <time>2025-02-12T09:09:21Z</time>
      </trkpt>
      <trkpt lat="44.91948" lon="6.55794">
        <ele>2146.7</ele>
        <time>2025-02-12T09:09:26Z</time>
      </trkpt>
      <trkpt lat="44.91948" lon="6.55806">
        <ele>2145.6</ele>
        <time>2025-02-12T09:09:27Z</time>
      </trkpt>
      <trkpt lat="44.91951" lon="6.5584">
        <ele>2142.8</ele>
        <time>2025-02-12T09:09:30Z</time>
      </trkpt>
      <trkpt lat="44.9196" lon="6.55895">
        <ele>2135</ele>
        <time>2025-02-12T09:09:35Z</time>
      </trkpt>
      <trkpt lat="44.91969" lon="6.5592">
        <ele>2132.4</ele>
        <time>2025-02-12T09:09:39Z</time>
      </trkpt>
      <trkpt lat="44.91974" lon="6.55934">
        <ele>2131</ele>
        <time>2025-02-12T09:09:43Z</time>
      </trkpt>
      <trkpt lat="44.91975" lon="6.55937">
        <ele>2130.5</ele>
        <time>2025-02-12T09:09:46Z</time>
      </trkpt>
      <trkpt lat="44.91975" lon="6.55937">
        <ele>2130.5</ele>
        <time>2025-02-12T09:09:47Z</time>
      </trkpt>
      <trkpt lat="44.91979" lon="6.55942">
        <ele>2129.4</ele>
        <time>2025-02-12T09:09:50Z</time>
      </trkpt>
      <trkpt lat="44.91984" lon="6.55947">
        <ele>2128.1</ele>
        <time>2025-02-12T09:09:52Z</time>
      </trkpt>
      <trkpt lat="44.91992" lon="6.55956">
        <ele>2124.9</ele>
        <time>2025-02-12T09:09:53Z</time>
      </trkpt>
      <trkpt lat="44.91998" lon="6.55963">
        <ele>2122.1</ele>
        <time>2025-02-12T09:09:57Z</time>
      </trkpt>
      <trkpt lat="44.92003" lon="6.55966">
        <ele>2120.1</ele>
        <time>2025-02-12T09:09:59Z</time>
      </trkpt>
      <trkpt lat="44.92003" lon="6.55966">
        <ele>2120.1</ele>
        <time>2025-02-12T09:10:00Z</time>
      </trkpt>
      <trkpt lat="44.92011" lon="6.55971">
        <ele>2116.8</ele>
        <time>2025-02-12T09:10:02Z</time>
      </trkpt>
      <trkpt lat="44.92015" lon="6.55974">
        <ele>2114.7</ele>
        <time>2025-02-12T09:10:03Z</time>
      </trkpt>
      <trkpt lat="44.9202" lon="6.55977">
        <ele>2112.6</ele>
        <time>2025-02-12T09:10:04Z</time>
      </trkpt>
      <trkpt lat="44.92028" lon="6.55983">
        <ele>2109.1</ele>
        <time>2025-02-12T09:10:06Z</time>
      </trkpt>
      <trkpt lat="44.92036" lon="6.55987">
        <ele>2106.5</ele>
        <time>2025-02-12T09:10:08Z</time>
      </trkpt>
      <trkpt lat="44.92036" lon="6.55987">
        <ele>2106.5</ele>
        <time>2025-02-12T09:10:09Z</time>
      </trkpt>
      <trkpt lat="44.92049" lon="6.55996">
        <ele>2101.7</ele>
        <time>2025-02-12T09:10:11Z</time>
      </trkpt>
      <trkpt lat="44.92055" lon="6.56001">
        <ele>2099.5</ele>
        <time>2025-02-12T09:10:13Z</time>
      </trkpt>
      <trkpt lat="44.92057" lon="6.56004">
        <ele>2098.5</ele>
        <time>2025-02-12T09:10:15Z</time>
      </trkpt>
      <trkpt lat="44.9206" lon="6.56006">
        <ele>2097.5</ele>
        <time>2025-02-12T09:10:16Z</time>
      </trkpt>
      <trkpt lat="44.92062" lon="6.56009">
        <ele>2096.5</ele>
        <time>2025-02-12T09:10:18Z</time>
      </trkpt>
      <trkpt lat="44.92064" lon="6.56012">
        <ele>2095.5</ele>
        <time>2025-02-12T09:10:19Z</time>
      </trkpt>
      <trkpt lat="44.92067" lon="6.56017">
        <ele>2093.9</ele>
        <time>2025-02-12T09:10:20Z</time>
      </trkpt>
      <trkpt lat="44.92075" lon="6.56039">
        <ele>2088</ele>
        <time>2025-02-12T09:10:22Z</time>
      </trkpt>
      <trkpt lat="44.92075" lon="6.56036">
        <ele>2087.3</ele>
        <time>2025-02-12T09:10:23Z</time>
      </trkpt>
      <trkpt lat="44.92074" lon="6.56041">
        <ele>2086.2</ele>
        <time>2025-02-12T09:10:24Z</time>
      </trkpt>
      <trkpt lat="44.92074" lon="6.56045">
        <ele>2085.2</ele>
        <time>2025-02-12T09:10:26Z</time>
      </trkpt>
      <trkpt lat="44.92073" lon="6.56049">
        <ele>2084.2</ele>
        <time>2025-02-12T09:10:27Z</time>
      </trkpt>
      <trkpt lat="44.9207" lon="6.56066">
        <ele>2081.9</ele>
        <time>2025-02-12T09:10:28Z</time>
      </trkpt>
      <trkpt lat="44.9207" lon="6.56081">
        <ele>2082.9</ele>
        <time>2025-02-12T09:10:30Z</time>
      </trkpt>
      <trkpt lat="44.92071" lon="6.56129">
        <ele>2078.9</ele>
        <time>2025-02-12T09:10:32Z</time>
      </trkpt>
      <trkpt lat="44.92078" lon="6.56142">
        <ele>2077.2</ele>
        <time>2025-02-12T09:10:34Z</time>
      </trkpt>
      <trkpt lat="44.92075" lon="6.5615">
        <ele>2076.3</ele>
        <time>2025-02-12T09:10:35Z</time>
      </trkpt>
      <trkpt lat="44.92074" lon="6.56157">
        <ele>2075.5</ele>
        <time>2025-02-12T09:10:36Z</time>
      </trkpt>
      <trkpt lat="44.92084" lon="6.56122">
        <ele>2071.4</ele>
        <time>2025-02-12T09:10:38Z</time>
      </trkpt>
      <trkpt lat="44.92086" lon="6.5613">
        <ele>2070.4</ele>
        <time>2025-02-12T09:10:39Z</time>
      </trkpt>
      <trkpt lat="44.92089" lon="6.56138">
        <ele>2069.4</ele>
        <time>2025-02-12T09:10:40Z</time>
      </trkpt>
      <trkpt lat="44.92091" lon="6.56147">
        <ele>2068.4</ele>
        <time>2025-02-12T09:10:41Z</time>
      </trkpt>
      <trkpt lat="44.92093" lon="6.56155">
        <ele>2067.4</ele>
        <time>2025-02-12T09:10:42Z</time>
      </trkpt>
      <trkpt lat="44.92101" lon="6.56187">
        <ele>2063.5</ele>
        <time>2025-02-12T09:10:43Z</time>
      </trkpt>
      <trkpt lat="44.92107" lon="6.56192">
        <ele>2060.8</ele>
        <time>2025-02-12T09:10:44Z</time>
      </trkpt>
      <trkpt lat="44.92114" lon="6.56197">
        <ele>2058</ele>
        <time>2025-02-12T09:10:45Z</time>
      </trkpt>
      <trkpt lat="44.9212" lon="6.56213">
        <ele>2055.4</ele>
        <time>2025-02-12T09:10:47Z</time>
      </trkpt>
      <trkpt lat="44.92118" lon="6.56224">
        <ele>2055.3</ele>
        <time>2025-02-12T09:10:49Z</time>
      </trkpt>
      <trkpt lat="44.92117" lon="6.56237">
        <ele>2056.1</ele>
        <time>2025-02-12T09:10:51Z</time>
      </trkpt>
      <trkpt lat="44.92117" lon="6.56245">
        <ele>2055.9</ele>
        <time>2025-02-12T09:10:52Z</time>
      </trkpt>
      <trkpt lat="44.92117" lon="6.56242">
        <ele>2056.4</ele>
        <time>2025-02-12T09:10:54Z</time>
      </trkpt>
      <trkpt lat="44.92117" lon="6.56242">
        <ele>2056.7</ele>
        <time>2025-02-12T09:10:58Z</time>
      </trkpt>
      <trkpt lat="44.92109" lon="6.56257">
        <ele>2058.5</ele>
        <time>2025-02-12T09:11:05Z</time>
      </trkpt>
      <trkpt lat="44.92109" lon="6.56258">
        <ele>2058.8</ele>
        <time>2025-02-12T09:11:10Z</time>
      </trkpt>
      <trkpt lat="44.92108" lon="6.56258">
        <ele>2060.4</ele>
        <time>2025-02-12T09:11:22Z</time>
      </trkpt>
      <trkpt lat="44.92108" lon="6.56258">
        <ele>2060.6</ele>
        <time>2025-02-12T09:11:38Z</time>
      </trkpt>
      <trkpt lat="44.92108" lon="6.56258">
        <ele>2060.9</ele>
        <time>2025-02-12T09:11:51Z</time>
      </trkpt>
      <trkpt lat="44.92108" lon="6.56259">
        <ele>2061.1</ele>
        <time>2025-02-12T09:12:03Z</time>
      </trkpt>
      <trkpt lat="44.9211" lon="6.56256">
        <ele>2060.2</ele>
        <time>2025-02-12T09:12:12Z</time>
      </trkpt>
      <trkpt lat="44.92118" lon="6.56251">
        <ele>2058.2</ele>
        <time>2025-02-12T09:12:14Z</time>
      </trkpt>
      <trkpt lat="44.92121" lon="6.56254">
        <ele>2055.9</ele>
        <time>2025-02-12T09:12:15Z</time>
      </trkpt>
      <trkpt lat="44.92125" lon="6.56256">
        <ele>2055</ele>
        <time>2025-02-12T09:12:16Z</time>
      </trkpt>
      <trkpt lat="44.92136" lon="6.56263">
        <ele>2050.3</ele>
        <time>2025-02-12T09:12:18Z</time>
      </trkpt>
      <trkpt lat="44.92152" lon="6.56266">
        <ele>2044.7</ele>
        <time>2025-02-12T09:12:22Z</time>
      </trkpt>
      <trkpt lat="44.92147" lon="6.56264">
        <ele>2047.1</ele>
        <time>2025-02-12T09:12:26Z</time>
      </trkpt>
      <trkpt lat="44.92149" lon="6.56265">
        <ele>2046.3</ele>
        <time>2025-02-12T09:12:27Z</time>
      </trkpt>
      <trkpt lat="44.92157" lon="6.56268">
        <ele>2044.5</ele>
        <time>2025-02-12T09:12:29Z</time>
      </trkpt>
      <trkpt lat="44.92157" lon="6.56268">
        <ele>2044.5</ele>
        <time>2025-02-12T09:12:31Z</time>
      </trkpt>
      <trkpt lat="44.92166" lon="6.56294">
        <ele>2040.1</ele>
        <time>2025-02-12T09:12:32Z</time>
      </trkpt>
      <trkpt lat="44.92174" lon="6.5632">
        <ele>2034</ele>
        <time>2025-02-12T09:12:34Z</time>
      </trkpt>
      <trkpt lat="44.92183" lon="6.56346">
        <ele>2026.8</ele>
        <time>2025-02-12T09:12:35Z</time>
      </trkpt>
      <trkpt lat="44.92188" lon="6.56368">
        <ele>2021.5</ele>
        <time>2025-02-12T09:12:37Z</time>
      </trkpt>
      <trkpt lat="44.92188" lon="6.5638">
        <ele>2019.2</ele>
        <time>2025-02-12T09:12:38Z</time>
      </trkpt>
      <trkpt lat="44.9219" lon="6.56391">
        <ele>2017.3</ele>
        <time>2025-02-12T09:12:39Z</time>
      </trkpt>
      <trkpt lat="44.9219" lon="6.56413">
        <ele>2014</ele>
        <time>2025-02-12T09:12:41Z</time>
      </trkpt>
      <trkpt lat="44.92192" lon="6.56423">
        <ele>2012.5</ele>
        <time>2025-02-12T09:12:42Z</time>
      </trkpt>
      <trkpt lat="44.92193" lon="6.56441">
        <ele>2009.9</ele>
        <time>2025-02-12T09:12:44Z</time>
      </trkpt>
      <trkpt lat="44.92194" lon="6.56449">
        <ele>2008.4</ele>
        <time>2025-02-12T09:12:45Z</time>
      </trkpt>
      <trkpt lat="44.92198" lon="6.56457">
        <ele>2006.7</ele>
        <time>2025-02-12T09:12:46Z</time>
      </trkpt>
      <trkpt lat="44.92203" lon="6.56464">
        <ele>2004.9</ele>
        <time>2025-02-12T09:12:47Z</time>
      </trkpt>
      <trkpt lat="44.92207" lon="6.56472">
        <ele>2003.6</ele>
        <time>2025-02-12T09:12:48Z</time>
      </trkpt>
      <trkpt lat="44.92215" lon="6.56488">
        <ele>2000.9</ele>
        <time>2025-02-12T09:12:50Z</time>
      </trkpt>
      <trkpt lat="44.92218" lon="6.56498">
        <ele>1999.6</ele>
        <time>2025-02-12T09:12:51Z</time>
      </trkpt>
      <trkpt lat="44.9222" lon="6.56517">
        <ele>1997.2</ele>
        <time>2025-02-12T09:12:53Z</time>
      </trkpt>
      <trkpt lat="44.92222" lon="6.56523">
        <ele>1996.4</ele>
        <time>2025-02-12T09:12:54Z</time>
      </trkpt>
      <trkpt lat="44.92228" lon="6.56533">
        <ele>1994.9</ele>
        <time>2025-02-12T09:12:56Z</time>
      </trkpt>
      <trkpt lat="44.92228" lon="6.56547">
        <ele>1992.9</ele>
        <time>2025-02-12T09:12:59Z</time>
      </trkpt>
      <trkpt lat="44.92237" lon="6.56557">
        <ele>1990.3</ele>
        <time>2025-02-12T09:13:02Z</time>
      </trkpt>
      <trkpt lat="44.9224" lon="6.56571">
        <ele>1987.6</ele>
        <time>2025-02-12T09:13:04Z</time>
      </trkpt>
      <trkpt lat="44.92238" lon="6.56577">
        <ele>1986.3</ele>
        <time>2025-02-12T09:13:05Z</time>
      </trkpt>
      <trkpt lat="44.92239" lon="6.56584">
        <ele>1984.8</ele>
        <time>2025-02-12T09:13:06Z</time>
      </trkpt>
      <trkpt lat="44.92244" lon="6.56595">
        <ele>1982.1</ele>
        <time>2025-02-12T09:13:08Z</time>
      </trkpt>
      <trkpt lat="44.92248" lon="6.56607">
        <ele>1978.9</ele>
        <time>2025-02-12T09:13:10Z</time>
      </trkpt>
      <trkpt lat="44.92248" lon="6.56621">
        <ele>1976</ele>
        <time>2025-02-12T09:13:12Z</time>
      </trkpt>
      <trkpt lat="44.92255" lon="6.56628">
        <ele>1973.4</ele>
        <time>2025-02-12T09:13:14Z</time>
      </trkpt>
      <trkpt lat="44.92259" lon="6.56633">
        <ele>1971.6</ele>
        <time>2025-02-12T09:13:15Z</time>
      </trkpt>
      <trkpt lat="44.92261" lon="6.5664">
        <ele>1970</ele>
        <time>2025-02-12T09:13:16Z</time>
      </trkpt>
      <trkpt lat="44.92267" lon="6.56649">
        <ele>1967.2</ele>
        <time>2025-02-12T09:13:18Z</time>
      </trkpt>
      <trkpt lat="44.92276" lon="6.56652">
        <ele>1964.2</ele>
        <time>2025-02-12T09:13:20Z</time>
      </trkpt>
      <trkpt lat="44.92281" lon="6.56656">
        <ele>1962.5</ele>
        <time>2025-02-12T09:13:21Z</time>
      </trkpt>
      <trkpt lat="44.92285" lon="6.56662">
        <ele>1960.5</ele>
        <time>2025-02-12T09:13:22Z</time>
      </trkpt>
      <trkpt lat="44.92294" lon="6.5667">
        <ele>1956.8</ele>
        <time>2025-02-12T09:13:24Z</time>
      </trkpt>
      <trkpt lat="44.92304" lon="6.56681">
        <ele>1952.8</ele>
        <time>2025-02-12T09:13:26Z</time>
      </trkpt>
      <trkpt lat="44.92308" lon="6.56686">
        <ele>1951.1</ele>
        <time>2025-02-12T09:13:27Z</time>
      </trkpt>
      <trkpt lat="44.92313" lon="6.56691">
        <ele>1949.2</ele>
        <time>2025-02-12T09:13:28Z</time>
      </trkpt>
      <trkpt lat="44.92317" lon="6.56705">
        <ele>1943.7</ele>
        <time>2025-02-12T09:13:30Z</time>
      </trkpt>
      <trkpt lat="44.92325" lon="6.56714">
        <ele>1943.5</ele>
        <time>2025-02-12T09:13:32Z</time>
      </trkpt>
      <trkpt lat="44.92331" lon="6.56722">
        <ele>1943</ele>
        <time>2025-02-12T09:13:34Z</time>
      </trkpt>
      <trkpt lat="44.92338" lon="6.56731">
        <ele>1941.9</ele>
        <time>2025-02-12T09:13:37Z</time>
      </trkpt>
      <trkpt lat="44.92342" lon="6.56744">
        <ele>1939.9</ele>
        <time>2025-02-12T09:13:39Z</time>
      </trkpt>
      <trkpt lat="44.92343" lon="6.56756">
        <ele>1937.7</ele>
        <time>2025-02-12T09:13:41Z</time>
      </trkpt>
      <trkpt lat="44.92341" lon="6.56782">
        <ele>1932.6</ele>
        <time>2025-02-12T09:13:44Z</time>
      </trkpt>
      <trkpt lat="44.92341" lon="6.56791">
        <ele>1930.8</ele>
        <time>2025-02-12T09:13:45Z</time>
      </trkpt>
      <trkpt lat="44.92341" lon="6.568">
        <ele>1929.1</ele>
        <time>2025-02-12T09:13:46Z</time>
      </trkpt>
      <trkpt lat="44.9234" lon="6.56816">
        <ele>1925.9</ele>
        <time>2025-02-12T09:13:48Z</time>
      </trkpt>
      <trkpt lat="44.9234" lon="6.56833">
        <ele>1922.8</ele>
        <time>2025-02-12T09:13:50Z</time>
      </trkpt>
      <trkpt lat="44.92341" lon="6.56839">
        <ele>1921.5</ele>
        <time>2025-02-12T09:13:51Z</time>
      </trkpt>
      <trkpt lat="44.92343" lon="6.56845">
        <ele>1920.3</ele>
        <time>2025-02-12T09:13:52Z</time>
      </trkpt>
      <trkpt lat="44.92346" lon="6.56858">
        <ele>1917.8</ele>
        <time>2025-02-12T09:13:54Z</time>
      </trkpt>
      <trkpt lat="44.92349" lon="6.56872">
        <ele>1914.9</ele>
        <time>2025-02-12T09:13:57Z</time>
      </trkpt>
      <trkpt lat="44.9235" lon="6.56875">
        <ele>1914.2</ele>
        <time>2025-02-12T09:13:58Z</time>
      </trkpt>
      <trkpt lat="44.92352" lon="6.56886">
        <ele>1912.1</ele>
        <time>2025-02-12T09:14:00Z</time>
      </trkpt>
      <trkpt lat="44.92354" lon="6.56893">
        <ele>1910.7</ele>
        <time>2025-02-12T09:14:01Z</time>
      </trkpt>
      <trkpt lat="44.92358" lon="6.56909">
        <ele>1908.1</ele>
        <time>2025-02-12T09:14:03Z</time>
      </trkpt>
      <trkpt lat="44.92361" lon="6.56922">
        <ele>1905.9</ele>
        <time>2025-02-12T09:14:05Z</time>
      </trkpt>
      <trkpt lat="44.92361" lon="6.56928">
        <ele>1905.1</ele>
        <time>2025-02-12T09:14:07Z</time>
      </trkpt>
      <trkpt lat="44.92362" lon="6.56944">
        <ele>1902.6</ele>
        <time>2025-02-12T09:14:08Z</time>
      </trkpt>
      <trkpt lat="44.92363" lon="6.56957">
        <ele>1900.4</ele>
        <time>2025-02-12T09:14:10Z</time>
      </trkpt>
      <trkpt lat="44.92363" lon="6.56961">
        <ele>1899.6</ele>
        <time>2025-02-12T09:14:11Z</time>
      </trkpt>
      <trkpt lat="44.92363" lon="6.56965">
        <ele>1898.8</ele>
        <time>2025-02-12T09:14:12Z</time>
      </trkpt>
      <trkpt lat="44.92374" lon="6.56993">
        <ele>1892.6</ele>
        <time>2025-02-12T09:14:14Z</time>
      </trkpt>
      <trkpt lat="44.92383" lon="6.57006">
        <ele>1889.5</ele>
        <time>2025-02-12T09:14:18Z</time>
      </trkpt>
      <trkpt lat="44.92419" lon="6.57023">
        <ele>1891.8</ele>
        <time>2025-02-12T09:14:22Z</time>
      </trkpt>
      <trkpt lat="44.92418" lon="6.57042">
        <ele>1894.4</ele>
        <time>2025-02-12T09:14:27Z</time>
      </trkpt>
      <trkpt lat="44.92417" lon="6.57055">
        <ele>1895</ele>
        <time>2025-02-12T09:14:34Z</time>
      </trkpt>
      <trkpt lat="44.92413" lon="6.57062">
        <ele>1894.4</ele>
        <time>2025-02-12T09:14:40Z</time>
      </trkpt>
      <trkpt lat="44.92413" lon="6.57062">
        <ele>1894.4</ele>
        <time>2025-02-12T09:14:53Z</time>
      </trkpt>
      <trkpt lat="44.92413" lon="6.57062">
        <ele>1894.4</ele>
        <time>2025-02-12T09:15:03Z</time>
      </trkpt>
      <trkpt lat="44.92413" lon="6.57062">
        <ele>1894.4</ele>
        <time>2025-02-12T09:15:24Z</time>
      </trkpt>
      <trkpt lat="44.92413" lon="6.57062">
        <ele>1894.4</ele>
        <time>2025-02-12T09:15:44Z</time>
      </trkpt>
      <trkpt lat="44.92413" lon="6.57062">
        <ele>1894.4</ele>
        <time>2025-02-12T09:15:55Z</time>
      </trkpt>
      <trkpt lat="44.92413" lon="6.57062">
        <ele>1894.4</ele>
        <time>2025-02-12T09:16:07Z</time>
      </trkpt>
      <trkpt lat="44.92413" lon="6.57062">
        <ele>1894.4</ele>
        <time>2025-02-12T09:16:24Z</time>
      </trkpt>
      <trkpt lat="44.92413" lon="6.57062">
        <ele>1894.4</ele>
        <time>2025-02-12T09:16:45Z</time>
      </trkpt>
      <trkpt lat="44.92413" lon="6.57062">
        <ele>1894.4</ele>
        <time>2025-02-12T09:17:03Z</time>
      </trkpt>
      <trkpt lat="44.92413" lon="6.57062">
        <ele>1894.4</ele>
        <time>2025-02-12T09:17:19Z</time>
      </trkpt>
      <trkpt lat="44.92413" lon="6.57062">
        <ele>1894.4</ele>
        <time>2025-02-12T09:17:39Z</time>
      </trkpt>
      <trkpt lat="44.92413" lon="6.57062">
        <ele>1894.4</ele>
        <time>2025-02-12T09:17:58Z</time>
      </trkpt>
      <trkpt lat="44.92413" lon="6.57062">
        <ele>1894.4</ele>
        <time>2025-02-12T09:18:10Z</time>
      </trkpt>
      <trkpt lat="44.92413" lon="6.57062">
        <ele>1894.4</ele>
        <time>2025-02-12T09:18:22Z</time>
      </trkpt>
      <trkpt lat="44.92413" lon="6.57062">
        <ele>1894.4</ele>
        <time>2025-02-12T09:18:44Z</time>
      </trkpt>
      <trkpt lat="44.92413" lon="6.57062">
        <ele>1894.4</ele>
        <time>2025-02-12T09:19:08Z</time>
      </trkpt>
      <trkpt lat="44.92413" lon="6.57062">
        <ele>1894.4</ele>
        <time>2025-02-12T09:19:18Z</time>
      </trkpt>
      <trkpt lat="44.92413" lon="6.57062">
        <ele>1894.4</ele>
        <time>2025-02-12T09:19:27Z</time>
      </trkpt>
      <trkpt lat="44.92408" lon="6.57068">
        <ele>1893.7</ele>
        <time>2025-02-12T09:19:40Z</time>
      </trkpt>
      <trkpt lat="44.92404" lon="6.57074">
        <ele>1892.9</ele>
        <time>2025-02-12T09:19:46Z</time>
      </trkpt>
      <trkpt lat="44.92403" lon="6.57077">
        <ele>1892.6</ele>
        <time>2025-02-12T09:19:48Z</time>
      </trkpt>
      <trkpt lat="44.92391" lon="6.57093">
        <ele>1890.4</ele>
        <time>2025-02-12T09:19:54Z</time>
      </trkpt>
      <trkpt lat="44.92378" lon="6.57114">
        <ele>1887.6</ele>
        <time>2025-02-12T09:19:59Z</time>
      </trkpt>
      <trkpt lat="44.92374" lon="6.57118">
        <ele>1887</ele>
        <time>2025-02-12T09:20:00Z</time>
      </trkpt>
      <trkpt lat="44.92365" lon="6.57134">
        <ele>1885.1</ele>
        <time>2025-02-12T09:20:03Z</time>
      </trkpt>
      <trkpt lat="44.92359" lon="6.57144">
        <ele>1883.8</ele>
        <time>2025-02-12T09:20:05Z</time>
      </trkpt>
      <trkpt lat="44.92353" lon="6.57157">
        <ele>1883.2</ele>
        <time>2025-02-12T09:20:07Z</time>
      </trkpt>
      <trkpt lat="44.92348" lon="6.57184">
        <ele>1882.9</ele>
        <time>2025-02-12T09:20:10Z</time>
      </trkpt>
      <trkpt lat="44.92338" lon="6.572">
        <ele>1882.7</ele>
        <time>2025-02-12T09:20:13Z</time>
      </trkpt>
      <trkpt lat="44.92335" lon="6.57204">
        <ele>1882.6</ele>
        <time>2025-02-12T09:20:14Z</time>
      </trkpt>
      <trkpt lat="44.92333" lon="6.57208">
        <ele>1882.6</ele>
        <time>2025-02-12T09:20:15Z</time>
      </trkpt>
      <trkpt lat="44.92325" lon="6.57217">
        <ele>1882.6</ele>
        <time>2025-02-12T09:20:18Z</time>
      </trkpt>
      <trkpt lat="44.92318" lon="6.57223">
        <ele>1882.8</ele>
        <time>2025-02-12T09:20:21Z</time>
      </trkpt>
      <trkpt lat="44.92315" lon="6.57225">
        <ele>1882.9</ele>
        <time>2025-02-12T09:20:23Z</time>
      </trkpt>
      <trkpt lat="44.9231" lon="6.57229">
        <ele>1883</ele>
        <time>2025-02-12T09:20:29Z</time>
      </trkpt>
      <trkpt lat="44.92306" lon="6.57232">
        <ele>1883.1</ele>
        <time>2025-02-12T09:20:37Z</time>
      </trkpt>
      <trkpt lat="44.92306" lon="6.57232">
        <ele>1883.1</ele>
        <time>2025-02-12T09:20:45Z</time>
      </trkpt>
      <trkpt lat="44.92306" lon="6.57232">
        <ele>1883.1</ele>
        <time>2025-02-12T09:20:54Z</time>
      </trkpt>
      <trkpt lat="44.92306" lon="6.57232">
        <ele>1883.1</ele>
        <time>2025-02-12T09:21:02Z</time>
      </trkpt>
      <trkpt lat="44.92306" lon="6.57232">
        <ele>1883.1</ele>
        <time>2025-02-12T09:21:12Z</time>
      </trkpt>
      <trkpt lat="44.92306" lon="6.57232">
        <ele>1883.1</ele>
        <time>2025-02-12T09:21:30Z</time>
      </trkpt>
      <trkpt lat="44.92306" lon="6.57232">
        <ele>1883.1</ele>
        <time>2025-02-12T09:21:44Z</time>
      </trkpt>
      <trkpt lat="44.92306" lon="6.57232">
        <ele>1883.1</ele>
        <time>2025-02-12T09:21:57Z</time>
      </trkpt>
      <trkpt lat="44.92306" lon="6.57232">
        <ele>1883.1</ele>
        <time>2025-02-12T09:22:09Z</time>
      </trkpt>
      <trkpt lat="44.92306" lon="6.57232">
        <ele>1883.1</ele>
        <time>2025-02-12T09:22:22Z</time>
      </trkpt>
      <trkpt lat="44.92306" lon="6.57232">
        <ele>1883.1</ele>
        <time>2025-02-12T09:22:36Z</time>
      </trkpt>
      <trkpt lat="44.92306" lon="6.57232">
        <ele>1883.1</ele>
        <time>2025-02-12T09:22:53Z</time>
      </trkpt>
      <trkpt lat="44.92306" lon="6.57232">
        <ele>1883.1</ele>
        <time>2025-02-12T09:23:06Z</time>
      </trkpt>
      <trkpt lat="44.92306" lon="6.57232">
        <ele>1883.1</ele>
        <time>2025-02-12T09:23:16Z</time>
      </trkpt>
      <trkpt lat="44.92306" lon="6.57232">
        <ele>1883.1</ele>
        <time>2025-02-12T09:23:25Z</time>
      </trkpt>
      <trkpt lat="44.92306" lon="6.57232">
        <ele>1883.1</ele>
        <time>2025-02-12T09:23:37Z</time>
      </trkpt>
      <trkpt lat="44.92306" lon="6.57232">
        <ele>1883.1</ele>
        <time>2025-02-12T09:23:53Z</time>
      </trkpt>
      <trkpt lat="44.92306" lon="6.57232">
        <ele>1883.1</ele>
        <time>2025-02-12T09:24:02Z</time>
      </trkpt>
      <trkpt lat="44.92306" lon="6.57232">
        <ele>1883.1</ele>
        <time>2025-02-12T09:24:11Z</time>
      </trkpt>
      <trkpt lat="44.92306" lon="6.57232">
        <ele>1883.1</ele>
        <time>2025-02-12T09:24:21Z</time>
      </trkpt>
      <trkpt lat="44.92306" lon="6.57232">
        <ele>1883.1</ele>
        <time>2025-02-12T09:24:33Z</time>
      </trkpt>
      <trkpt lat="44.92306" lon="6.57232">
        <ele>1883.1</ele>
        <time>2025-02-12T09:24:44Z</time>
      </trkpt>
      <trkpt lat="44.92306" lon="6.57232">
        <ele>1883.1</ele>
        <time>2025-02-12T09:24:52Z</time>
      </trkpt>
      <trkpt lat="44.92306" lon="6.57232">
        <ele>1883.1</ele>
        <time>2025-02-12T09:25:10Z</time>
      </trkpt>
      <trkpt lat="44.92306" lon="6.57232">
        <ele>1883.1</ele>
        <time>2025-02-12T09:25:26Z</time>
      </trkpt>
      <trkpt lat="44.92306" lon="6.57232">
        <ele>1883.1</ele>
        <time>2025-02-12T09:25:45Z</time>
      </trkpt>
      <trkpt lat="44.92306" lon="6.57232">
        <ele>1883.1</ele>
        <time>2025-02-12T09:25:56Z</time>
      </trkpt>
      <trkpt lat="44.92306" lon="6.57232">
        <ele>1883.1</ele>
        <time>2025-02-12T09:26:05Z</time>
      </trkpt>
      <trkpt lat="44.92306" lon="6.57232">
        <ele>1883.1</ele>
        <time>2025-02-12T09:26:16Z</time>
      </trkpt>
      <trkpt lat="44.92306" lon="6.57232">
        <ele>1883.1</ele>
        <time>2025-02-12T09:26:30Z</time>
      </trkpt>
      <trkpt lat="44.92306" lon="6.57232">
        <ele>1883.1</ele>
        <time>2025-02-12T09:26:42Z</time>
      </trkpt>
      <trkpt lat="44.92306" lon="6.57232">
        <ele>1883.1</ele>
        <time>2025-02-12T09:26:52Z</time>
      </trkpt>
      <trkpt lat="44.92306" lon="6.57232">
        <ele>1883.1</ele>
        <time>2025-02-12T09:27:04Z</time>
      </trkpt>
      <trkpt lat="44.92306" lon="6.57232">
        <ele>1883.1</ele>
        <time>2025-02-12T09:27:13Z</time>
      </trkpt>
      <trkpt lat="44.92306" lon="6.57232">
        <ele>1883.1</ele>
        <time>2025-02-12T09:27:21Z</time>
      </trkpt>
      <trkpt lat="44.92306" lon="6.57232">
        <ele>1883.1</ele>
        <time>2025-02-12T09:27:30Z</time>
      </trkpt>
      <trkpt lat="44.92306" lon="6.57232">
        <ele>1883.1</ele>
        <time>2025-02-12T09:27:42Z</time>
      </trkpt>
      <trkpt lat="44.92306" lon="6.57232">
        <ele>1883.1</ele>
        <time>2025-02-12T09:27:53Z</time>
      </trkpt>
      <trkpt lat="44.92306" lon="6.57232">
        <ele>1883.1</ele>
        <time>2025-02-12T09:28:05Z</time>
      </trkpt>
      <trkpt lat="44.92306" lon="6.57232">
        <ele>1883.1</ele>
        <time>2025-02-12T09:28:18Z</time>
      </trkpt>
      <trkpt lat="44.92306" lon="6.57232">
        <ele>1883.1</ele>
        <time>2025-02-12T09:28:30Z</time>
      </trkpt>
      <trkpt lat="44.92306" lon="6.57232">
        <ele>1883.1</ele>
        <time>2025-02-12T09:28:43Z</time>
      </trkpt>
      <trkpt lat="44.92306" lon="6.57232">
        <ele>1883.1</ele>
        <time>2025-02-12T09:28:56Z</time>
      </trkpt>
      <trkpt lat="44.92306" lon="6.57232">
        <ele>1883.1</ele>
        <time>2025-02-12T09:29:07Z</time>
      </trkpt>
      <trkpt lat="44.92306" lon="6.57232">
        <ele>1883.1</ele>
        <time>2025-02-12T09:29:17Z</time>
      </trkpt>
      <trkpt lat="44.92306" lon="6.57232">
        <ele>1883.1</ele>
        <time>2025-02-12T09:29:28Z</time>
      </trkpt>
      <trkpt lat="44.92306" lon="6.57232">
        <ele>1883.1</ele>
        <time>2025-02-12T09:29:36Z</time>
      </trkpt>
      <trkpt lat="44.92306" lon="6.57232">
        <ele>1883.1</ele>
        <time>2025-02-12T09:29:44Z</time>
      </trkpt>
      <trkpt lat="44.92306" lon="6.57232">
        <ele>1883.1</ele>
        <time>2025-02-12T09:29:51Z</time>
      </trkpt>
      <trkpt lat="44.92306" lon="6.57232">
        <ele>1883.1</ele>
        <time>2025-02-12T09:30:01Z</time>
      </trkpt>
      <trkpt lat="44.92306" lon="6.57232">
        <ele>1883.1</ele>
        <time>2025-02-12T09:30:12Z</time>
      </trkpt>
      <trkpt lat="44.92306" lon="6.57232">
        <ele>1883.1</ele>
        <time>2025-02-12T09:30:26Z</time>
      </trkpt>
      <trkpt lat="44.92306" lon="6.57232">
        <ele>1883.1</ele>
        <time>2025-02-12T09:30:41Z</time>
      </trkpt>
      <trkpt lat="44.92306" lon="6.57232">
        <ele>1883.1</ele>
        <time>2025-02-12T09:30:57Z</time>
      </trkpt>
      <trkpt lat="44.92306" lon="6.57232">
        <ele>1883.1</ele>
        <time>2025-02-12T09:31:14Z</time>
      </trkpt>
      <trkpt lat="44.92306" lon="6.57232">
        <ele>1883.1</ele>
        <time>2025-02-12T09:31:30Z</time>
      </trkpt>
      <trkpt lat="44.92306" lon="6.57232">
        <ele>1883.1</ele>
        <time>2025-02-12T09:31:50Z</time>
      </trkpt>
      <trkpt lat="44.92306" lon="6.57232">
        <ele>1883.1</ele>
        <time>2025-02-12T09:32:07Z</time>
      </trkpt>
      <trkpt lat="44.92306" lon="6.57232">
        <ele>1883.1</ele>
        <time>2025-02-12T09:32:25Z</time>
      </trkpt>
      <trkpt lat="44.92306" lon="6.57232">
        <ele>1883.1</ele>
        <time>2025-02-12T09:32:40Z</time>
      </trkpt>
      <trkpt lat="44.92306" lon="6.57232">
        <ele>1883.1</ele>
        <time>2025-02-12T09:32:57Z</time>
      </trkpt>
      <trkpt lat="44.92306" lon="6.57232">
        <ele>1883.1</ele>
        <time>2025-02-12T09:33:10Z</time>
      </trkpt>
      <trkpt lat="44.92306" lon="6.57232">
        <ele>1883.1</ele>
        <time>2025-02-12T09:33:23Z</time>
      </trkpt>
      <trkpt lat="44.92306" lon="6.57232">
        <ele>1883.1</ele>
        <time>2025-02-12T09:33:39Z</time>
      </trkpt>
      <trkpt lat="44.92306" lon="6.57232">
        <ele>1883.1</ele>
        <time>2025-02-12T09:33:53Z</time>
      </trkpt>
      <trkpt lat="44.92306" lon="6.57232">
        <ele>1883.1</ele>
        <time>2025-02-12T09:34:05Z</time>
      </trkpt>
      <trkpt lat="44.92306" lon="6.57232">
        <ele>1883.1</ele>
        <time>2025-02-12T09:34:19Z</time>
      </trkpt>
      <trkpt lat="44.92306" lon="6.57232">
        <ele>1883.1</ele>
        <time>2025-02-12T09:34:36Z</time>
      </trkpt>
      <trkpt lat="44.92306" lon="6.57232">
        <ele>1883.1</ele>
        <time>2025-02-12T09:34:50Z</time>
      </trkpt>
      <trkpt lat="44.92306" lon="6.57232">
        <ele>1883.1</ele>
        <time>2025-02-12T09:35:07Z</time>
      </trkpt>
      <trkpt lat="44.92306" lon="6.57232">
        <ele>1883.1</ele>
        <time>2025-02-12T09:35:23Z</time>
      </trkpt>
      <trkpt lat="44.92306" lon="6.57232">
        <ele>1883.1</ele>
        <time>2025-02-12T09:35:35Z</time>
      </trkpt>
      <trkpt lat="44.92306" lon="6.57232">
        <ele>1883.1</ele>
        <time>2025-02-12T09:35:50Z</time>
      </trkpt>
      <trkpt lat="44.92306" lon="6.57232">
        <ele>1883.1</ele>
        <time>2025-02-12T09:36:05Z</time>
      </trkpt>
      <trkpt lat="44.92306" lon="6.57232">
        <ele>1883.1</ele>
        <time>2025-02-12T09:36:18Z</time>
      </trkpt>
      <trkpt lat="44.92306" lon="6.57232">
        <ele>1883.1</ele>
        <time>2025-02-12T09:36:33Z</time>
      </trkpt>
      <trkpt lat="44.92306" lon="6.57232">
        <ele>1883.1</ele>
        <time>2025-02-12T09:36:50Z</time>
      </trkpt>
      <trkpt lat="44.92306" lon="6.57232">
        <ele>1883.1</ele>
        <time>2025-02-12T09:37:04Z</time>
      </trkpt>
      <trkpt lat="44.92306" lon="6.57232">
        <ele>1883.1</ele>
        <time>2025-02-12T09:37:19Z</time>
      </trkpt>
      <trkpt lat="44.92306" lon="6.57232">
        <ele>1883.1</ele>
        <time>2025-02-12T09:37:39Z</time>
      </trkpt>
      <trkpt lat="44.92306" lon="6.57232">
        <ele>1883.1</ele>
        <time>2025-02-12T09:37:57Z</time>
      </trkpt>
      <trkpt lat="44.92306" lon="6.57232">
        <ele>1883.1</ele>
        <time>2025-02-12T09:38:11Z</time>
      </trkpt>
      <trkpt lat="44.92306" lon="6.57232">
        <ele>1883.1</ele>
        <time>2025-02-12T09:38:25Z</time>
      </trkpt>
      <trkpt lat="44.92306" lon="6.57232">
        <ele>1883.1</ele>
        <time>2025-02-12T09:38:39Z</time>
      </trkpt>
      <trkpt lat="44.92306" lon="6.57232">
        <ele>1883.1</ele>
        <time>2025-02-12T09:38:56Z</time>
      </trkpt>
      <trkpt lat="44.92306" lon="6.57232">
        <ele>1883.1</ele>
        <time>2025-02-12T09:39:15Z</time>
      </trkpt>
      <trkpt lat="44.92306" lon="6.57232">
        <ele>1883.1</ele>
        <time>2025-02-12T09:39:31Z</time>
      </trkpt>
      <trkpt lat="44.92306" lon="6.57232">
        <ele>1883.1</ele>
        <time>2025-02-12T09:39:44Z</time>
      </trkpt>
      <trkpt lat="44.92306" lon="6.57232">
        <ele>1883.1</ele>
        <time>2025-02-12T09:39:58Z</time>
      </trkpt>
      <trkpt lat="44.92306" lon="6.57232">
        <ele>1883.1</ele>
        <time>2025-02-12T09:40:16Z</time>
      </trkpt>
      <trkpt lat="44.92306" lon="6.57232">
        <ele>1883.1</ele>
        <time>2025-02-12T09:40:36Z</time>
      </trkpt>
      <trkpt lat="44.92306" lon="6.57232">
        <ele>1883.1</ele>
        <time>2025-02-12T09:40:49Z</time>
      </trkpt>
      <trkpt lat="44.92306" lon="6.57232">
        <ele>1883.1</ele>
        <time>2025-02-12T09:41:02Z</time>
      </trkpt>
      <trkpt lat="44.92306" lon="6.57232">
        <ele>1883.1</ele>
        <time>2025-02-12T09:41:16Z</time>
      </trkpt>
      <trkpt lat="44.92306" lon="6.57232">
        <ele>1883.1</ele>
        <time>2025-02-12T09:41:34Z</time>
      </trkpt>
      <trkpt lat="44.92306" lon="6.57232">
        <ele>1883.1</ele>
        <time>2025-02-12T09:41:50Z</time>
      </trkpt>
      <trkpt lat="44.92306" lon="6.57232">
        <ele>1883.1</ele>
        <time>2025-02-12T09:42:07Z</time>
      </trkpt>
      <trkpt lat="44.92297" lon="6.5724">
        <ele>1883.3</ele>
        <time>2025-02-12T09:42:17Z</time>
      </trkpt>
      <trkpt lat="44.92296" lon="6.57243">
        <ele>1883.3</ele>
        <time>2025-02-12T09:42:23Z</time>
      </trkpt>
      <trkpt lat="44.92293" lon="6.5725">
        <ele>1883.3</ele>
        <time>2025-02-12T09:42:30Z</time>
      </trkpt>
      <trkpt lat="44.9229" lon="6.57254">
        <ele>1883.3</ele>
        <time>2025-02-12T09:42:37Z</time>
      </trkpt>
      <trkpt lat="44.92288" lon="6.57258">
        <ele>1883.3</ele>
        <time>2025-02-12T09:42:43Z</time>
      </trkpt>
      <trkpt lat="44.92287" lon="6.57261">
        <ele>1883.3</ele>
        <time>2025-02-12T09:42:48Z</time>
      </trkpt>
      <trkpt lat="44.92284" lon="6.57265">
        <ele>1883.3</ele>
        <time>2025-02-12T09:42:55Z</time>
      </trkpt>
      <trkpt lat="44.92282" lon="6.5727">
        <ele>1883.2</ele>
        <time>2025-02-12T09:43:03Z</time>
      </trkpt>
      <trkpt lat="44.92282" lon="6.5727">
        <ele>1883.2</ele>
        <time>2025-02-12T09:43:09Z</time>
      </trkpt>
      <trkpt lat="44.92282" lon="6.5727">
        <ele>1883.2</ele>
        <time>2025-02-12T09:43:14Z</time>
      </trkpt>
      <trkpt lat="44.92282" lon="6.5727">
        <ele>1883.2</ele>
        <time>2025-02-12T09:43:23Z</time>
      </trkpt>
      <trkpt lat="44.92282" lon="6.5727">
        <ele>1883.1</ele>
        <time>2025-02-12T09:43:32Z</time>
      </trkpt>
      <trkpt lat="44.92282" lon="6.5727">
        <ele>1883.1</ele>
        <time>2025-02-12T09:43:36Z</time>
      </trkpt>
      <trkpt lat="44.92248" lon="6.57266">
        <ele>1890.8</ele>
        <time>2025-02-12T09:43:43Z</time>
      </trkpt>
      <trkpt lat="44.92244" lon="6.57272">
        <ele>1891.1</ele>
        <time>2025-02-12T09:43:51Z</time>
      </trkpt>
      <trkpt lat="44.92239" lon="6.57273">
        <ele>1892.5</ele>
        <time>2025-02-12T09:43:59Z</time>
      </trkpt>
      <trkpt lat="44.92234" lon="6.57277">
        <ele>1892.7</ele>
        <time>2025-02-12T09:44:06Z</time>
      </trkpt>
      <trkpt lat="44.9223" lon="6.57282">
        <ele>1893.8</ele>
        <time>2025-02-12T09:44:13Z</time>
      </trkpt>
      <trkpt lat="44.92227" lon="6.57285">
        <ele>1893.3</ele>
        <time>2025-02-12T09:44:16Z</time>
      </trkpt>
      <trkpt lat="44.92225" lon="6.57288">
        <ele>1893.6</ele>
        <time>2025-02-12T09:44:19Z</time>
      </trkpt>
      <trkpt lat="44.92222" lon="6.57291">
        <ele>1894.4</ele>
        <time>2025-02-12T09:44:25Z</time>
      </trkpt>
      <trkpt lat="44.92218" lon="6.57296">
        <ele>1894.9</ele>
        <time>2025-02-12T09:44:31Z</time>
      </trkpt>
      <trkpt lat="44.92213" lon="6.57301">
        <ele>1895.1</ele>
        <time>2025-02-12T09:44:36Z</time>
      </trkpt>
      <trkpt lat="44.9221" lon="6.57305">
        <ele>1895.2</ele>
        <time>2025-02-12T09:44:44Z</time>
      </trkpt>
      <trkpt lat="44.92208" lon="6.57308">
        <ele>1895.8</ele>
        <time>2025-02-12T09:44:51Z</time>
      </trkpt>
      <trkpt lat="44.92204" lon="6.57315">
        <ele>1895.3</ele>
        <time>2025-02-12T09:44:58Z</time>
      </trkpt>
      <trkpt lat="44.92204" lon="6.57322">
        <ele>1894.1</ele>
        <time>2025-02-12T09:45:04Z</time>
      </trkpt>
      <trkpt lat="44.92204" lon="6.57327">
        <ele>1893.5</ele>
        <time>2025-02-12T09:45:10Z</time>
      </trkpt>
      <trkpt lat="44.92203" lon="6.57332">
        <ele>1893.6</ele>
        <time>2025-02-12T09:45:15Z</time>
      </trkpt>
      <trkpt lat="44.92201" lon="6.57337">
        <ele>1893</ele>
        <time>2025-02-12T09:45:22Z</time>
      </trkpt>
      <trkpt lat="44.92199" lon="6.57343">
        <ele>1892.4</ele>
        <time>2025-02-12T09:45:28Z</time>
      </trkpt>
      <trkpt lat="44.92196" lon="6.57351">
        <ele>1892.5</ele>
        <time>2025-02-12T09:45:34Z</time>
      </trkpt>
      <trkpt lat="44.92194" lon="6.57362">
        <ele>1890.9</ele>
        <time>2025-02-12T09:45:43Z</time>
      </trkpt>
      <trkpt lat="44.92193" lon="6.57369">
        <ele>1890.1</ele>
        <time>2025-02-12T09:45:51Z</time>
      </trkpt>
      <trkpt lat="44.9219" lon="6.57371">
        <ele>1889.9</ele>
        <time>2025-02-12T09:45:58Z</time>
      </trkpt>
      <trkpt lat="44.9219" lon="6.57371">
        <ele>1889.9</ele>
        <time>2025-02-12T09:46:08Z</time>
      </trkpt>
      <trkpt lat="44.9219" lon="6.57371">
        <ele>1889.8</ele>
        <time>2025-02-12T09:46:24Z</time>
      </trkpt>
      <trkpt lat="44.9219" lon="6.57371">
        <ele>1889.8</ele>
        <time>2025-02-12T09:46:35Z</time>
      </trkpt>
      <trkpt lat="44.92189" lon="6.57368">
        <ele>1890.6</ele>
        <time>2025-02-12T09:46:44Z</time>
      </trkpt>
      <trkpt lat="44.92185" lon="6.57364">
        <ele>1891.9</ele>
        <time>2025-02-12T09:46:49Z</time>
      </trkpt>
      <trkpt lat="44.92183" lon="6.57358">
        <ele>1893.3</ele>
        <time>2025-02-12T09:46:54Z</time>
      </trkpt>
      <trkpt lat="44.92179" lon="6.57356">
        <ele>1893.7</ele>
        <time>2025-02-12T09:47:00Z</time>
      </trkpt>
      <trkpt lat="44.92176" lon="6.57355">
        <ele>1894.9</ele>
        <time>2025-02-12T09:47:07Z</time>
      </trkpt>
      <trkpt lat="44.92173" lon="6.57354">
        <ele>1895.4</ele>
        <time>2025-02-12T09:47:13Z</time>
      </trkpt>
      <trkpt lat="44.92168" lon="6.57351">
        <ele>1897.1</ele>
        <time>2025-02-12T09:47:21Z</time>
      </trkpt>
      <trkpt lat="44.92168" lon="6.57351">
        <ele>1897</ele>
        <time>2025-02-12T09:47:34Z</time>
      </trkpt>
      <trkpt lat="44.92168" lon="6.57351">
        <ele>1897</ele>
        <time>2025-02-12T09:47:54Z</time>
      </trkpt>
      <trkpt lat="44.92168" lon="6.57351">
        <ele>1897</ele>
        <time>2025-02-12T09:48:05Z</time>
      </trkpt>
      <trkpt lat="44.92168" lon="6.57351">
        <ele>1897</ele>
        <time>2025-02-12T09:48:19Z</time>
      </trkpt>
      <trkpt lat="44.92168" lon="6.57351">
        <ele>1896.9</ele>
        <time>2025-02-12T09:48:34Z</time>
      </trkpt>
      <trkpt lat="44.92172" lon="6.57358">
        <ele>1894.7</ele>
        <time>2025-02-12T09:48:37Z</time>
      </trkpt>
      <trkpt lat="44.92175" lon="6.57364">
        <ele>1893.4</ele>
        <time>2025-02-12T09:48:39Z</time>
      </trkpt>
      <trkpt lat="44.9219" lon="6.57368">
        <ele>1890.1</ele>
        <time>2025-02-12T09:48:44Z</time>
      </trkpt>
      <trkpt lat="44.92199" lon="6.57371">
        <ele>1887.3</ele>
        <time>2025-02-12T09:48:50Z</time>
      </trkpt>
      <trkpt lat="44.92199" lon="6.57371">
        <ele>1887.3</ele>
        <time>2025-02-12T09:49:03Z</time>
      </trkpt>
      <trkpt lat="44.92199" lon="6.57371">
        <ele>1887.3</ele>
        <time>2025-02-12T09:49:23Z</time>
      </trkpt>
      <trkpt lat="44.92199" lon="6.57363">
        <ele>1888.8</ele>
        <time>2025-02-12T09:49:33Z</time>
      </trkpt>
      <trkpt lat="44.922" lon="6.57353">
        <ele>1889.6</ele>
        <time>2025-02-12T09:49:40Z</time>
      </trkpt>
      <trkpt lat="44.922" lon="6.57347">
        <ele>1890.2</ele>
        <time>2025-02-12T09:49:45Z</time>
      </trkpt>
      <trkpt lat="44.92203" lon="6.57342">
        <ele>1890.7</ele>
        <time>2025-02-12T09:49:52Z</time>
      </trkpt>
      <trkpt lat="44.92206" lon="6.57337">
        <ele>1890.6</ele>
        <time>2025-02-12T09:50:00Z</time>
      </trkpt>
      <trkpt lat="44.92206" lon="6.57337">
        <ele>1890.6</ele>
        <time>2025-02-12T09:50:12Z</time>
      </trkpt>
      <trkpt lat="44.92206" lon="6.57337">
        <ele>1890.5</ele>
        <time>2025-02-12T09:50:24Z</time>
      </trkpt>
      <trkpt lat="44.92206" lon="6.57337">
        <ele>1890.5</ele>
        <time>2025-02-12T09:50:44Z</time>
      </trkpt>
      <trkpt lat="44.92206" lon="6.57337">
        <ele>1890.5</ele>
        <time>2025-02-12T09:50:59Z</time>
      </trkpt>
      <trkpt lat="44.92203" lon="6.5734">
        <ele>1891.2</ele>
        <time>2025-02-12T09:51:09Z</time>
      </trkpt>
      <trkpt lat="44.922" lon="6.57342">
        <ele>1891.9</ele>
        <time>2025-02-12T09:51:16Z</time>
      </trkpt>
      <trkpt lat="44.92199" lon="6.57351">
        <ele>1890.6</ele>
        <time>2025-02-12T09:51:23Z</time>
      </trkpt>
      <trkpt lat="44.92197" lon="6.57358">
        <ele>1889.8</ele>
        <time>2025-02-12T09:51:31Z</time>
      </trkpt>
      <trkpt lat="44.92196" lon="6.57364">
        <ele>1889</ele>
        <time>2025-02-12T09:51:37Z</time>
      </trkpt>
      <trkpt lat="44.92196" lon="6.5737">
        <ele>1887.4</ele>
        <time>2025-02-12T09:51:42Z</time>
      </trkpt>
      <trkpt lat="44.92196" lon="6.57374">
        <ele>1886.6</ele>
        <time>2025-02-12T09:51:51Z</time>
      </trkpt>
      <trkpt lat="44.92197" lon="6.57377">
        <ele>1886.6</ele>
        <time>2025-02-12T09:52:00Z</time>
      </trkpt>
      <trkpt lat="44.92197" lon="6.5738">
        <ele>1885.1</ele>
        <time>2025-02-12T09:52:06Z</time>
      </trkpt>
      <trkpt lat="44.92195" lon="6.57383">
        <ele>1884.9</ele>
        <time>2025-02-12T09:52:15Z</time>
      </trkpt>
      <trkpt lat="44.92194" lon="6.57384">
        <ele>1884.9</ele>
        <time>2025-02-12T09:52:23Z</time>
      </trkpt>
      <trkpt lat="44.92195" lon="6.57386">
        <ele>1884</ele>
        <time>2025-02-12T09:52:30Z</time>
      </trkpt>
      <trkpt lat="44.92194" lon="6.57391">
        <ele>1883</ele>
        <time>2025-02-12T09:52:36Z</time>
      </trkpt>
      <trkpt lat="44.92192" lon="6.57395">
        <ele>1882.6</ele>
        <time>2025-02-12T09:52:44Z</time>
      </trkpt>
      <trkpt lat="44.92189" lon="6.57398">
        <ele>1883.1</ele>
        <time>2025-02-12T09:52:53Z</time>
      </trkpt>
      <trkpt lat="44.92188" lon="6.57404">
        <ele>1881</ele>
        <time>2025-02-12T09:52:59Z</time>
      </trkpt>
      <trkpt lat="44.92188" lon="6.57407">
        <ele>1879.9</ele>
        <time>2025-02-12T09:53:00Z</time>
      </trkpt>
      <trkpt lat="44.92188" lon="6.57415">
        <ele>1878.8</ele>
        <time>2025-02-12T09:53:05Z</time>
      </trkpt>
      <trkpt lat="44.92185" lon="6.57418">
        <ele>1878.7</ele>
        <time>2025-02-12T09:53:12Z</time>
      </trkpt>
      <trkpt lat="44.92181" lon="6.57429">
        <ele>1878.6</ele>
        <time>2025-02-12T09:53:20Z</time>
      </trkpt>
      <trkpt lat="44.92176" lon="6.57434">
        <ele>1878.4</ele>
        <time>2025-02-12T09:53:28Z</time>
      </trkpt>
      <trkpt lat="44.92173" lon="6.57438">
        <ele>1878.2</ele>
        <time>2025-02-12T09:53:34Z</time>
      </trkpt>
      <trkpt lat="44.92165" lon="6.57445">
        <ele>1877.7</ele>
        <time>2025-02-12T09:53:39Z</time>
      </trkpt>
      <trkpt lat="44.92163" lon="6.57446">
        <ele>1877.7</ele>
        <time>2025-02-12T09:53:41Z</time>
      </trkpt>
      <trkpt lat="44.92163" lon="6.57446">
        <ele>1877.7</ele>
        <time>2025-02-12T09:53:47Z</time>
      </trkpt>
      <trkpt lat="44.92158" lon="6.57448">
        <ele>1877.4</ele>
        <time>2025-02-12T09:53:54Z</time>
      </trkpt>
      <trkpt lat="44.92156" lon="6.57449">
        <ele>1877.3</ele>
        <time>2025-02-12T09:53:59Z</time>
      </trkpt>
      <trkpt lat="44.92154" lon="6.57451">
        <ele>1877.1</ele>
        <time>2025-02-12T09:54:04Z</time>
      </trkpt>
      <trkpt lat="44.92146" lon="6.57452">
        <ele>1876.5</ele>
        <time>2025-02-12T09:54:10Z</time>
      </trkpt>
      <trkpt lat="44.92146" lon="6.57452">
        <ele>1876.5</ele>
        <time>2025-02-12T09:54:15Z</time>
      </trkpt>
      <trkpt lat="44.92146" lon="6.57452">
        <ele>1876.5</ele>
        <time>2025-02-12T09:54:22Z</time>
      </trkpt>
      <trkpt lat="44.92146" lon="6.57452">
        <ele>1876.5</ele>
        <time>2025-02-12T09:54:28Z</time>
      </trkpt>
      <trkpt lat="44.92146" lon="6.57452">
        <ele>1876.5</ele>
        <time>2025-02-12T09:54:39Z</time>
      </trkpt>
      <trkpt lat="44.92131" lon="6.5745">
        <ele>1875.2</ele>
        <time>2025-02-12T09:54:49Z</time>
      </trkpt>
      <trkpt lat="44.92124" lon="6.5745">
        <ele>1874.6</ele>
        <time>2025-02-12T09:54:54Z</time>
      </trkpt>
      <trkpt lat="44.92122" lon="6.57449">
        <ele>1874.4</ele>
        <time>2025-02-12T09:54:58Z</time>
      </trkpt>
      <trkpt lat="44.92122" lon="6.57449">
        <ele>1874.4</ele>
        <time>2025-02-12T09:54:59Z</time>
      </trkpt>
      <trkpt lat="44.92114" lon="6.57449">
        <ele>1874</ele>
        <time>2025-02-12T09:55:06Z</time>
      </trkpt>
      <trkpt lat="44.9211" lon="6.57448">
        <ele>1873.9</ele>
        <time>2025-02-12T09:55:11Z</time>
      </trkpt>
      <trkpt lat="44.92104" lon="6.57447">
        <ele>1873.8</ele>
        <time>2025-02-12T09:55:17Z</time>
      </trkpt>
      <trkpt lat="44.92104" lon="6.57447">
        <ele>1873.8</ele>
        <time>2025-02-12T09:55:23Z</time>
      </trkpt>
      <trkpt lat="44.92104" lon="6.57447">
        <ele>1873.8</ele>
        <time>2025-02-12T09:55:29Z</time>
      </trkpt>
      <trkpt lat="44.92093" lon="6.57443">
        <ele>1873.8</ele>
        <time>2025-02-12T09:55:35Z</time>
      </trkpt>
      <trkpt lat="44.92087" lon="6.57441">
        <ele>1873.7</ele>
        <time>2025-02-12T09:55:40Z</time>
      </trkpt>
      <trkpt lat="44.92087" lon="6.57441">
        <ele>1873.7</ele>
        <time>2025-02-12T09:55:45Z</time>
      </trkpt>
      <trkpt lat="44.92087" lon="6.57441">
        <ele>1873.7</ele>
        <time>2025-02-12T09:55:52Z</time>
      </trkpt>
      <trkpt lat="44.92087" lon="6.57441">
        <ele>1873.7</ele>
        <time>2025-02-12T09:55:58Z</time>
      </trkpt>
      <trkpt lat="44.92087" lon="6.57441">
        <ele>1873.7</ele>
        <time>2025-02-12T09:56:08Z</time>
      </trkpt>
      <trkpt lat="44.92071" lon="6.57436">
        <ele>1873.5</ele>
        <time>2025-02-12T09:56:16Z</time>
      </trkpt>
      <trkpt lat="44.92071" lon="6.57436">
        <ele>1873.5</ele>
        <time>2025-02-12T09:56:24Z</time>
      </trkpt>
      <trkpt lat="44.92071" lon="6.57436">
        <ele>1873.5</ele>
        <time>2025-02-12T09:56:34Z</time>
      </trkpt>
      <trkpt lat="44.92071" lon="6.57436">
        <ele>1873.5</ele>
        <time>2025-02-12T09:56:40Z</time>
      </trkpt>
      <trkpt lat="44.9205" lon="6.5743">
        <ele>1873.8</ele>
        <time>2025-02-12T09:56:45Z</time>
      </trkpt>
      <trkpt lat="44.92045" lon="6.57429">
        <ele>1873.9</ele>
        <time>2025-02-12T09:56:51Z</time>
      </trkpt>
      <trkpt lat="44.92043" lon="6.57429">
        <ele>1873.9</ele>
        <time>2025-02-12T09:56:56Z</time>
      </trkpt>
      <trkpt lat="44.9204" lon="6.57428">
        <ele>1874</ele>
        <time>2025-02-12T09:57:01Z</time>
      </trkpt>
      <trkpt lat="44.92036" lon="6.57427">
        <ele>1874.1</ele>
        <time>2025-02-12T09:57:07Z</time>
      </trkpt>
      <trkpt lat="44.92036" lon="6.57427">
        <ele>1874.1</ele>
        <time>2025-02-12T09:57:14Z</time>
      </trkpt>
      <trkpt lat="44.92028" lon="6.57425">
        <ele>1874.3</ele>
        <time>2025-02-12T09:57:21Z</time>
      </trkpt>
      <trkpt lat="44.92028" lon="6.57425">
        <ele>1874.3</ele>
        <time>2025-02-12T09:57:28Z</time>
      </trkpt>
      <trkpt lat="44.92028" lon="6.57425">
        <ele>1874.3</ele>
        <time>2025-02-12T09:57:35Z</time>
      </trkpt>
      <trkpt lat="44.92017" lon="6.57428">
        <ele>1874.9</ele>
        <time>2025-02-12T09:57:41Z</time>
      </trkpt>
      <trkpt lat="44.92017" lon="6.57428">
        <ele>1874.9</ele>
        <time>2025-02-12T09:57:47Z</time>
      </trkpt>
      <trkpt lat="44.92017" lon="6.57428">
        <ele>1874.9</ele>
        <time>2025-02-12T09:57:55Z</time>
      </trkpt>
      <trkpt lat="44.92017" lon="6.57428">
        <ele>1874.9</ele>
        <time>2025-02-12T09:58:04Z</time>
      </trkpt>
      <trkpt lat="44.92002" lon="6.57434">
        <ele>1876</ele>
        <time>2025-02-12T09:58:10Z</time>
      </trkpt>
      <trkpt lat="44.92002" lon="6.57434">
        <ele>1876</ele>
        <time>2025-02-12T09:58:17Z</time>
      </trkpt>
      <trkpt lat="44.91994" lon="6.57438">
        <ele>1877</ele>
        <time>2025-02-12T09:58:24Z</time>
      </trkpt>
      <trkpt lat="44.91994" lon="6.57438">
        <ele>1877</ele>
        <time>2025-02-12T09:58:29Z</time>
      </trkpt>
      <trkpt lat="44.91994" lon="6.57438">
        <ele>1877</ele>
        <time>2025-02-12T09:58:35Z</time>
      </trkpt>
      <trkpt lat="44.9198" lon="6.5744">
        <ele>1878.4</ele>
        <time>2025-02-12T09:58:40Z</time>
      </trkpt>
      <trkpt lat="44.9198" lon="6.5744">
        <ele>1878.4</ele>
        <time>2025-02-12T09:58:45Z</time>
      </trkpt>
      <trkpt lat="44.91975" lon="6.5744">
        <ele>1878.8</ele>
        <time>2025-02-12T09:58:50Z</time>
      </trkpt>
      <trkpt lat="44.91972" lon="6.57441">
        <ele>1879</ele>
        <time>2025-02-12T09:58:55Z</time>
      </trkpt>
      <trkpt lat="44.91972" lon="6.57441">
        <ele>1879</ele>
        <time>2025-02-12T09:59:00Z</time>
      </trkpt>
      <trkpt lat="44.91968" lon="6.57441">
        <ele>1879.3</ele>
        <time>2025-02-12T09:59:05Z</time>
      </trkpt>
      <trkpt lat="44.91968" lon="6.57441">
        <ele>1879.3</ele>
        <time>2025-02-12T09:59:12Z</time>
      </trkpt>
      <trkpt lat="44.91968" lon="6.57441">
        <ele>1879.3</ele>
        <time>2025-02-12T09:59:29Z</time>
      </trkpt>
      <trkpt lat="44.91967" lon="6.57441">
        <ele>1879.4</ele>
        <time>2025-02-12T09:59:34Z</time>
      </trkpt>
      <trkpt lat="44.91962" lon="6.57357">
        <ele>1904.1</ele>
        <time>2025-02-12T09:59:39Z</time>
      </trkpt>
      <trkpt lat="44.91961" lon="6.57352">
        <ele>1905.4</ele>
        <time>2025-02-12T09:59:45Z</time>
      </trkpt>
      <trkpt lat="44.91961" lon="6.57348">
        <ele>1906.6</ele>
        <time>2025-02-12T09:59:47Z</time>
      </trkpt>
      <trkpt lat="44.91962" lon="6.57346">
        <ele>1907.8</ele>
        <time>2025-02-12T09:59:50Z</time>
      </trkpt>
      <trkpt lat="44.9196" lon="6.57339">
        <ele>1909.2</ele>
        <time>2025-02-12T09:59:56Z</time>
      </trkpt>
      <trkpt lat="44.91959" lon="6.57333">
        <ele>1911.5</ele>
        <time>2025-02-12T10:00:01Z</time>
      </trkpt>
      <trkpt lat="44.91956" lon="6.57329">
        <ele>1912.8</ele>
        <time>2025-02-12T10:00:07Z</time>
      </trkpt>
      <trkpt lat="44.91952" lon="6.57324">
        <ele>1914.1</ele>
        <time>2025-02-12T10:00:13Z</time>
      </trkpt>
      <trkpt lat="44.91946" lon="6.57321">
        <ele>1915.8</ele>
        <time>2025-02-12T10:00:19Z</time>
      </trkpt>
      <trkpt lat="44.91942" lon="6.57319">
        <ele>1916</ele>
        <time>2025-02-12T10:00:24Z</time>
      </trkpt>
      <trkpt lat="44.91936" lon="6.57316">
        <ele>1917.6</ele>
        <time>2025-02-12T10:00:32Z</time>
      </trkpt>
      <trkpt lat="44.91934" lon="6.57314">
        <ele>1917.8</ele>
        <time>2025-02-12T10:00:38Z</time>
      </trkpt>
      <trkpt lat="44.91928" lon="6.57312">
        <ele>1919.3</ele>
        <time>2025-02-12T10:00:44Z</time>
      </trkpt>
      <trkpt lat="44.91927" lon="6.57311">
        <ele>1919.2</ele>
        <time>2025-02-12T10:00:50Z</time>
      </trkpt>
      <trkpt lat="44.91926" lon="6.57308">
        <ele>1920.4</ele>
        <time>2025-02-12T10:00:56Z</time>
      </trkpt>
      <trkpt lat="44.91923" lon="6.57304">
        <ele>1921.5</ele>
        <time>2025-02-12T10:01:03Z</time>
      </trkpt>
      <trkpt lat="44.91915" lon="6.57303">
        <ele>1922</ele>
        <time>2025-02-12T10:01:12Z</time>
      </trkpt>
      <trkpt lat="44.91911" lon="6.57302">
        <ele>1922.2</ele>
        <time>2025-02-12T10:01:18Z</time>
      </trkpt>
      <trkpt lat="44.91906" lon="6.573">
        <ele>1923.6</ele>
        <time>2025-02-12T10:01:24Z</time>
      </trkpt>
      <trkpt lat="44.91904" lon="6.57298">
        <ele>1923.9</ele>
        <time>2025-02-12T10:01:29Z</time>
      </trkpt>
      <trkpt lat="44.91903" lon="6.57296">
        <ele>1924.5</ele>
        <time>2025-02-12T10:01:36Z</time>
      </trkpt>
      <trkpt lat="44.91896" lon="6.57298">
        <ele>1924.5</ele>
        <time>2025-02-12T10:01:42Z</time>
      </trkpt>
      <trkpt lat="44.9189" lon="6.57299">
        <ele>1925.9</ele>
        <time>2025-02-12T10:01:48Z</time>
      </trkpt>
      <trkpt lat="44.91884" lon="6.57297">
        <ele>1926.4</ele>
        <time>2025-02-12T10:01:54Z</time>
      </trkpt>
      <trkpt lat="44.91882" lon="6.57293">
        <ele>1927.6</ele>
        <time>2025-02-12T10:02:01Z</time>
      </trkpt>
      <trkpt lat="44.91882" lon="6.57293">
        <ele>1927.5</ele>
        <time>2025-02-12T10:02:13Z</time>
      </trkpt>
      <trkpt lat="44.91878" lon="6.5729">
        <ele>1929.2</ele>
        <time>2025-02-12T10:02:20Z</time>
      </trkpt>
      <trkpt lat="44.91871" lon="6.57286">
        <ele>1930.6</ele>
        <time>2025-02-12T10:02:28Z</time>
      </trkpt>
      <trkpt lat="44.91866" lon="6.57279">
        <ele>1931.6</ele>
        <time>2025-02-12T10:02:33Z</time>
      </trkpt>
      <trkpt lat="44.91865" lon="6.57276">
        <ele>1932.6</ele>
        <time>2025-02-12T10:02:38Z</time>
      </trkpt>
      <trkpt lat="44.91862" lon="6.57274">
        <ele>1933.6</ele>
        <time>2025-02-12T10:02:43Z</time>
      </trkpt>
      <trkpt lat="44.91858" lon="6.57273">
        <ele>1933.9</ele>
        <time>2025-02-12T10:02:48Z</time>
      </trkpt>
      <trkpt lat="44.91853" lon="6.57273">
        <ele>1934.7</ele>
        <time>2025-02-12T10:02:55Z</time>
      </trkpt>
      <trkpt lat="44.91848" lon="6.57271">
        <ele>1935</ele>
        <time>2025-02-12T10:03:01Z</time>
      </trkpt>
      <trkpt lat="44.91847" lon="6.57271">
        <ele>1935.3</ele>
        <time>2025-02-12T10:03:06Z</time>
      </trkpt>
      <trkpt lat="44.91845" lon="6.5727">
        <ele>1935.9</ele>
        <time>2025-02-12T10:03:12Z</time>
      </trkpt>
      <trkpt lat="44.91843" lon="6.57267">
        <ele>1936.3</ele>
        <time>2025-02-12T10:03:18Z</time>
      </trkpt>
      <trkpt lat="44.91837" lon="6.57262">
        <ele>1937.9</ele>
        <time>2025-02-12T10:03:24Z</time>
      </trkpt>
      <trkpt lat="44.91832" lon="6.57258">
        <ele>1939</ele>
        <time>2025-02-12T10:03:30Z</time>
      </trkpt>
      <trkpt lat="44.91825" lon="6.57253">
        <ele>1940.8</ele>
        <time>2025-02-12T10:03:35Z</time>
      </trkpt>
      <trkpt lat="44.9182" lon="6.57252">
        <ele>1941.9</ele>
        <time>2025-02-12T10:03:41Z</time>
      </trkpt>
      <trkpt lat="44.9182" lon="6.5725">
        <ele>1941.8</ele>
        <time>2025-02-12T10:03:50Z</time>
      </trkpt>
      <trkpt lat="44.9182" lon="6.5725">
        <ele>1941.7</ele>
        <time>2025-02-12T10:04:05Z</time>
      </trkpt>
      <trkpt lat="44.9182" lon="6.5725">
        <ele>1941.6</ele>
        <time>2025-02-12T10:04:22Z</time>
      </trkpt>
      <trkpt lat="44.9182" lon="6.5725">
        <ele>1941.5</ele>
        <time>2025-02-12T10:04:33Z</time>
      </trkpt>
      <trkpt lat="44.91816" lon="6.57245">
        <ele>1942.2</ele>
        <time>2025-02-12T10:04:41Z</time>
      </trkpt>
      <trkpt lat="44.9181" lon="6.5724">
        <ele>1943.6</ele>
        <time>2025-02-12T10:04:46Z</time>
      </trkpt>
      <trkpt lat="44.91808" lon="6.5724">
        <ele>1943</ele>
        <time>2025-02-12T10:04:51Z</time>
      </trkpt>
      <trkpt lat="44.91806" lon="6.57233">
        <ele>1944.1</ele>
        <time>2025-02-12T10:04:57Z</time>
      </trkpt>
      <trkpt lat="44.9181" lon="6.57224">
        <ele>1945</ele>
        <time>2025-02-12T10:05:02Z</time>
      </trkpt>
      <trkpt lat="44.91811" lon="6.57221">
        <ele>1945.6</ele>
        <time>2025-02-12T10:05:07Z</time>
      </trkpt>
      <trkpt lat="44.9181" lon="6.57218">
        <ele>1946.2</ele>
        <time>2025-02-12T10:05:13Z</time>
      </trkpt>
      <trkpt lat="44.91809" lon="6.57214">
        <ele>1946.7</ele>
        <time>2025-02-12T10:05:19Z</time>
      </trkpt>
      <trkpt lat="44.91809" lon="6.57214">
        <ele>1946.6</ele>
        <time>2025-02-12T10:05:32Z</time>
      </trkpt>
      <trkpt lat="44.91809" lon="6.57214">
        <ele>1946.5</ele>
        <time>2025-02-12T10:05:39Z</time>
      </trkpt>
      <trkpt lat="44.91809" lon="6.57212">
        <ele>1946.4</ele>
        <time>2025-02-12T10:05:50Z</time>
      </trkpt>
      <trkpt lat="44.91809" lon="6.57212">
        <ele>1946.4</ele>
        <time>2025-02-12T10:06:07Z</time>
      </trkpt>
      <trkpt lat="44.91809" lon="6.57212">
        <ele>1946.4</ele>
        <time>2025-02-12T10:06:17Z</time>
      </trkpt>
      <trkpt lat="44.91812" lon="6.57212">
        <ele>1946.4</ele>
        <time>2025-02-12T10:06:27Z</time>
      </trkpt>
      <trkpt lat="44.91818" lon="6.57218">
        <ele>1946.4</ele>
        <time>2025-02-12T10:06:35Z</time>
      </trkpt>
      <trkpt lat="44.91822" lon="6.57218">
        <ele>1946.4</ele>
        <time>2025-02-12T10:06:46Z</time>
      </trkpt>
      <trkpt lat="44.91823" lon="6.57219">
        <ele>1946.4</ele>
        <time>2025-02-12T10:06:54Z</time>
      </trkpt>
      <trkpt lat="44.91823" lon="6.57219">
        <ele>1946.4</ele>
        <time>2025-02-12T10:07:03Z</time>
      </trkpt>
      <trkpt lat="44.91823" lon="6.57219">
        <ele>1946.4</ele>
        <time>2025-02-12T10:07:19Z</time>
      </trkpt>
      <trkpt lat="44.91824" lon="6.57219">
        <ele>1946.4</ele>
        <time>2025-02-12T10:07:35Z</time>
      </trkpt>
      <trkpt lat="44.91824" lon="6.57219">
        <ele>1946.4</ele>
        <time>2025-02-12T10:07:46Z</time>
      </trkpt>
      <trkpt lat="44.91824" lon="6.57218">
        <ele>1946.4</ele>
        <time>2025-02-12T10:07:58Z</time>
      </trkpt>
      <trkpt lat="44.91825" lon="6.57218">
        <ele>1946.4</ele>
        <time>2025-02-12T10:08:11Z</time>
      </trkpt>
      <trkpt lat="44.91821" lon="6.57213">
        <ele>1946.4</ele>
        <time>2025-02-12T10:08:20Z</time>
      </trkpt>
      <trkpt lat="44.91819" lon="6.57211">
        <ele>1946.3</ele>
        <time>2025-02-12T10:08:27Z</time>
      </trkpt>
      <trkpt lat="44.91815" lon="6.57205">
        <ele>1946.3</ele>
        <time>2025-02-12T10:08:35Z</time>
      </trkpt>
      <trkpt lat="44.91814" lon="6.57205">
        <ele>1946.3</ele>
        <time>2025-02-12T10:08:44Z</time>
      </trkpt>
      <trkpt lat="44.91809" lon="6.57202">
        <ele>1946.2</ele>
        <time>2025-02-12T10:08:53Z</time>
      </trkpt>
      <trkpt lat="44.91805" lon="6.57199">
        <ele>1946.2</ele>
        <time>2025-02-12T10:09:00Z</time>
      </trkpt>
      <trkpt lat="44.91805" lon="6.57199">
        <ele>1946.2</ele>
        <time>2025-02-12T10:09:12Z</time>
      </trkpt>
      <trkpt lat="44.91805" lon="6.57199">
        <ele>1946.2</ele>
        <time>2025-02-12T10:09:23Z</time>
      </trkpt>
      <trkpt lat="44.91805" lon="6.57199">
        <ele>1946.2</ele>
        <time>2025-02-12T10:09:33Z</time>
      </trkpt>
      <trkpt lat="44.91804" lon="6.57198">
        <ele>1946.2</ele>
        <time>2025-02-12T10:09:43Z</time>
      </trkpt>
      <trkpt lat="44.91799" lon="6.57198">
        <ele>1946.1</ele>
        <time>2025-02-12T10:09:53Z</time>
      </trkpt>
      <trkpt lat="44.9179" lon="6.57196">
        <ele>1946</ele>
        <time>2025-02-12T10:10:00Z</time>
      </trkpt>
      <trkpt lat="44.9179" lon="6.57196">
        <ele>1946</ele>
        <time>2025-02-12T10:10:13Z</time>
      </trkpt>
      <trkpt lat="44.9179" lon="6.57196">
        <ele>1946</ele>
        <time>2025-02-12T10:10:36Z</time>
      </trkpt>
      <trkpt lat="44.9179" lon="6.57196">
        <ele>1946</ele>
        <time>2025-02-12T10:10:52Z</time>
      </trkpt>
      <trkpt lat="44.9179" lon="6.57196">
        <ele>1946</ele>
        <time>2025-02-12T10:11:12Z</time>
      </trkpt>
      <trkpt lat="44.9179" lon="6.57196">
        <ele>1946</ele>
        <time>2025-02-12T10:11:35Z</time>
      </trkpt>
      <trkpt lat="44.9179" lon="6.57196">
        <ele>1946</ele>
        <time>2025-02-12T10:11:48Z</time>
      </trkpt>
      <trkpt lat="44.9179" lon="6.57196">
        <ele>1946</ele>
        <time>2025-02-12T10:12:01Z</time>
      </trkpt>
      <trkpt lat="44.9179" lon="6.57196">
        <ele>1946</ele>
        <time>2025-02-12T10:12:16Z</time>
      </trkpt>
      <trkpt lat="44.9179" lon="6.57196">
        <ele>1946</ele>
        <time>2025-02-12T10:12:33Z</time>
      </trkpt>
      <trkpt lat="44.9179" lon="6.57196">
        <ele>1946</ele>
        <time>2025-02-12T10:12:51Z</time>
      </trkpt>
      <trkpt lat="44.9179" lon="6.57196">
        <ele>1946</ele>
        <time>2025-02-12T10:13:11Z</time>
      </trkpt>
      <trkpt lat="44.91789" lon="6.57196">
        <ele>1946</ele>
        <time>2025-02-12T10:13:31Z</time>
      </trkpt>
      <trkpt lat="44.91788" lon="6.57196">
        <ele>1946</ele>
        <time>2025-02-12T10:13:44Z</time>
      </trkpt>
      <trkpt lat="44.91787" lon="6.57195">
        <ele>1945.9</ele>
        <time>2025-02-12T10:13:54Z</time>
      </trkpt>
      <trkpt lat="44.91787" lon="6.57195">
        <ele>1945.9</ele>
        <time>2025-02-12T10:14:08Z</time>
      </trkpt>
      <trkpt lat="44.91787" lon="6.57195">
        <ele>1945.9</ele>
        <time>2025-02-12T10:14:19Z</time>
      </trkpt>
      <trkpt lat="44.9179" lon="6.57203">
        <ele>1946.1</ele>
        <time>2025-02-12T10:14:30Z</time>
      </trkpt>
      <trkpt lat="44.91792" lon="6.57205">
        <ele>1946.1</ele>
        <time>2025-02-12T10:14:39Z</time>
      </trkpt>
      <trkpt lat="44.91793" lon="6.57205">
        <ele>1946.1</ele>
        <time>2025-02-12T10:14:49Z</time>
      </trkpt>
      <trkpt lat="44.91798" lon="6.57209">
        <ele>1946.2</ele>
        <time>2025-02-12T10:14:59Z</time>
      </trkpt>
      <trkpt lat="44.918" lon="6.57212">
        <ele>1946.3</ele>
        <time>2025-02-12T10:15:09Z</time>
      </trkpt>
      <trkpt lat="44.91803" lon="6.57212">
        <ele>1946.3</ele>
        <time>2025-02-12T10:15:19Z</time>
      </trkpt>
      <trkpt lat="44.91809" lon="6.57216">
        <ele>1946.4</ele>
        <time>2025-02-12T10:15:25Z</time>
      </trkpt>
      <trkpt lat="44.91811" lon="6.57216">
        <ele>1946.4</ele>
        <time>2025-02-12T10:15:32Z</time>
      </trkpt>
      <trkpt lat="44.91814" lon="6.5722">
        <ele>1946.4</ele>
        <time>2025-02-12T10:15:40Z</time>
      </trkpt>
      <trkpt lat="44.91818" lon="6.57223">
        <ele>1946.4</ele>
        <time>2025-02-12T10:15:48Z</time>
      </trkpt>
      <trkpt lat="44.91823" lon="6.57223">
        <ele>1946.4</ele>
        <time>2025-02-12T10:15:57Z</time>
      </trkpt>
      <trkpt lat="44.9183" lon="6.57224">
        <ele>1946.4</ele>
        <time>2025-02-12T10:16:04Z</time>
      </trkpt>
      <trkpt lat="44.91836" lon="6.57227">
        <ele>1946.3</ele>
        <time>2025-02-12T10:16:14Z</time>
      </trkpt>
      <trkpt lat="44.91842" lon="6.57227">
        <ele>1946.3</ele>
        <time>2025-02-12T10:16:24Z</time>
      </trkpt>
      <trkpt lat="44.91842" lon="6.57227">
        <ele>1946.3</ele>
        <time>2025-02-12T10:16:36Z</time>
      </trkpt>
      <trkpt lat="44.91835" lon="6.5722">
        <ele>1946.2</ele>
        <time>2025-02-12T10:16:44Z</time>
      </trkpt>
      <trkpt lat="44.91834" lon="6.5722">
        <ele>1946.2</ele>
        <time>2025-02-12T10:16:53Z</time>
      </trkpt>
      <trkpt lat="44.91833" lon="6.57218">
        <ele>1946.3</ele>
        <time>2025-02-12T10:17:01Z</time>
      </trkpt>
      <trkpt lat="44.91833" lon="6.57218">
        <ele>1946.3</ele>
        <time>2025-02-12T10:17:15Z</time>
      </trkpt>
      <trkpt lat="44.91833" lon="6.57217">
        <ele>1946.3</ele>
        <time>2025-02-12T10:17:24Z</time>
      </trkpt>
      <trkpt lat="44.91832" lon="6.57215">
        <ele>1946.3</ele>
        <time>2025-02-12T10:17:34Z</time>
      </trkpt>
      <trkpt lat="44.91832" lon="6.57215">
        <ele>1946.3</ele>
        <time>2025-02-12T10:17:45Z</time>
      </trkpt>
      <trkpt lat="44.91832" lon="6.57215">
        <ele>1946.3</ele>
        <time>2025-02-12T10:17:55Z</time>
      </trkpt>
      <trkpt lat="44.91833" lon="6.57212">
        <ele>1946.3</ele>
        <time>2025-02-12T10:18:07Z</time>
      </trkpt>
      <trkpt lat="44.91833" lon="6.57212">
        <ele>1946.3</ele>
        <time>2025-02-12T10:18:21Z</time>
      </trkpt>
      <trkpt lat="44.91833" lon="6.57212">
        <ele>1946.3</ele>
        <time>2025-02-12T10:18:37Z</time>
      </trkpt>
      <trkpt lat="44.91833" lon="6.57211">
        <ele>1946.3</ele>
        <time>2025-02-12T10:18:48Z</time>
      </trkpt>
      <trkpt lat="44.91833" lon="6.57211">
        <ele>1946.3</ele>
        <time>2025-02-12T10:19:02Z</time>
      </trkpt>
      <trkpt lat="44.91833" lon="6.57211">
        <ele>1946.3</ele>
        <time>2025-02-12T10:19:15Z</time>
      </trkpt>
      <trkpt lat="44.91833" lon="6.5721">
        <ele>1946.3</ele>
        <time>2025-02-12T10:19:31Z</time>
      </trkpt>
      <trkpt lat="44.91833" lon="6.5721">
        <ele>1946.3</ele>
        <time>2025-02-12T10:19:48Z</time>
      </trkpt>
      <trkpt lat="44.91833" lon="6.5721">
        <ele>1946.3</ele>
        <time>2025-02-12T10:20:02Z</time>
      </trkpt>
      <trkpt lat="44.91833" lon="6.57209">
        <ele>1946.3</ele>
        <time>2025-02-12T10:20:17Z</time>
      </trkpt>
      <trkpt lat="44.91833" lon="6.57209">
        <ele>1946.3</ele>
        <time>2025-02-12T10:20:30Z</time>
      </trkpt>
      <trkpt lat="44.91833" lon="6.57209">
        <ele>1946.3</ele>
        <time>2025-02-12T10:20:51Z</time>
      </trkpt>
      <trkpt lat="44.91833" lon="6.57209">
        <ele>1946.3</ele>
        <time>2025-02-12T10:21:11Z</time>
      </trkpt>
      <trkpt lat="44.91833" lon="6.57209">
        <ele>1946.3</ele>
        <time>2025-02-12T10:21:29Z</time>
      </trkpt>
      <trkpt lat="44.91833" lon="6.57209">
        <ele>1946.3</ele>
        <time>2025-02-12T10:21:52Z</time>
      </trkpt>
      <trkpt lat="44.91833" lon="6.57209">
        <ele>1946.3</ele>
        <time>2025-02-12T10:22:06Z</time>
      </trkpt>
      <trkpt lat="44.91833" lon="6.57209">
        <ele>1946.3</ele>
        <time>2025-02-12T10:22:19Z</time>
      </trkpt>
      <trkpt lat="44.91831" lon="6.57209">
        <ele>1946.3</ele>
        <time>2025-02-12T10:22:30Z</time>
      </trkpt>
      <trkpt lat="44.91829" lon="6.57207">
        <ele>1946.4</ele>
        <time>2025-02-12T10:22:39Z</time>
      </trkpt>
      <trkpt lat="44.91825" lon="6.57207">
        <ele>1946.4</ele>
        <time>2025-02-12T10:22:47Z</time>
      </trkpt>
      <trkpt lat="44.91823" lon="6.57207">
        <ele>1946.4</ele>
        <time>2025-02-12T10:22:55Z</time>
      </trkpt>
      <trkpt lat="44.91823" lon="6.57207">
        <ele>1946.4</ele>
        <time>2025-02-12T10:23:04Z</time>
      </trkpt>
      <trkpt lat="44.91823" lon="6.57207">
        <ele>1946.4</ele>
        <time>2025-02-12T10:23:14Z</time>
      </trkpt>
      <trkpt lat="44.91823" lon="6.57207">
        <ele>1946.4</ele>
        <time>2025-02-12T10:23:34Z</time>
      </trkpt>
      <trkpt lat="44.91823" lon="6.57208">
        <ele>1946.4</ele>
        <time>2025-02-12T10:23:59Z</time>
      </trkpt>
      <trkpt lat="44.91823" lon="6.57208">
        <ele>1946.4</ele>
        <time>2025-02-12T10:24:10Z</time>
      </trkpt>
      <trkpt lat="44.91817" lon="6.57204">
        <ele>1946.4</ele>
        <time>2025-02-12T10:24:19Z</time>
      </trkpt>
      <trkpt lat="44.91808" lon="6.57198">
        <ele>1946.4</ele>
        <time>2025-02-12T10:24:25Z</time>
      </trkpt>
      <trkpt lat="44.91802" lon="6.57197">
        <ele>1946.3</ele>
        <time>2025-02-12T10:24:32Z</time>
      </trkpt>
      <trkpt lat="44.91798" lon="6.57196">
        <ele>1946.1</ele>
        <time>2025-02-12T10:24:38Z</time>
      </trkpt>
      <trkpt lat="44.91797" lon="6.57196">
        <ele>1946.1</ele>
        <time>2025-02-12T10:24:45Z</time>
      </trkpt>
      <trkpt lat="44.91797" lon="6.57196">
        <ele>1946.1</ele>
        <time>2025-02-12T10:24:52Z</time>
      </trkpt>
      <trkpt lat="44.91791" lon="6.57195">
        <ele>1945.9</ele>
        <time>2025-02-12T10:24:57Z</time>
      </trkpt>
      <trkpt lat="44.91785" lon="6.57193">
        <ele>1945.7</ele>
        <time>2025-02-12T10:25:04Z</time>
      </trkpt>
      <trkpt lat="44.91782" lon="6.57192">
        <ele>1945.6</ele>
        <time>2025-02-12T10:25:09Z</time>
      </trkpt>
      <trkpt lat="44.91778" lon="6.57191">
        <ele>1945.5</ele>
        <time>2025-02-12T10:25:14Z</time>
      </trkpt>
      <trkpt lat="44.91776" lon="6.57189">
        <ele>1945.4</ele>
        <time>2025-02-12T10:25:20Z</time>
      </trkpt>
      <trkpt lat="44.91773" lon="6.57187">
        <ele>1945.2</ele>
        <time>2025-02-12T10:25:29Z</time>
      </trkpt>
      <trkpt lat="44.91771" lon="6.57185">
        <ele>1945.1</ele>
        <time>2025-02-12T10:25:40Z</time>
      </trkpt>
      <trkpt lat="44.9177" lon="6.57184">
        <ele>1945</ele>
        <time>2025-02-12T10:25:53Z</time>
      </trkpt>
      <trkpt lat="44.91768" lon="6.57183">
        <ele>1944.9</ele>
        <time>2025-02-12T10:26:01Z</time>
      </trkpt>
      <trkpt lat="44.91764" lon="6.57182">
        <ele>1944.6</ele>
        <time>2025-02-12T10:26:10Z</time>
      </trkpt>
      <trkpt lat="44.9176" lon="6.57182">
        <ele>1944.4</ele>
        <time>2025-02-12T10:26:23Z</time>
      </trkpt>
      <trkpt lat="44.91761" lon="6.57184">
        <ele>1944.2</ele>
        <time>2025-02-12T10:26:33Z</time>
      </trkpt>
      <trkpt lat="44.91761" lon="6.57184">
        <ele>1944.2</ele>
        <time>2025-02-12T10:26:44Z</time>
      </trkpt>
      <trkpt lat="44.91759" lon="6.57181">
        <ele>1944</ele>
        <time>2025-02-12T10:26:56Z</time>
      </trkpt>
      <trkpt lat="44.91754" lon="6.57176">
        <ele>1943.4</ele>
        <time>2025-02-12T10:27:06Z</time>
      </trkpt>
      <trkpt lat="44.91749" lon="6.57175">
        <ele>1942.9</ele>
        <time>2025-02-12T10:27:17Z</time>
      </trkpt>
      <trkpt lat="44.91748" lon="6.57175">
        <ele>1942.9</ele>
        <time>2025-02-12T10:27:29Z</time>
      </trkpt>
      <trkpt lat="44.91748" lon="6.57175">
        <ele>1942.9</ele>
        <time>2025-02-12T10:27:43Z</time>
      </trkpt>
      <trkpt lat="44.91748" lon="6.57175">
        <ele>1942.9</ele>
        <time>2025-02-12T10:27:55Z</time>
      </trkpt>
      <trkpt lat="44.91748" lon="6.57175">
        <ele>1942.8</ele>
        <time>2025-02-12T10:28:08Z</time>
      </trkpt>
      <trkpt lat="44.91748" lon="6.57175">
        <ele>1942.8</ele>
        <time>2025-02-12T10:28:23Z</time>
      </trkpt>
      <trkpt lat="44.91748" lon="6.57175">
        <ele>1942.8</ele>
        <time>2025-02-12T10:28:36Z</time>
      </trkpt>
      <trkpt lat="44.91748" lon="6.57175">
        <ele>1942.8</ele>
        <time>2025-02-12T10:28:49Z</time>
      </trkpt>
      <trkpt lat="44.91748" lon="6.57175">
        <ele>1942.8</ele>
        <time>2025-02-12T10:29:04Z</time>
      </trkpt>
      <trkpt lat="44.91747" lon="6.57175">
        <ele>1942.7</ele>
        <time>2025-02-12T10:29:19Z</time>
      </trkpt>
      <trkpt lat="44.91743" lon="6.57176">
        <ele>1942.2</ele>
        <time>2025-02-12T10:29:28Z</time>
      </trkpt>
      <trkpt lat="44.91739" lon="6.57175">
        <ele>1941.6</ele>
        <time>2025-02-12T10:29:38Z</time>
      </trkpt>
      <trkpt lat="44.91739" lon="6.57175">
        <ele>1941.6</ele>
        <time>2025-02-12T10:29:50Z</time>
      </trkpt>
      <trkpt lat="44.91733" lon="6.57175">
        <ele>1940.7</ele>
        <time>2025-02-12T10:30:01Z</time>
      </trkpt>
      <trkpt lat="44.9173" lon="6.57175">
        <ele>1940.2</ele>
        <time>2025-02-12T10:30:12Z</time>
      </trkpt>
      <trkpt lat="44.91729" lon="6.57176">
        <ele>1940.1</ele>
        <time>2025-02-12T10:30:26Z</time>
      </trkpt>
      <trkpt lat="44.91729" lon="6.57176">
        <ele>1940.1</ele>
        <time>2025-02-12T10:30:37Z</time>
      </trkpt>
      <trkpt lat="44.91726" lon="6.57178">
        <ele>1939.6</ele>
        <time>2025-02-12T10:30:47Z</time>
      </trkpt>
      <trkpt lat="44.91726" lon="6.57178">
        <ele>1939.6</ele>
        <time>2025-02-12T10:30:58Z</time>
      </trkpt>
      <trkpt lat="44.91726" lon="6.57178">
        <ele>1939.6</ele>
        <time>2025-02-12T10:31:10Z</time>
      </trkpt>
      <trkpt lat="44.91726" lon="6.57178">
        <ele>1939.5</ele>
        <time>2025-02-12T10:31:22Z</time>
      </trkpt>
      <trkpt lat="44.91726" lon="6.57178">
        <ele>1939.5</ele>
        <time>2025-02-12T10:31:41Z</time>
      </trkpt>
      <trkpt lat="44.91725" lon="6.57178">
        <ele>1939.3</ele>
        <time>2025-02-12T10:32:02Z</time>
      </trkpt>
      <trkpt lat="44.91724" lon="6.5718">
        <ele>1939.1</ele>
        <time>2025-02-12T10:32:13Z</time>
      </trkpt>
      <trkpt lat="44.91724" lon="6.5718">
        <ele>1939.1</ele>
        <time>2025-02-12T10:32:23Z</time>
      </trkpt>
      <trkpt lat="44.91722" lon="6.57183">
        <ele>1938.7</ele>
        <time>2025-02-12T10:32:33Z</time>
      </trkpt>
      <trkpt lat="44.91722" lon="6.57185">
        <ele>1938.4</ele>
        <time>2025-02-12T10:32:43Z</time>
      </trkpt>
      <trkpt lat="44.9172" lon="6.57195">
        <ele>1937.5</ele>
        <time>2025-02-12T10:32:54Z</time>
      </trkpt>
      <trkpt lat="44.9172" lon="6.57198">
        <ele>1938</ele>
        <time>2025-02-12T10:33:03Z</time>
      </trkpt>
      <trkpt lat="44.9172" lon="6.57198">
        <ele>1938.4</ele>
        <time>2025-02-12T10:33:13Z</time>
      </trkpt>
      <trkpt lat="44.9172" lon="6.57198">
        <ele>1938.8</ele>
        <time>2025-02-12T10:33:24Z</time>
      </trkpt>
      <trkpt lat="44.91719" lon="6.57202">
        <ele>1938.8</ele>
        <time>2025-02-12T10:33:34Z</time>
      </trkpt>
      <trkpt lat="44.91719" lon="6.57202">
        <ele>1939.1</ele>
        <time>2025-02-12T10:33:44Z</time>
      </trkpt>
      <trkpt lat="44.91719" lon="6.57202">
        <ele>1939.5</ele>
        <time>2025-02-12T10:33:56Z</time>
      </trkpt>
      <trkpt lat="44.91719" lon="6.57202">
        <ele>1939.9</ele>
        <time>2025-02-12T10:34:07Z</time>
      </trkpt>
      <trkpt lat="44.91719" lon="6.57206">
        <ele>1939.9</ele>
        <time>2025-02-12T10:34:17Z</time>
      </trkpt>
      <trkpt lat="44.91719" lon="6.57208">
        <ele>1940.3</ele>
        <time>2025-02-12T10:34:28Z</time>
      </trkpt>
      <trkpt lat="44.91719" lon="6.57213">
        <ele>1940.3</ele>
        <time>2025-02-12T10:34:36Z</time>
      </trkpt>
      <trkpt lat="44.91719" lon="6.57213">
        <ele>1940.6</ele>
        <time>2025-02-12T10:34:50Z</time>
      </trkpt>
      <trkpt lat="44.91719" lon="6.57213">
        <ele>1941</ele>
        <time>2025-02-12T10:35:01Z</time>
      </trkpt>
      <trkpt lat="44.91723" lon="6.57219">
        <ele>1939.3</ele>
        <time>2025-02-12T10:35:13Z</time>
      </trkpt>
      <trkpt lat="44.91725" lon="6.57229">
        <ele>1938.8</ele>
        <time>2025-02-12T10:35:23Z</time>
      </trkpt>
      <trkpt lat="44.91724" lon="6.57241">
        <ele>1938.1</ele>
        <time>2025-02-12T10:35:31Z</time>
      </trkpt>
      <trkpt lat="44.91724" lon="6.57253">
        <ele>1937.6</ele>
        <time>2025-02-12T10:35:37Z</time>
      </trkpt>
      <trkpt lat="44.91724" lon="6.57253">
        <ele>1938</ele>
        <time>2025-02-12T10:35:44Z</time>
      </trkpt>
      <trkpt lat="44.91724" lon="6.57254">
        <ele>1938.3</ele>
        <time>2025-02-12T10:35:51Z</time>
      </trkpt>
      <trkpt lat="44.91727" lon="6.57259">
        <ele>1937.9</ele>
        <time>2025-02-12T10:35:55Z</time>
      </trkpt>
      <trkpt lat="44.91716" lon="6.57261">
        <ele>1939</ele>
        <time>2025-02-12T10:35:57Z</time>
      </trkpt>
      <trkpt lat="44.91714" lon="6.57272">
        <ele>1939.7</ele>
        <time>2025-02-12T10:35:59Z</time>
      </trkpt>
      <trkpt lat="44.91713" lon="6.57277">
        <ele>1940.1</ele>
        <time>2025-02-12T10:36:03Z</time>
      </trkpt>
      <trkpt lat="44.91712" lon="6.57291">
        <ele>1941.1</ele>
        <time>2025-02-12T10:36:12Z</time>
      </trkpt>
      <trkpt lat="44.91711" lon="6.57293">
        <ele>1941.3</ele>
        <time>2025-02-12T10:36:17Z</time>
      </trkpt>
      <trkpt lat="44.91711" lon="6.57293">
        <ele>1941.3</ele>
        <time>2025-02-12T10:36:25Z</time>
      </trkpt>
      <trkpt lat="44.91713" lon="6.57306">
        <ele>1942.2</ele>
        <time>2025-02-12T10:36:30Z</time>
      </trkpt>
      <trkpt lat="44.91716" lon="6.57321">
        <ele>1943.5</ele>
        <time>2025-02-12T10:36:37Z</time>
      </trkpt>
      <trkpt lat="44.91718" lon="6.57332">
        <ele>1944.5</ele>
        <time>2025-02-12T10:36:44Z</time>
      </trkpt>
      <trkpt lat="44.91719" lon="6.57334">
        <ele>1944.6</ele>
        <time>2025-02-12T10:36:50Z</time>
      </trkpt>
      <trkpt lat="44.91719" lon="6.57334">
        <ele>1944.6</ele>
        <time>2025-02-12T10:36:58Z</time>
      </trkpt>
      <trkpt lat="44.91719" lon="6.57334">
        <ele>1944.6</ele>
        <time>2025-02-12T10:37:07Z</time>
      </trkpt>
      <trkpt lat="44.91719" lon="6.57334">
        <ele>1944.6</ele>
        <time>2025-02-12T10:37:15Z</time>
      </trkpt>
      <trkpt lat="44.91724" lon="6.57359">
        <ele>1946.8</ele>
        <time>2025-02-12T10:37:20Z</time>
      </trkpt>
      <trkpt lat="44.91726" lon="6.5737">
        <ele>1947.7</ele>
        <time>2025-02-12T10:37:26Z</time>
      </trkpt>
      <trkpt lat="44.91728" lon="6.57381">
        <ele>1948.4</ele>
        <time>2025-02-12T10:37:33Z</time>
      </trkpt>
      <trkpt lat="44.91728" lon="6.57381">
        <ele>1948.4</ele>
        <time>2025-02-12T10:37:36Z</time>
      </trkpt>
      <trkpt lat="44.91728" lon="6.57381">
        <ele>1948.4</ele>
        <time>2025-02-12T10:37:41Z</time>
      </trkpt>
      <trkpt lat="44.91728" lon="6.57381">
        <ele>1948.4</ele>
        <time>2025-02-12T10:37:43Z</time>
      </trkpt>
      <trkpt lat="44.91728" lon="6.57381">
        <ele>1948.4</ele>
        <time>2025-02-12T10:37:55Z</time>
      </trkpt>
      <trkpt lat="44.91728" lon="6.57381">
        <ele>1948.4</ele>
        <time>2025-02-12T10:38:07Z</time>
      </trkpt>
      <trkpt lat="44.9173" lon="6.57389">
        <ele>1949</ele>
        <time>2025-02-12T10:38:19Z</time>
      </trkpt>
      <trkpt lat="44.9173" lon="6.57394">
        <ele>1949.2</ele>
        <time>2025-02-12T10:38:26Z</time>
      </trkpt>
      <trkpt lat="44.91731" lon="6.57415">
        <ele>1950.3</ele>
        <time>2025-02-12T10:38:33Z</time>
      </trkpt>
      <trkpt lat="44.91731" lon="6.57422">
        <ele>1950.8</ele>
        <time>2025-02-12T10:38:43Z</time>
      </trkpt>
      <trkpt lat="44.91729" lon="6.57433">
        <ele>1951.7</ele>
        <time>2025-02-12T10:38:50Z</time>
      </trkpt>
      <trkpt lat="44.91727" lon="6.57439">
        <ele>1951.8</ele>
        <time>2025-02-12T10:38:58Z</time>
      </trkpt>
      <trkpt lat="44.91724" lon="6.57442">
        <ele>1952.9</ele>
        <time>2025-02-12T10:39:05Z</time>
      </trkpt>
      <trkpt lat="44.91724" lon="6.57442">
        <ele>1953.1</ele>
        <time>2025-02-12T10:39:14Z</time>
      </trkpt>
      <trkpt lat="44.91721" lon="6.57435">
        <ele>1954.2</ele>
        <time>2025-02-12T10:39:22Z</time>
      </trkpt>
      <trkpt lat="44.91717" lon="6.57429">
        <ele>1955.3</ele>
        <time>2025-02-12T10:39:29Z</time>
      </trkpt>
      <trkpt lat="44.91712" lon="6.57421">
        <ele>1957.2</ele>
        <time>2025-02-12T10:39:36Z</time>
      </trkpt>
      <trkpt lat="44.91711" lon="6.5742">
        <ele>1957.4</ele>
        <time>2025-02-12T10:39:45Z</time>
      </trkpt>
      <trkpt lat="44.9171" lon="6.57416">
        <ele>1958.4</ele>
        <time>2025-02-12T10:39:53Z</time>
      </trkpt>
      <trkpt lat="44.9171" lon="6.57416">
        <ele>1958.5</ele>
        <time>2025-02-12T10:40:04Z</time>
      </trkpt>
      <trkpt lat="44.91702" lon="6.57408">
        <ele>1960.4</ele>
        <time>2025-02-12T10:40:13Z</time>
      </trkpt>
      <trkpt lat="44.91697" lon="6.57402">
        <ele>1962.7</ele>
        <time>2025-02-12T10:40:22Z</time>
      </trkpt>
      <trkpt lat="44.91689" lon="6.57398">
        <ele>1966.3</ele>
        <time>2025-02-12T10:40:32Z</time>
      </trkpt>
      <trkpt lat="44.91677" lon="6.57398">
        <ele>1970.4</ele>
        <time>2025-02-12T10:40:40Z</time>
      </trkpt>
      <trkpt lat="44.91676" lon="6.57396">
        <ele>1970.7</ele>
        <time>2025-02-12T10:40:49Z</time>
      </trkpt>
      <trkpt lat="44.91676" lon="6.57395">
        <ele>1970.8</ele>
        <time>2025-02-12T10:40:57Z</time>
      </trkpt>
      <trkpt lat="44.91669" lon="6.57381">
        <ele>1972.3</ele>
        <time>2025-02-12T10:41:07Z</time>
      </trkpt>
      <trkpt lat="44.91666" lon="6.57376">
        <ele>1973</ele>
        <time>2025-02-12T10:41:14Z</time>
      </trkpt>
      <trkpt lat="44.91663" lon="6.5737">
        <ele>1973.7</ele>
        <time>2025-02-12T10:41:23Z</time>
      </trkpt>
      <trkpt lat="44.91662" lon="6.5737">
        <ele>1973.7</ele>
        <time>2025-02-12T10:41:33Z</time>
      </trkpt>
      <trkpt lat="44.91658" lon="6.57369">
        <ele>1974.3</ele>
        <time>2025-02-12T10:41:40Z</time>
      </trkpt>
      <trkpt lat="44.91657" lon="6.57369">
        <ele>1974.5</ele>
        <time>2025-02-12T10:41:50Z</time>
      </trkpt>
      <trkpt lat="44.91655" lon="6.57366">
        <ele>1974.9</ele>
        <time>2025-02-12T10:41:58Z</time>
      </trkpt>
      <trkpt lat="44.91655" lon="6.57366">
        <ele>1974.9</ele>
        <time>2025-02-12T10:42:10Z</time>
      </trkpt>
      <trkpt lat="44.91655" lon="6.57366">
        <ele>1974.9</ele>
        <time>2025-02-12T10:42:22Z</time>
      </trkpt>
      <trkpt lat="44.91655" lon="6.57366">
        <ele>1975</ele>
        <time>2025-02-12T10:42:36Z</time>
      </trkpt>
      <trkpt lat="44.91655" lon="6.57366">
        <ele>1975</ele>
        <time>2025-02-12T10:42:50Z</time>
      </trkpt>
      <trkpt lat="44.91652" lon="6.5736">
        <ele>1975.9</ele>
        <time>2025-02-12T10:43:03Z</time>
      </trkpt>
      <trkpt lat="44.91652" lon="6.5736">
        <ele>1975.9</ele>
        <time>2025-02-12T10:43:17Z</time>
      </trkpt>
      <trkpt lat="44.91652" lon="6.5736">
        <ele>1975.9</ele>
        <time>2025-02-12T10:43:32Z</time>
      </trkpt>
      <trkpt lat="44.9165" lon="6.57359">
        <ele>1976.3</ele>
        <time>2025-02-12T10:43:45Z</time>
      </trkpt>
      <trkpt lat="44.9165" lon="6.57359">
        <ele>1976.3</ele>
        <time>2025-02-12T10:44:01Z</time>
      </trkpt>
      <trkpt lat="44.9165" lon="6.57359">
        <ele>1976.3</ele>
        <time>2025-02-12T10:44:15Z</time>
      </trkpt>
      <trkpt lat="44.91646" lon="6.5736">
        <ele>1977</ele>
        <time>2025-02-12T10:44:27Z</time>
      </trkpt>
      <trkpt lat="44.91646" lon="6.5736">
        <ele>1977</ele>
        <time>2025-02-12T10:44:40Z</time>
      </trkpt>
      <trkpt lat="44.91646" lon="6.5736">
        <ele>1977</ele>
        <time>2025-02-12T10:44:52Z</time>
      </trkpt>
      <trkpt lat="44.91646" lon="6.5736">
        <ele>1977</ele>
        <time>2025-02-12T10:45:02Z</time>
      </trkpt>
      <trkpt lat="44.91646" lon="6.5736">
        <ele>1977</ele>
        <time>2025-02-12T10:45:15Z</time>
      </trkpt>
      <trkpt lat="44.91645" lon="6.57359">
        <ele>1977.2</ele>
        <time>2025-02-12T10:45:29Z</time>
      </trkpt>
      <trkpt lat="44.91644" lon="6.5736">
        <ele>1977.4</ele>
        <time>2025-02-12T10:45:38Z</time>
      </trkpt>
      <trkpt lat="44.91644" lon="6.5736">
        <ele>1977.4</ele>
        <time>2025-02-12T10:45:50Z</time>
      </trkpt>
      <trkpt lat="44.91644" lon="6.5736">
        <ele>1977.4</ele>
        <time>2025-02-12T10:46:04Z</time>
      </trkpt>
      <trkpt lat="44.91644" lon="6.5736">
        <ele>1977.5</ele>
        <time>2025-02-12T10:46:17Z</time>
      </trkpt>
      <trkpt lat="44.91644" lon="6.5736">
        <ele>1977.5</ele>
        <time>2025-02-12T10:46:31Z</time>
      </trkpt>
      <trkpt lat="44.91644" lon="6.5736">
        <ele>1977.5</ele>
        <time>2025-02-12T10:46:44Z</time>
      </trkpt>
      <trkpt lat="44.91643" lon="6.5736">
        <ele>1977.7</ele>
        <time>2025-02-12T10:46:53Z</time>
      </trkpt>
      <trkpt lat="44.91643" lon="6.5736">
        <ele>1977.7</ele>
        <time>2025-02-12T10:47:05Z</time>
      </trkpt>
      <trkpt lat="44.91643" lon="6.5736">
        <ele>1977.7</ele>
        <time>2025-02-12T10:47:16Z</time>
      </trkpt>
      <trkpt lat="44.91641" lon="6.5736">
        <ele>1978.2</ele>
        <time>2025-02-12T10:47:30Z</time>
      </trkpt>
      <trkpt lat="44.91641" lon="6.5736">
        <ele>1978.2</ele>
        <time>2025-02-12T10:47:45Z</time>
      </trkpt>
      <trkpt lat="44.91641" lon="6.5736">
        <ele>1978.2</ele>
        <time>2025-02-12T10:47:59Z</time>
      </trkpt>
      <trkpt lat="44.9164" lon="6.57361">
        <ele>1978.5</ele>
        <time>2025-02-12T10:48:09Z</time>
      </trkpt>
      <trkpt lat="44.9164" lon="6.57361">
        <ele>1978.5</ele>
        <time>2025-02-12T10:48:22Z</time>
      </trkpt>
      <trkpt lat="44.9164" lon="6.57361">
        <ele>1978.5</ele>
        <time>2025-02-12T10:48:36Z</time>
      </trkpt>
      <trkpt lat="44.9164" lon="6.57361">
        <ele>1978.6</ele>
        <time>2025-02-12T10:48:50Z</time>
      </trkpt>
      <trkpt lat="44.9164" lon="6.57361">
        <ele>1978.6</ele>
        <time>2025-02-12T10:49:05Z</time>
      </trkpt>
      <trkpt lat="44.9164" lon="6.57361">
        <ele>1978.6</ele>
        <time>2025-02-12T10:49:18Z</time>
      </trkpt>
      <trkpt lat="44.91639" lon="6.57363">
        <ele>1978.9</ele>
        <time>2025-02-12T10:49:33Z</time>
      </trkpt>
      <trkpt lat="44.91637" lon="6.57365">
        <ele>1979.4</ele>
        <time>2025-02-12T10:49:42Z</time>
      </trkpt>
      <trkpt lat="44.91637" lon="6.57365">
        <ele>1979.4</ele>
        <time>2025-02-12T10:49:57Z</time>
      </trkpt>
      <trkpt lat="44.91637" lon="6.57367">
        <ele>1979.7</ele>
        <time>2025-02-12T10:50:15Z</time>
      </trkpt>
      <trkpt lat="44.91637" lon="6.57367">
        <ele>1979.7</ele>
        <time>2025-02-12T10:50:32Z</time>
      </trkpt>
      <trkpt lat="44.91637" lon="6.57367">
        <ele>1979.7</ele>
        <time>2025-02-12T10:50:47Z</time>
      </trkpt>
      <trkpt lat="44.91637" lon="6.57368">
        <ele>1979.9</ele>
        <time>2025-02-12T10:51:04Z</time>
      </trkpt>
      <trkpt lat="44.91637" lon="6.57368">
        <ele>1979.9</ele>
        <time>2025-02-12T10:51:22Z</time>
      </trkpt>
      <trkpt lat="44.91639" lon="6.57369">
        <ele>1980.3</ele>
        <time>2025-02-12T10:51:37Z</time>
      </trkpt>
      <trkpt lat="44.91639" lon="6.57369">
        <ele>1980.3</ele>
        <time>2025-02-12T10:51:54Z</time>
      </trkpt>
      <trkpt lat="44.91639" lon="6.57369">
        <ele>1980.3</ele>
        <time>2025-02-12T10:52:10Z</time>
      </trkpt>
      <trkpt lat="44.91638" lon="6.57369">
        <ele>1980.2</ele>
        <time>2025-02-12T10:52:26Z</time>
      </trkpt>
      <trkpt lat="44.91638" lon="6.57368">
        <ele>1980</ele>
        <time>2025-02-12T10:52:39Z</time>
      </trkpt>
      <trkpt lat="44.91638" lon="6.57368">
        <ele>1980</ele>
        <time>2025-02-12T10:52:52Z</time>
      </trkpt>
      <trkpt lat="44.91638" lon="6.57368">
        <ele>1979.9</ele>
        <time>2025-02-12T10:53:13Z</time>
      </trkpt>
      <trkpt lat="44.91638" lon="6.57368">
        <ele>1979.9</ele>
        <time>2025-02-12T10:53:29Z</time>
      </trkpt>
      <trkpt lat="44.91638" lon="6.57368">
        <ele>1979.8</ele>
        <time>2025-02-12T10:53:43Z</time>
      </trkpt>
      <trkpt lat="44.91639" lon="6.57368">
        <ele>1979.7</ele>
        <time>2025-02-12T10:53:55Z</time>
      </trkpt>
      <trkpt lat="44.91639" lon="6.57368">
        <ele>1979.7</ele>
        <time>2025-02-12T10:54:11Z</time>
      </trkpt>
      <trkpt lat="44.91639" lon="6.57369">
        <ele>1979.6</ele>
        <time>2025-02-12T10:54:28Z</time>
      </trkpt>
      <trkpt lat="44.91639" lon="6.57369">
        <ele>1979.6</ele>
        <time>2025-02-12T10:54:42Z</time>
      </trkpt>
      <trkpt lat="44.91639" lon="6.57367">
        <ele>1979.2</ele>
        <time>2025-02-12T10:54:55Z</time>
      </trkpt>
      <trkpt lat="44.91639" lon="6.57367">
        <ele>1979.2</ele>
        <time>2025-02-12T10:55:09Z</time>
      </trkpt>
      <trkpt lat="44.91639" lon="6.57367">
        <ele>1979.2</ele>
        <time>2025-02-12T10:55:25Z</time>
      </trkpt>
      <trkpt lat="44.91639" lon="6.57368">
        <ele>1979.1</ele>
        <time>2025-02-12T10:55:40Z</time>
      </trkpt>
      <trkpt lat="44.91643" lon="6.57368">
        <ele>1978</ele>
        <time>2025-02-12T10:55:53Z</time>
      </trkpt>
      <trkpt lat="44.91643" lon="6.57368">
        <ele>1978</ele>
        <time>2025-02-12T10:56:05Z</time>
      </trkpt>
      <trkpt lat="44.91643" lon="6.57368">
        <ele>1978</ele>
        <time>2025-02-12T10:56:19Z</time>
      </trkpt>
      <trkpt lat="44.91643" lon="6.57368">
        <ele>1978</ele>
        <time>2025-02-12T10:56:31Z</time>
      </trkpt>
      <trkpt lat="44.91644" lon="6.57368">
        <ele>1977.9</ele>
        <time>2025-02-12T10:56:44Z</time>
      </trkpt>
      <trkpt lat="44.91651" lon="6.57372">
        <ele>1975.9</ele>
        <time>2025-02-12T10:56:55Z</time>
      </trkpt>
      <trkpt lat="44.91651" lon="6.57372">
        <ele>1975.9</ele>
        <time>2025-02-12T10:57:07Z</time>
      </trkpt>
      <trkpt lat="44.91651" lon="6.57372">
        <ele>1975.9</ele>
        <time>2025-02-12T10:57:18Z</time>
      </trkpt>
      <trkpt lat="44.91651" lon="6.57372">
        <ele>1975.9</ele>
        <time>2025-02-12T10:57:29Z</time>
      </trkpt>
      <trkpt lat="44.91654" lon="6.57374">
        <ele>1975.1</ele>
        <time>2025-02-12T10:57:41Z</time>
      </trkpt>
      <trkpt lat="44.91654" lon="6.57374">
        <ele>1975.1</ele>
        <time>2025-02-12T10:57:57Z</time>
      </trkpt>
      <trkpt lat="44.91654" lon="6.57375">
        <ele>1974.9</ele>
        <time>2025-02-12T10:58:16Z</time>
      </trkpt>
      <trkpt lat="44.91654" lon="6.57375">
        <ele>1974.9</ele>
        <time>2025-02-12T10:58:31Z</time>
      </trkpt>
      <trkpt lat="44.91654" lon="6.57375">
        <ele>1974.9</ele>
        <time>2025-02-12T10:58:46Z</time>
      </trkpt>
      <trkpt lat="44.91654" lon="6.57375">
        <ele>1974.8</ele>
        <time>2025-02-12T10:59:04Z</time>
      </trkpt>
      <trkpt lat="44.91654" lon="6.57375">
        <ele>1974.8</ele>
        <time>2025-02-12T10:59:19Z</time>
      </trkpt>
      <trkpt lat="44.91654" lon="6.57375">
        <ele>1974.8</ele>
        <time>2025-02-12T10:59:32Z</time>
      </trkpt>
      <trkpt lat="44.91654" lon="6.57376">
        <ele>1974.6</ele>
        <time>2025-02-12T10:59:47Z</time>
      </trkpt>
      <trkpt lat="44.91654" lon="6.57376">
        <ele>1974.6</ele>
        <time>2025-02-12T11:00:02Z</time>
      </trkpt>
      <trkpt lat="44.91656" lon="6.57374">
        <ele>1974.3</ele>
        <time>2025-02-12T11:00:13Z</time>
      </trkpt>
      <trkpt lat="44.91656" lon="6.57374">
        <ele>1974.3</ele>
        <time>2025-02-12T11:00:26Z</time>
      </trkpt>
      <trkpt lat="44.91656" lon="6.57374">
        <ele>1974.3</ele>
        <time>2025-02-12T11:00:40Z</time>
      </trkpt>
      <trkpt lat="44.91656" lon="6.57374">
        <ele>1974.3</ele>
        <time>2025-02-12T11:00:55Z</time>
      </trkpt>
      <trkpt lat="44.91656" lon="6.57374">
        <ele>1974.3</ele>
        <time>2025-02-12T11:01:08Z</time>
      </trkpt>
      <trkpt lat="44.9166" lon="6.57374">
        <ele>1974.6</ele>
        <time>2025-02-12T11:01:18Z</time>
      </trkpt>
      <trkpt lat="44.9166" lon="6.57374">
        <ele>1974.6</ele>
        <time>2025-02-12T11:01:37Z</time>
      </trkpt>
      <trkpt lat="44.91661" lon="6.57374">
        <ele>1974.6</ele>
        <time>2025-02-12T11:01:52Z</time>
      </trkpt>
      <trkpt lat="44.91661" lon="6.57374">
        <ele>1974.6</ele>
        <time>2025-02-12T11:02:12Z</time>
      </trkpt>
      <trkpt lat="44.91661" lon="6.57374">
        <ele>1974.6</ele>
        <time>2025-02-12T11:02:30Z</time>
      </trkpt>
      <trkpt lat="44.91661" lon="6.57374">
        <ele>1974.6</ele>
        <time>2025-02-12T11:02:47Z</time>
      </trkpt>
      <trkpt lat="44.91661" lon="6.57374">
        <ele>1974.6</ele>
        <time>2025-02-12T11:03:06Z</time>
      </trkpt>
      <trkpt lat="44.91661" lon="6.57374">
        <ele>1974.6</ele>
        <time>2025-02-12T11:03:23Z</time>
      </trkpt>
      <trkpt lat="44.91657" lon="6.57379">
        <ele>1974.9</ele>
        <time>2025-02-12T11:03:33Z</time>
      </trkpt>
      <trkpt lat="44.91655" lon="6.57384">
        <ele>1975.2</ele>
        <time>2025-02-12T11:03:40Z</time>
      </trkpt>
      <trkpt lat="44.91655" lon="6.57384">
        <ele>1975.2</ele>
        <time>2025-02-12T11:03:52Z</time>
      </trkpt>
      <trkpt lat="44.91655" lon="6.57384">
        <ele>1975.2</ele>
        <time>2025-02-12T11:04:03Z</time>
      </trkpt>
      <trkpt lat="44.91652" lon="6.57396">
        <ele>1976.1</ele>
        <time>2025-02-12T11:04:13Z</time>
      </trkpt>
      <trkpt lat="44.91652" lon="6.57406">
        <ele>1976.8</ele>
        <time>2025-02-12T11:04:22Z</time>
      </trkpt>
      <trkpt lat="44.91651" lon="6.57413">
        <ele>1977.2</ele>
        <time>2025-02-12T11:04:29Z</time>
      </trkpt>
      <trkpt lat="44.91648" lon="6.57417">
        <ele>1977.5</ele>
        <time>2025-02-12T11:04:36Z</time>
      </trkpt>
      <trkpt lat="44.91644" lon="6.57419">
        <ele>1977.8</ele>
        <time>2025-02-12T11:04:43Z</time>
      </trkpt>
      <trkpt lat="44.9164" lon="6.57424">
        <ele>1978.1</ele>
        <time>2025-02-12T11:04:50Z</time>
      </trkpt>
      <trkpt lat="44.91636" lon="6.57427">
        <ele>1978.4</ele>
        <time>2025-02-12T11:04:58Z</time>
      </trkpt>
      <trkpt lat="44.91635" lon="6.57429">
        <ele>1978.5</ele>
        <time>2025-02-12T11:05:06Z</time>
      </trkpt>
      <trkpt lat="44.91657" lon="6.57371">
        <ele>1974.3</ele>
        <time>2025-02-12T11:05:19Z</time>
      </trkpt>
      <trkpt lat="44.91657" lon="6.57371">
        <ele>1974.3</ele>
        <time>2025-02-12T11:05:24Z</time>
      </trkpt>
      <trkpt lat="44.91657" lon="6.57371">
        <ele>1974.3</ele>
        <time>2025-02-12T11:05:26Z</time>
      </trkpt>
      <trkpt lat="44.91657" lon="6.57371">
        <ele>1974.3</ele>
        <time>2025-02-12T11:05:30Z</time>
      </trkpt>
      <trkpt lat="44.91657" lon="6.57371">
        <ele>1974.3</ele>
        <time>2025-02-12T11:05:36Z</time>
      </trkpt>
      <trkpt lat="44.91657" lon="6.57371">
        <ele>1974.3</ele>
        <time>2025-02-12T11:05:44Z</time>
      </trkpt>
      <trkpt lat="44.91631" lon="6.57438">
        <ele>1979.7</ele>
        <time>2025-02-12T11:05:52Z</time>
      </trkpt>
      <trkpt lat="44.91627" lon="6.57445">
        <ele>1980.5</ele>
        <time>2025-02-12T11:05:58Z</time>
      </trkpt>
      <trkpt lat="44.91624" lon="6.57449">
        <ele>1980.9</ele>
        <time>2025-02-12T11:06:04Z</time>
      </trkpt>
      <trkpt lat="44.91621" lon="6.57455">
        <ele>1981.6</ele>
        <time>2025-02-12T11:06:10Z</time>
      </trkpt>
      <trkpt lat="44.91622" lon="6.57461">
        <ele>1982.2</ele>
        <time>2025-02-12T11:06:17Z</time>
      </trkpt>
      <trkpt lat="44.91623" lon="6.5747">
        <ele>1983</ele>
        <time>2025-02-12T11:06:22Z</time>
      </trkpt>
      <trkpt lat="44.91623" lon="6.57475">
        <ele>1983.5</ele>
        <time>2025-02-12T11:06:28Z</time>
      </trkpt>
      <trkpt lat="44.91624" lon="6.57483">
        <ele>1984.2</ele>
        <time>2025-02-12T11:06:33Z</time>
      </trkpt>
      <trkpt lat="44.91624" lon="6.57483">
        <ele>1984.2</ele>
        <time>2025-02-12T11:06:38Z</time>
      </trkpt>
      <trkpt lat="44.91625" lon="6.57493">
        <ele>1985</ele>
        <time>2025-02-12T11:06:43Z</time>
      </trkpt>
      <trkpt lat="44.91626" lon="6.575">
        <ele>1985.5</ele>
        <time>2025-02-12T11:06:50Z</time>
      </trkpt>
      <trkpt lat="44.91626" lon="6.57505">
        <ele>1985.9</ele>
        <time>2025-02-12T11:06:56Z</time>
      </trkpt>
      <trkpt lat="44.91627" lon="6.57512">
        <ele>1986.4</ele>
        <time>2025-02-12T11:07:02Z</time>
      </trkpt>
      <trkpt lat="44.91628" lon="6.57515">
        <ele>1986.7</ele>
        <time>2025-02-12T11:07:07Z</time>
      </trkpt>
      <trkpt lat="44.91628" lon="6.57521">
        <ele>1987.3</ele>
        <time>2025-02-12T11:07:13Z</time>
      </trkpt>
      <trkpt lat="44.91629" lon="6.57527">
        <ele>1987.9</ele>
        <time>2025-02-12T11:07:19Z</time>
      </trkpt>
      <trkpt lat="44.91629" lon="6.5753">
        <ele>1988.2</ele>
        <time>2025-02-12T11:07:25Z</time>
      </trkpt>
      <trkpt lat="44.91629" lon="6.5753">
        <ele>1988.2</ele>
        <time>2025-02-12T11:07:32Z</time>
      </trkpt>
      <trkpt lat="44.91629" lon="6.5753">
        <ele>1988.2</ele>
        <time>2025-02-12T11:07:38Z</time>
      </trkpt>
      <trkpt lat="44.91629" lon="6.5753">
        <ele>1988.2</ele>
        <time>2025-02-12T11:07:44Z</time>
      </trkpt>
      <trkpt lat="44.91623" lon="6.57547">
        <ele>1989.8</ele>
        <time>2025-02-12T11:07:50Z</time>
      </trkpt>
      <trkpt lat="44.91623" lon="6.57547">
        <ele>1989.9</ele>
        <time>2025-02-12T11:07:55Z</time>
      </trkpt>
      <trkpt lat="44.91622" lon="6.57546">
        <ele>1989.9</ele>
        <time>2025-02-12T11:08:02Z</time>
      </trkpt>
      <trkpt lat="44.91622" lon="6.57546">
        <ele>1990</ele>
        <time>2025-02-12T11:08:07Z</time>
      </trkpt>
      <trkpt lat="44.91621" lon="6.57546">
        <ele>1990.1</ele>
        <time>2025-02-12T11:08:08Z</time>
      </trkpt>
      <trkpt lat="44.91615" lon="6.57548">
        <ele>1991.1</ele>
        <time>2025-02-12T11:08:11Z</time>
      </trkpt>
      <trkpt lat="44.91628" lon="6.57536">
        <ele>1988.7</ele>
        <time>2025-02-12T11:08:17Z</time>
      </trkpt>
      <trkpt lat="44.91628" lon="6.57535">
        <ele>1988.6</ele>
        <time>2025-02-12T11:08:22Z</time>
      </trkpt>
      <trkpt lat="44.91628" lon="6.57519">
        <ele>1987.1</ele>
        <time>2025-02-12T11:08:28Z</time>
      </trkpt>
      <trkpt lat="44.91628" lon="6.57515">
        <ele>1986.7</ele>
        <time>2025-02-12T11:08:33Z</time>
      </trkpt>
      <trkpt lat="44.91627" lon="6.57512">
        <ele>1986.4</ele>
        <time>2025-02-12T11:08:38Z</time>
      </trkpt>
      <trkpt lat="44.91626" lon="6.57504">
        <ele>1985.8</ele>
        <time>2025-02-12T11:08:43Z</time>
      </trkpt>
      <trkpt lat="44.91626" lon="6.57499">
        <ele>1985.4</ele>
        <time>2025-02-12T11:08:47Z</time>
      </trkpt>
      <trkpt lat="44.91625" lon="6.57491">
        <ele>1984.8</ele>
        <time>2025-02-12T11:08:54Z</time>
      </trkpt>
      <trkpt lat="44.91625" lon="6.57489">
        <ele>1984.7</ele>
        <time>2025-02-12T11:09:00Z</time>
      </trkpt>
      <trkpt lat="44.91625" lon="6.57489">
        <ele>1984.7</ele>
        <time>2025-02-12T11:09:10Z</time>
      </trkpt>
      <trkpt lat="44.91625" lon="6.57489">
        <ele>1984.7</ele>
        <time>2025-02-12T11:09:21Z</time>
      </trkpt>
      <trkpt lat="44.91625" lon="6.57489">
        <ele>1984.7</ele>
        <time>2025-02-12T11:09:34Z</time>
      </trkpt>
      <trkpt lat="44.91624" lon="6.57482">
        <ele>1984.2</ele>
        <time>2025-02-12T11:09:41Z</time>
      </trkpt>
      <trkpt lat="44.91604" lon="6.57496">
        <ele>1994</ele>
        <time>2025-02-12T11:09:47Z</time>
      </trkpt>
      <trkpt lat="44.91602" lon="6.57492">
        <ele>1994.2</ele>
        <time>2025-02-12T11:09:52Z</time>
      </trkpt>
      <trkpt lat="44.916" lon="6.5749">
        <ele>1994.6</ele>
        <time>2025-02-12T11:09:58Z</time>
      </trkpt>
      <trkpt lat="44.916" lon="6.5749">
        <ele>1994.6</ele>
        <time>2025-02-12T11:10:05Z</time>
      </trkpt>
      <trkpt lat="44.916" lon="6.5749">
        <ele>1994.6</ele>
        <time>2025-02-12T11:10:12Z</time>
      </trkpt>
      <trkpt lat="44.91586" lon="6.57459">
        <ele>1999</ele>
        <time>2025-02-12T11:10:19Z</time>
      </trkpt>
      <trkpt lat="44.91586" lon="6.57459">
        <ele>1999</ele>
        <time>2025-02-12T11:10:24Z</time>
      </trkpt>
      <trkpt lat="44.91586" lon="6.57459">
        <ele>1999</ele>
        <time>2025-02-12T11:10:31Z</time>
      </trkpt>
      <trkpt lat="44.91583" lon="6.57443">
        <ele>1999.1</ele>
        <time>2025-02-12T11:10:37Z</time>
      </trkpt>
      <trkpt lat="44.91582" lon="6.57438">
        <ele>1999.5</ele>
        <time>2025-02-12T11:10:43Z</time>
      </trkpt>
      <trkpt lat="44.91581" lon="6.57429">
        <ele>2000.3</ele>
        <time>2025-02-12T11:10:49Z</time>
      </trkpt>
      <trkpt lat="44.9158" lon="6.57424">
        <ele>2000.8</ele>
        <time>2025-02-12T11:10:55Z</time>
      </trkpt>
      <trkpt lat="44.91578" lon="6.57414">
        <ele>2001.8</ele>
        <time>2025-02-12T11:11:00Z</time>
      </trkpt>
      <trkpt lat="44.91577" lon="6.57408">
        <ele>2002.5</ele>
        <time>2025-02-12T11:11:05Z</time>
      </trkpt>
      <trkpt lat="44.91576" lon="6.57403">
        <ele>2003</ele>
        <time>2025-02-12T11:11:10Z</time>
      </trkpt>
      <trkpt lat="44.91575" lon="6.57398">
        <ele>2003.7</ele>
        <time>2025-02-12T11:11:16Z</time>
      </trkpt>
      <trkpt lat="44.91575" lon="6.57398">
        <ele>2003.7</ele>
        <time>2025-02-12T11:11:23Z</time>
      </trkpt>
      <trkpt lat="44.91573" lon="6.57384">
        <ele>2005.1</ele>
        <time>2025-02-12T11:11:30Z</time>
      </trkpt>
      <trkpt lat="44.91572" lon="6.5738">
        <ele>2005.6</ele>
        <time>2025-02-12T11:11:35Z</time>
      </trkpt>
      <trkpt lat="44.91571" lon="6.57374">
        <ele>2006.3</ele>
        <time>2025-02-12T11:11:41Z</time>
      </trkpt>
      <trkpt lat="44.91569" lon="6.57363">
        <ele>2007.3</ele>
        <time>2025-02-12T11:11:49Z</time>
      </trkpt>
      <trkpt lat="44.91569" lon="6.57363">
        <ele>2007.3</ele>
        <time>2025-02-12T11:11:55Z</time>
      </trkpt>
      <trkpt lat="44.91568" lon="6.57356">
        <ele>2007.8</ele>
        <time>2025-02-12T11:12:01Z</time>
      </trkpt>
      <trkpt lat="44.91566" lon="6.57348">
        <ele>2008.4</ele>
        <time>2025-02-12T11:12:07Z</time>
      </trkpt>
      <trkpt lat="44.91566" lon="6.57348">
        <ele>2008.4</ele>
        <time>2025-02-12T11:12:15Z</time>
      </trkpt>
      <trkpt lat="44.91563" lon="6.57333">
        <ele>2009.4</ele>
        <time>2025-02-12T11:12:23Z</time>
      </trkpt>
      <trkpt lat="44.91561" lon="6.57322">
        <ele>2010</ele>
        <time>2025-02-12T11:12:29Z</time>
      </trkpt>
      <trkpt lat="44.9156" lon="6.57311">
        <ele>2010.7</ele>
        <time>2025-02-12T11:12:37Z</time>
      </trkpt>
      <trkpt lat="44.9156" lon="6.57308">
        <ele>2011.6</ele>
        <time>2025-02-12T11:12:41Z</time>
      </trkpt>
      <trkpt lat="44.9156" lon="6.57308">
        <ele>2011.6</ele>
        <time>2025-02-12T11:12:50Z</time>
      </trkpt>
      <trkpt lat="44.9156" lon="6.57308">
        <ele>2011.6</ele>
        <time>2025-02-12T11:12:58Z</time>
      </trkpt>
      <trkpt lat="44.9156" lon="6.57308">
        <ele>2011.6</ele>
        <time>2025-02-12T11:13:06Z</time>
      </trkpt>
      <trkpt lat="44.9156" lon="6.57308">
        <ele>2011.6</ele>
        <time>2025-02-12T11:13:19Z</time>
      </trkpt>
      <trkpt lat="44.9156" lon="6.57308">
        <ele>2011.6</ele>
        <time>2025-02-12T11:13:25Z</time>
      </trkpt>
      <trkpt lat="44.9156" lon="6.57308">
        <ele>2011.6</ele>
        <time>2025-02-12T11:13:30Z</time>
      </trkpt>
      <trkpt lat="44.9156" lon="6.57308">
        <ele>2011.6</ele>
        <time>2025-02-12T11:13:36Z</time>
      </trkpt>
      <trkpt lat="44.91557" lon="6.57271">
        <ele>2012.2</ele>
        <time>2025-02-12T11:13:43Z</time>
      </trkpt>
      <trkpt lat="44.91556" lon="6.57257">
        <ele>2012.9</ele>
        <time>2025-02-12T11:13:48Z</time>
      </trkpt>
      <trkpt lat="44.91556" lon="6.57257">
        <ele>2012.9</ele>
        <time>2025-02-12T11:14:02Z</time>
      </trkpt>
      <trkpt lat="44.91556" lon="6.57257">
        <ele>2012.9</ele>
        <time>2025-02-12T11:14:11Z</time>
      </trkpt>
      <trkpt lat="44.91556" lon="6.57257">
        <ele>2012.9</ele>
        <time>2025-02-12T11:14:18Z</time>
      </trkpt>
      <trkpt lat="44.91556" lon="6.57257">
        <ele>2012.9</ele>
        <time>2025-02-12T11:14:24Z</time>
      </trkpt>
      <trkpt lat="44.91552" lon="6.57244">
        <ele>2013.5</ele>
        <time>2025-02-12T11:14:31Z</time>
      </trkpt>
      <trkpt lat="44.91552" lon="6.57244">
        <ele>2013.5</ele>
        <time>2025-02-12T11:14:38Z</time>
      </trkpt>
      <trkpt lat="44.91554" lon="6.57224">
        <ele>2014.3</ele>
        <time>2025-02-12T11:14:44Z</time>
      </trkpt>
      <trkpt lat="44.91554" lon="6.57221">
        <ele>2014.5</ele>
        <time>2025-02-12T11:14:50Z</time>
      </trkpt>
      <trkpt lat="44.91553" lon="6.5721">
        <ele>2014.9</ele>
        <time>2025-02-12T11:14:56Z</time>
      </trkpt>
      <trkpt lat="44.91553" lon="6.5721">
        <ele>2014.9</ele>
        <time>2025-02-12T11:15:01Z</time>
      </trkpt>
      <trkpt lat="44.91552" lon="6.57203">
        <ele>2015.1</ele>
        <time>2025-02-12T11:15:03Z</time>
      </trkpt>
      <trkpt lat="44.91552" lon="6.57199">
        <ele>2015.3</ele>
        <time>2025-02-12T11:15:08Z</time>
      </trkpt>
      <trkpt lat="44.91552" lon="6.57198">
        <ele>2015.3</ele>
        <time>2025-02-12T11:15:09Z</time>
      </trkpt>
      <trkpt lat="44.91551" lon="6.57191">
        <ele>2015.6</ele>
        <time>2025-02-12T11:15:15Z</time>
      </trkpt>
      <trkpt lat="44.91551" lon="6.57189">
        <ele>2015.6</ele>
        <time>2025-02-12T11:15:18Z</time>
      </trkpt>
      <trkpt lat="44.91551" lon="6.57185">
        <ele>2015.8</ele>
        <time>2025-02-12T11:15:21Z</time>
      </trkpt>
      <trkpt lat="44.91551" lon="6.57183">
        <ele>2015.8</ele>
        <time>2025-02-12T11:15:26Z</time>
      </trkpt>
      <trkpt lat="44.9155" lon="6.57174">
        <ele>2016.1</ele>
        <time>2025-02-12T11:15:32Z</time>
      </trkpt>
      <trkpt lat="44.91549" lon="6.57166">
        <ele>2016.3</ele>
        <time>2025-02-12T11:15:38Z</time>
      </trkpt>
      <trkpt lat="44.91549" lon="6.57162">
        <ele>2016.5</ele>
        <time>2025-02-12T11:15:41Z</time>
      </trkpt>
      <trkpt lat="44.91549" lon="6.57159">
        <ele>2016.5</ele>
        <time>2025-02-12T11:15:43Z</time>
      </trkpt>
      <trkpt lat="44.91548" lon="6.57155">
        <ele>2016.7</ele>
        <time>2025-02-12T11:15:47Z</time>
      </trkpt>
      <trkpt lat="44.91548" lon="6.57153">
        <ele>2016.7</ele>
        <time>2025-02-12T11:15:49Z</time>
      </trkpt>
      <trkpt lat="44.91548" lon="6.5715">
        <ele>2016.8</ele>
        <time>2025-02-12T11:15:51Z</time>
      </trkpt>
      <trkpt lat="44.91548" lon="6.57146">
        <ele>2016.9</ele>
        <time>2025-02-12T11:15:55Z</time>
      </trkpt>
      <trkpt lat="44.91546" lon="6.57137">
        <ele>2017.2</ele>
        <time>2025-02-12T11:16:01Z</time>
      </trkpt>
      <trkpt lat="44.91544" lon="6.57132">
        <ele>2017.3</ele>
        <time>2025-02-12T11:16:07Z</time>
      </trkpt>
      <trkpt lat="44.91542" lon="6.5712">
        <ele>2017.7</ele>
        <time>2025-02-12T11:16:16Z</time>
      </trkpt>
      <trkpt lat="44.9154" lon="6.57112">
        <ele>2017.9</ele>
        <time>2025-02-12T11:16:22Z</time>
      </trkpt>
      <trkpt lat="44.91538" lon="6.57104">
        <ele>2018.2</ele>
        <time>2025-02-12T11:16:29Z</time>
      </trkpt>
      <trkpt lat="44.91536" lon="6.57098">
        <ele>2018.5</ele>
        <time>2025-02-12T11:16:36Z</time>
      </trkpt>
      <trkpt lat="44.91533" lon="6.57091">
        <ele>2018.8</ele>
        <time>2025-02-12T11:16:41Z</time>
      </trkpt>
      <trkpt lat="44.91532" lon="6.57091">
        <ele>2018.8</ele>
        <time>2025-02-12T11:16:43Z</time>
      </trkpt>
      <trkpt lat="44.91528" lon="6.57086">
        <ele>2019.1</ele>
        <time>2025-02-12T11:16:49Z</time>
      </trkpt>
      <trkpt lat="44.91525" lon="6.57082">
        <ele>2019.3</ele>
        <time>2025-02-12T11:16:56Z</time>
      </trkpt>
      <trkpt lat="44.91523" lon="6.5708">
        <ele>2019.4</ele>
        <time>2025-02-12T11:17:02Z</time>
      </trkpt>
      <trkpt lat="44.91522" lon="6.57079">
        <ele>2019.4</ele>
        <time>2025-02-12T11:17:08Z</time>
      </trkpt>
      <trkpt lat="44.91522" lon="6.57079">
        <ele>2019.4</ele>
        <time>2025-02-12T11:17:18Z</time>
      </trkpt>
      <trkpt lat="44.91522" lon="6.57079">
        <ele>2019.4</ele>
        <time>2025-02-12T11:17:29Z</time>
      </trkpt>
      <trkpt lat="44.91522" lon="6.57079">
        <ele>2019.4</ele>
        <time>2025-02-12T11:17:42Z</time>
      </trkpt>
      <trkpt lat="44.91522" lon="6.57079">
        <ele>2019.4</ele>
        <time>2025-02-12T11:17:54Z</time>
      </trkpt>
      <trkpt lat="44.91522" lon="6.57079">
        <ele>2019.4</ele>
        <time>2025-02-12T11:18:09Z</time>
      </trkpt>
      <trkpt lat="44.91522" lon="6.57079">
        <ele>2019.4</ele>
        <time>2025-02-12T11:18:23Z</time>
      </trkpt>
      <trkpt lat="44.91522" lon="6.57079">
        <ele>2019.4</ele>
        <time>2025-02-12T11:18:37Z</time>
      </trkpt>
      <trkpt lat="44.91522" lon="6.57079">
        <ele>2019.4</ele>
        <time>2025-02-12T11:18:49Z</time>
      </trkpt>
      <trkpt lat="44.91515" lon="6.57071">
        <ele>2019.8</ele>
        <time>2025-02-12T11:18:56Z</time>
      </trkpt>
      <trkpt lat="44.9151" lon="6.57066">
        <ele>2020.1</ele>
        <time>2025-02-12T11:19:04Z</time>
      </trkpt>
      <trkpt lat="44.9151" lon="6.57065">
        <ele>2020.1</ele>
        <time>2025-02-12T11:19:09Z</time>
      </trkpt>
      <trkpt lat="44.9151" lon="6.57065">
        <ele>2020.1</ele>
        <time>2025-02-12T11:19:17Z</time>
      </trkpt>
      <trkpt lat="44.9151" lon="6.57065">
        <ele>2020.1</ele>
        <time>2025-02-12T11:19:27Z</time>
      </trkpt>
      <trkpt lat="44.91506" lon="6.57061">
        <ele>2020.2</ele>
        <time>2025-02-12T11:19:34Z</time>
      </trkpt>
      <trkpt lat="44.91505" lon="6.5706">
        <ele>2020.3</ele>
        <time>2025-02-12T11:19:40Z</time>
      </trkpt>
      <trkpt lat="44.91505" lon="6.5706">
        <ele>2020.3</ele>
        <time>2025-02-12T11:19:45Z</time>
      </trkpt>
      <trkpt lat="44.91505" lon="6.5706">
        <ele>2020.3</ele>
        <time>2025-02-12T11:19:51Z</time>
      </trkpt>
      <trkpt lat="44.91505" lon="6.5706">
        <ele>2020.3</ele>
        <time>2025-02-12T11:19:58Z</time>
      </trkpt>
      <trkpt lat="44.91505" lon="6.5706">
        <ele>2020.3</ele>
        <time>2025-02-12T11:20:05Z</time>
      </trkpt>
      <trkpt lat="44.91499" lon="6.57047">
        <ele>2020.4</ele>
        <time>2025-02-12T11:20:11Z</time>
      </trkpt>
      <trkpt lat="44.91499" lon="6.57047">
        <ele>2020.5</ele>
        <time>2025-02-12T11:20:17Z</time>
      </trkpt>
      <trkpt lat="44.91499" lon="6.57047">
        <ele>2020.5</ele>
        <time>2025-02-12T11:20:29Z</time>
      </trkpt>
      <trkpt lat="44.91499" lon="6.57047">
        <ele>2020.5</ele>
        <time>2025-02-12T11:20:44Z</time>
      </trkpt>
      <trkpt lat="44.91499" lon="6.57047">
        <ele>2020.5</ele>
        <time>2025-02-12T11:20:59Z</time>
      </trkpt>
      <trkpt lat="44.915" lon="6.57049">
        <ele>2020.6</ele>
        <time>2025-02-12T11:21:06Z</time>
      </trkpt>
      <trkpt lat="44.91505" lon="6.5706">
        <ele>2021.5</ele>
        <time>2025-02-12T11:21:12Z</time>
      </trkpt>
      <trkpt lat="44.91505" lon="6.5706">
        <ele>2021.5</ele>
        <time>2025-02-12T11:21:18Z</time>
      </trkpt>
      <trkpt lat="44.91505" lon="6.5706">
        <ele>2021.5</ele>
        <time>2025-02-12T11:21:24Z</time>
      </trkpt>
      <trkpt lat="44.91495" lon="6.57083">
        <ele>2023.3</ele>
        <time>2025-02-12T11:21:30Z</time>
      </trkpt>
      <trkpt lat="44.91496" lon="6.5709">
        <ele>2023.6</ele>
        <time>2025-02-12T11:21:35Z</time>
      </trkpt>
      <trkpt lat="44.91497" lon="6.57094">
        <ele>2023.9</ele>
        <time>2025-02-12T11:21:41Z</time>
      </trkpt>
      <trkpt lat="44.91497" lon="6.57102">
        <ele>2024.2</ele>
        <time>2025-02-12T11:21:48Z</time>
      </trkpt>
      <trkpt lat="44.915" lon="6.57108">
        <ele>2024.6</ele>
        <time>2025-02-12T11:21:54Z</time>
      </trkpt>
      <trkpt lat="44.915" lon="6.57112">
        <ele>2024.7</ele>
        <time>2025-02-12T11:22:00Z</time>
      </trkpt>
      <trkpt lat="44.915" lon="6.57112">
        <ele>2024.7</ele>
        <time>2025-02-12T11:22:09Z</time>
      </trkpt>
      <trkpt lat="44.915" lon="6.57112">
        <ele>2024.7</ele>
        <time>2025-02-12T11:22:29Z</time>
      </trkpt>
      <trkpt lat="44.91502" lon="6.57115">
        <ele>2024.9</ele>
        <time>2025-02-12T11:22:41Z</time>
      </trkpt>
      <trkpt lat="44.91503" lon="6.57116">
        <ele>2025</ele>
        <time>2025-02-12T11:22:50Z</time>
      </trkpt>
      <trkpt lat="44.91504" lon="6.57122">
        <ele>2025.2</ele>
        <time>2025-02-12T11:22:55Z</time>
      </trkpt>
      <trkpt lat="44.91504" lon="6.57126">
        <ele>2025.5</ele>
        <time>2025-02-12T11:23:00Z</time>
      </trkpt>
      <trkpt lat="44.91502" lon="6.57132">
        <ele>2026.3</ele>
        <time>2025-02-12T11:23:07Z</time>
      </trkpt>
      <trkpt lat="44.915" lon="6.57138">
        <ele>2027.1</ele>
        <time>2025-02-12T11:23:13Z</time>
      </trkpt>
      <trkpt lat="44.91495" lon="6.57138">
        <ele>2028</ele>
        <time>2025-02-12T11:23:18Z</time>
      </trkpt>
      <trkpt lat="44.91492" lon="6.57146">
        <ele>2029.1</ele>
        <time>2025-02-12T11:23:23Z</time>
      </trkpt>
      <trkpt lat="44.91492" lon="6.57146">
        <ele>2029.1</ele>
        <time>2025-02-12T11:23:29Z</time>
      </trkpt>
      <trkpt lat="44.91488" lon="6.5715">
        <ele>2030.1</ele>
        <time>2025-02-12T11:23:35Z</time>
      </trkpt>
      <trkpt lat="44.91486" lon="6.57152">
        <ele>2030.6</ele>
        <time>2025-02-12T11:23:38Z</time>
      </trkpt>
      <trkpt lat="44.91485" lon="6.57154">
        <ele>2031</ele>
        <time>2025-02-12T11:23:41Z</time>
      </trkpt>
      <trkpt lat="44.91482" lon="6.57157">
        <ele>2031.8</ele>
        <time>2025-02-12T11:23:46Z</time>
      </trkpt>
      <trkpt lat="44.91479" lon="6.57161">
        <ele>2032.6</ele>
        <time>2025-02-12T11:23:52Z</time>
      </trkpt>
      <trkpt lat="44.91479" lon="6.57161">
        <ele>2032.6</ele>
        <time>2025-02-12T11:23:59Z</time>
      </trkpt>
      <trkpt lat="44.91477" lon="6.57163">
        <ele>2033.1</ele>
        <time>2025-02-12T11:24:08Z</time>
      </trkpt>
      <trkpt lat="44.91475" lon="6.57166">
        <ele>2033.8</ele>
        <time>2025-02-12T11:24:14Z</time>
      </trkpt>
      <trkpt lat="44.91468" lon="6.57173">
        <ele>2035.7</ele>
        <time>2025-02-12T11:24:22Z</time>
      </trkpt>
      <trkpt lat="44.91468" lon="6.57173">
        <ele>2035.7</ele>
        <time>2025-02-12T11:24:29Z</time>
      </trkpt>
      <trkpt lat="44.91462" lon="6.5718">
        <ele>2037.5</ele>
        <time>2025-02-12T11:24:36Z</time>
      </trkpt>
      <trkpt lat="44.91454" lon="6.5718">
        <ele>2039.5</ele>
        <time>2025-02-12T11:24:42Z</time>
      </trkpt>
      <trkpt lat="44.91451" lon="6.57181">
        <ele>2040.2</ele>
        <time>2025-02-12T11:24:48Z</time>
      </trkpt>
      <trkpt lat="44.91444" lon="6.57181">
        <ele>2041.7</ele>
        <time>2025-02-12T11:24:55Z</time>
      </trkpt>
      <trkpt lat="44.91441" lon="6.57181">
        <ele>2042.5</ele>
        <time>2025-02-12T11:25:00Z</time>
      </trkpt>
      <trkpt lat="44.91441" lon="6.57181">
        <ele>2042.5</ele>
        <time>2025-02-12T11:25:06Z</time>
      </trkpt>
      <trkpt lat="44.91435" lon="6.57182">
        <ele>2043.8</ele>
        <time>2025-02-12T11:25:14Z</time>
      </trkpt>
      <trkpt lat="44.91427" lon="6.57175">
        <ele>2046.1</ele>
        <time>2025-02-12T11:25:20Z</time>
      </trkpt>
      <trkpt lat="44.91424" lon="6.57183">
        <ele>2047.5</ele>
        <time>2025-02-12T11:25:27Z</time>
      </trkpt>
      <trkpt lat="44.91424" lon="6.57183">
        <ele>2047.5</ele>
        <time>2025-02-12T11:25:33Z</time>
      </trkpt>
      <trkpt lat="44.91424" lon="6.57183">
        <ele>2047.5</ele>
        <time>2025-02-12T11:25:41Z</time>
      </trkpt>
      <trkpt lat="44.91424" lon="6.57183">
        <ele>2047.5</ele>
        <time>2025-02-12T11:25:50Z</time>
      </trkpt>
      <trkpt lat="44.91424" lon="6.57183">
        <ele>2047.5</ele>
        <time>2025-02-12T11:26:01Z</time>
      </trkpt>
      <trkpt lat="44.91424" lon="6.57183">
        <ele>2047.5</ele>
        <time>2025-02-12T11:26:09Z</time>
      </trkpt>
      <trkpt lat="44.91424" lon="6.57183">
        <ele>2047.5</ele>
        <time>2025-02-12T11:26:15Z</time>
      </trkpt>
      <trkpt lat="44.91424" lon="6.57183">
        <ele>2047.5</ele>
        <time>2025-02-12T11:26:21Z</time>
      </trkpt>
      <trkpt lat="44.91412" lon="6.5718">
        <ele>2050.6</ele>
        <time>2025-02-12T11:26:27Z</time>
      </trkpt>
      <trkpt lat="44.9141" lon="6.57178">
        <ele>2051.2</ele>
        <time>2025-02-12T11:26:35Z</time>
      </trkpt>
      <trkpt lat="44.91408" lon="6.57178">
        <ele>2051.5</ele>
        <time>2025-02-12T11:26:41Z</time>
      </trkpt>
      <trkpt lat="44.91406" lon="6.57177">
        <ele>2052.1</ele>
        <time>2025-02-12T11:26:48Z</time>
      </trkpt>
      <trkpt lat="44.91401" lon="6.57175">
        <ele>2053.2</ele>
        <time>2025-02-12T11:26:55Z</time>
      </trkpt>
      <trkpt lat="44.91397" lon="6.57175">
        <ele>2054.3</ele>
        <time>2025-02-12T11:27:00Z</time>
      </trkpt>
      <trkpt lat="44.91394" lon="6.57175">
        <ele>2054.9</ele>
        <time>2025-02-12T11:27:05Z</time>
      </trkpt>
      <trkpt lat="44.9139" lon="6.57174">
        <ele>2055.9</ele>
        <time>2025-02-12T11:27:10Z</time>
      </trkpt>
      <trkpt lat="44.91388" lon="6.57174">
        <ele>2056.4</ele>
        <time>2025-02-12T11:27:12Z</time>
      </trkpt>
      <trkpt lat="44.91387" lon="6.57173">
        <ele>2056.6</ele>
        <time>2025-02-12T11:27:15Z</time>
      </trkpt>
      <trkpt lat="44.91385" lon="6.57172">
        <ele>2056.9</ele>
        <time>2025-02-12T11:27:21Z</time>
      </trkpt>
      <trkpt lat="44.91385" lon="6.57172">
        <ele>2056.9</ele>
        <time>2025-02-12T11:27:28Z</time>
      </trkpt>
      <trkpt lat="44.91378" lon="6.57167">
        <ele>2058.7</ele>
        <time>2025-02-12T11:27:34Z</time>
      </trkpt>
      <trkpt lat="44.91376" lon="6.57166">
        <ele>2059.1</ele>
        <time>2025-02-12T11:27:39Z</time>
      </trkpt>
      <trkpt lat="44.91376" lon="6.57166">
        <ele>2059.1</ele>
        <time>2025-02-12T11:27:52Z</time>
      </trkpt>
      <trkpt lat="44.91376" lon="6.57166">
        <ele>2059.1</ele>
        <time>2025-02-12T11:28:08Z</time>
      </trkpt>
      <trkpt lat="44.91376" lon="6.57166">
        <ele>2059.1</ele>
        <time>2025-02-12T11:28:22Z</time>
      </trkpt>
      <trkpt lat="44.91376" lon="6.57166">
        <ele>2059.1</ele>
        <time>2025-02-12T11:28:40Z</time>
      </trkpt>
      <trkpt lat="44.91376" lon="6.57166">
        <ele>2059.1</ele>
        <time>2025-02-12T11:28:47Z</time>
      </trkpt>
      <trkpt lat="44.91376" lon="6.57166">
        <ele>2059.1</ele>
        <time>2025-02-12T11:28:57Z</time>
      </trkpt>
      <trkpt lat="44.91376" lon="6.57166">
        <ele>2059.1</ele>
        <time>2025-02-12T11:29:07Z</time>
      </trkpt>
      <trkpt lat="44.91376" lon="6.57166">
        <ele>2059.1</ele>
        <time>2025-02-12T11:29:17Z</time>
      </trkpt>
      <trkpt lat="44.91376" lon="6.57166">
        <ele>2059.1</ele>
        <time>2025-02-12T11:29:30Z</time>
      </trkpt>
      <trkpt lat="44.91372" lon="6.57163">
        <ele>2060.1</ele>
        <time>2025-02-12T11:29:38Z</time>
      </trkpt>
      <trkpt lat="44.91368" lon="6.5716">
        <ele>2061.1</ele>
        <time>2025-02-12T11:29:45Z</time>
      </trkpt>
      <trkpt lat="44.91358" lon="6.5716">
        <ele>2063.5</ele>
        <time>2025-02-12T11:29:50Z</time>
      </trkpt>
      <trkpt lat="44.91354" lon="6.5716">
        <ele>2064.4</ele>
        <time>2025-02-12T11:29:56Z</time>
      </trkpt>
      <trkpt lat="44.91354" lon="6.5716">
        <ele>2064.4</ele>
        <time>2025-02-12T11:30:04Z</time>
      </trkpt>
      <trkpt lat="44.91351" lon="6.57161">
        <ele>2065.3</ele>
        <time>2025-02-12T11:30:10Z</time>
      </trkpt>
      <trkpt lat="44.91346" lon="6.57162">
        <ele>2066.7</ele>
        <time>2025-02-12T11:30:16Z</time>
      </trkpt>
      <trkpt lat="44.91346" lon="6.57162">
        <ele>2066.7</ele>
        <time>2025-02-12T11:30:23Z</time>
      </trkpt>
      <trkpt lat="44.91342" lon="6.57163">
        <ele>2067.7</ele>
        <time>2025-02-12T11:30:29Z</time>
      </trkpt>
      <trkpt lat="44.91342" lon="6.57163">
        <ele>2067.7</ele>
        <time>2025-02-12T11:30:35Z</time>
      </trkpt>
      <trkpt lat="44.91342" lon="6.57163">
        <ele>2067.7</ele>
        <time>2025-02-12T11:30:43Z</time>
      </trkpt>
      <trkpt lat="44.91342" lon="6.57163">
        <ele>2067.7</ele>
        <time>2025-02-12T11:30:50Z</time>
      </trkpt>
      <trkpt lat="44.91342" lon="6.57163">
        <ele>2067.7</ele>
        <time>2025-02-12T11:31:00Z</time>
      </trkpt>
      <trkpt lat="44.91342" lon="6.57163">
        <ele>2067.7</ele>
        <time>2025-02-12T11:31:07Z</time>
      </trkpt>
      <trkpt lat="44.91342" lon="6.57163">
        <ele>2067.7</ele>
        <time>2025-02-12T11:31:13Z</time>
      </trkpt>
      <trkpt lat="44.91342" lon="6.57163">
        <ele>2067.7</ele>
        <time>2025-02-12T11:31:19Z</time>
      </trkpt>
      <trkpt lat="44.91342" lon="6.57163">
        <ele>2067.7</ele>
        <time>2025-02-12T11:31:25Z</time>
      </trkpt>
      <trkpt lat="44.91335" lon="6.57205">
        <ele>2076</ele>
        <time>2025-02-12T11:31:31Z</time>
      </trkpt>
      <trkpt lat="44.91335" lon="6.5721">
        <ele>2076.8</ele>
        <time>2025-02-12T11:31:36Z</time>
      </trkpt>
      <trkpt lat="44.91335" lon="6.57212">
        <ele>2077.2</ele>
        <time>2025-02-12T11:31:42Z</time>
      </trkpt>
      <trkpt lat="44.91336" lon="6.57215">
        <ele>2077.8</ele>
        <time>2025-02-12T11:31:48Z</time>
      </trkpt>
      <trkpt lat="44.91335" lon="6.5722">
        <ele>2078.7</ele>
        <time>2025-02-12T11:31:54Z</time>
      </trkpt>
      <trkpt lat="44.91336" lon="6.57222">
        <ele>2079</ele>
        <time>2025-02-12T11:31:58Z</time>
      </trkpt>
      <trkpt lat="44.91337" lon="6.57222">
        <ele>2079.3</ele>
        <time>2025-02-12T11:32:06Z</time>
      </trkpt>
      <trkpt lat="44.91336" lon="6.57223">
        <ele>2079.4</ele>
        <time>2025-02-12T11:32:12Z</time>
      </trkpt>
      <trkpt lat="44.91334" lon="6.57225">
        <ele>2080.1</ele>
        <time>2025-02-12T11:32:21Z</time>
      </trkpt>
      <trkpt lat="44.91332" lon="6.57226">
        <ele>2080.6</ele>
        <time>2025-02-12T11:32:27Z</time>
      </trkpt>
      <trkpt lat="44.9133" lon="6.57231">
        <ele>2081.3</ele>
        <time>2025-02-12T11:32:33Z</time>
      </trkpt>
      <trkpt lat="44.9133" lon="6.57234">
        <ele>2081.9</ele>
        <time>2025-02-12T11:32:39Z</time>
      </trkpt>
      <trkpt lat="44.9133" lon="6.57239">
        <ele>2082.6</ele>
        <time>2025-02-12T11:32:46Z</time>
      </trkpt>
      <trkpt lat="44.91331" lon="6.57242">
        <ele>2083.1</ele>
        <time>2025-02-12T11:32:52Z</time>
      </trkpt>
      <trkpt lat="44.91331" lon="6.57242">
        <ele>2083.1</ele>
        <time>2025-02-12T11:33:12Z</time>
      </trkpt>
      <trkpt lat="44.91331" lon="6.57242">
        <ele>2083.1</ele>
        <time>2025-02-12T11:33:23Z</time>
      </trkpt>
      <trkpt lat="44.91331" lon="6.57243">
        <ele>2083.1</ele>
        <time>2025-02-12T11:33:35Z</time>
      </trkpt>
      <trkpt lat="44.91331" lon="6.57243">
        <ele>2083.1</ele>
        <time>2025-02-12T11:33:46Z</time>
      </trkpt>
      <trkpt lat="44.91331" lon="6.57244">
        <ele>2083.4</ele>
        <time>2025-02-12T11:33:57Z</time>
      </trkpt>
      <trkpt lat="44.91331" lon="6.57244">
        <ele>2083.4</ele>
        <time>2025-02-12T11:34:07Z</time>
      </trkpt>
      <trkpt lat="44.91331" lon="6.57244">
        <ele>2083.4</ele>
        <time>2025-02-12T11:34:24Z</time>
      </trkpt>
      <trkpt lat="44.91331" lon="6.57244">
        <ele>2083.4</ele>
        <time>2025-02-12T11:34:41Z</time>
      </trkpt>
      <trkpt lat="44.91331" lon="6.57244">
        <ele>2083.4</ele>
        <time>2025-02-12T11:34:53Z</time>
      </trkpt>
      <trkpt lat="44.91331" lon="6.57244">
        <ele>2083.4</ele>
        <time>2025-02-12T11:35:09Z</time>
      </trkpt>
      <trkpt lat="44.91332" lon="6.57244">
        <ele>2083.5</ele>
        <time>2025-02-12T11:35:20Z</time>
      </trkpt>
      <trkpt lat="44.91332" lon="6.57244">
        <ele>2083.5</ele>
        <time>2025-02-12T11:35:34Z</time>
      </trkpt>
      <trkpt lat="44.91331" lon="6.57244">
        <ele>2083.6</ele>
        <time>2025-02-12T11:35:42Z</time>
      </trkpt>
      <trkpt lat="44.91325" lon="6.57251">
        <ele>2085.2</ele>
        <time>2025-02-12T11:35:52Z</time>
      </trkpt>
      <trkpt lat="44.91325" lon="6.57251">
        <ele>2085.2</ele>
        <time>2025-02-12T11:35:58Z</time>
      </trkpt>
      <trkpt lat="44.91325" lon="6.57251">
        <ele>2085.2</ele>
        <time>2025-02-12T11:36:05Z</time>
      </trkpt>
      <trkpt lat="44.91322" lon="6.57251">
        <ele>2085.8</ele>
        <time>2025-02-12T11:36:11Z</time>
      </trkpt>
      <trkpt lat="44.91319" lon="6.57251">
        <ele>2086.5</ele>
        <time>2025-02-12T11:36:16Z</time>
      </trkpt>
      <trkpt lat="44.91319" lon="6.57251">
        <ele>2086.5</ele>
        <time>2025-02-12T11:36:22Z</time>
      </trkpt>
      <trkpt lat="44.91311" lon="6.5725">
        <ele>2088.1</ele>
        <time>2025-02-12T11:36:28Z</time>
      </trkpt>
      <trkpt lat="44.91305" lon="6.57245">
        <ele>2089.5</ele>
        <time>2025-02-12T11:36:33Z</time>
      </trkpt>
      <trkpt lat="44.91301" lon="6.57241">
        <ele>2090.6</ele>
        <time>2025-02-12T11:36:39Z</time>
      </trkpt>
      <trkpt lat="44.913" lon="6.5724">
        <ele>2091</ele>
        <time>2025-02-12T11:36:44Z</time>
      </trkpt>
      <trkpt lat="44.91297" lon="6.57238">
        <ele>2091.6</ele>
        <time>2025-02-12T11:36:49Z</time>
      </trkpt>
      <trkpt lat="44.91297" lon="6.57238">
        <ele>2091.6</ele>
        <time>2025-02-12T11:36:55Z</time>
      </trkpt>
      <trkpt lat="44.91291" lon="6.57232">
        <ele>2093.2</ele>
        <time>2025-02-12T11:37:00Z</time>
      </trkpt>
      <trkpt lat="44.91288" lon="6.5723">
        <ele>2093.9</ele>
        <time>2025-02-12T11:37:05Z</time>
      </trkpt>
      <trkpt lat="44.91288" lon="6.5723">
        <ele>2093.9</ele>
        <time>2025-02-12T11:37:11Z</time>
      </trkpt>
      <trkpt lat="44.91282" lon="6.57224">
        <ele>2095.6</ele>
        <time>2025-02-12T11:37:16Z</time>
      </trkpt>
      <trkpt lat="44.91278" lon="6.57221">
        <ele>2096.5</ele>
        <time>2025-02-12T11:37:21Z</time>
      </trkpt>
      <trkpt lat="44.91278" lon="6.57221">
        <ele>2096.5</ele>
        <time>2025-02-12T11:37:27Z</time>
      </trkpt>
      <trkpt lat="44.91278" lon="6.57221">
        <ele>2096.5</ele>
        <time>2025-02-12T11:37:33Z</time>
      </trkpt>
      <trkpt lat="44.91267" lon="6.57211">
        <ele>2099.5</ele>
        <time>2025-02-12T11:37:40Z</time>
      </trkpt>
      <trkpt lat="44.91264" lon="6.57208">
        <ele>2100.1</ele>
        <time>2025-02-12T11:37:46Z</time>
      </trkpt>
      <trkpt lat="44.91264" lon="6.57208">
        <ele>2100.1</ele>
        <time>2025-02-12T11:37:52Z</time>
      </trkpt>
      <trkpt lat="44.91264" lon="6.57208">
        <ele>2100.1</ele>
        <time>2025-02-12T11:37:59Z</time>
      </trkpt>
      <trkpt lat="44.91264" lon="6.57208">
        <ele>2100.1</ele>
        <time>2025-02-12T11:38:06Z</time>
      </trkpt>
      <trkpt lat="44.91264" lon="6.57208">
        <ele>2100.1</ele>
        <time>2025-02-12T11:38:13Z</time>
      </trkpt>
      <trkpt lat="44.91264" lon="6.57208">
        <ele>2100.1</ele>
        <time>2025-02-12T11:38:20Z</time>
      </trkpt>
      <trkpt lat="44.91264" lon="6.57208">
        <ele>2100.1</ele>
        <time>2025-02-12T11:38:28Z</time>
      </trkpt>
      <trkpt lat="44.91264" lon="6.57208">
        <ele>2100.1</ele>
        <time>2025-02-12T11:38:34Z</time>
      </trkpt>
      <trkpt lat="44.91264" lon="6.57208">
        <ele>2100.1</ele>
        <time>2025-02-12T11:38:40Z</time>
      </trkpt>
      <trkpt lat="44.91264" lon="6.57208">
        <ele>2100.1</ele>
        <time>2025-02-12T11:38:48Z</time>
      </trkpt>
      <trkpt lat="44.91264" lon="6.57208">
        <ele>2100.1</ele>
        <time>2025-02-12T11:38:55Z</time>
      </trkpt>
      <trkpt lat="44.91233" lon="6.57187">
        <ele>2107.4</ele>
        <time>2025-02-12T11:39:02Z</time>
      </trkpt>
      <trkpt lat="44.91225" lon="6.57182">
        <ele>2109.1</ele>
        <time>2025-02-12T11:39:05Z</time>
      </trkpt>
      <trkpt lat="44.91225" lon="6.57182">
        <ele>2109.1</ele>
        <time>2025-02-12T11:39:07Z</time>
      </trkpt>
      <trkpt lat="44.91217" lon="6.57179">
        <ele>2110.8</ele>
        <time>2025-02-12T11:39:14Z</time>
      </trkpt>
      <trkpt lat="44.91213" lon="6.57177">
        <ele>2111.7</ele>
        <time>2025-02-12T11:39:20Z</time>
      </trkpt>
      <trkpt lat="44.9121" lon="6.57176">
        <ele>2112.2</ele>
        <time>2025-02-12T11:39:26Z</time>
      </trkpt>
      <trkpt lat="44.91203" lon="6.57174">
        <ele>2113.7</ele>
        <time>2025-02-12T11:39:31Z</time>
      </trkpt>
      <trkpt lat="44.91202" lon="6.57173">
        <ele>2114</ele>
        <time>2025-02-12T11:39:37Z</time>
      </trkpt>
      <trkpt lat="44.91202" lon="6.57173">
        <ele>2114</ele>
        <time>2025-02-12T11:39:47Z</time>
      </trkpt>
      <trkpt lat="44.91202" lon="6.57173">
        <ele>2114</ele>
        <time>2025-02-12T11:40:03Z</time>
      </trkpt>
      <trkpt lat="44.91202" lon="6.57173">
        <ele>2114</ele>
        <time>2025-02-12T11:40:14Z</time>
      </trkpt>
      <trkpt lat="44.91202" lon="6.57173">
        <ele>2114</ele>
        <time>2025-02-12T11:40:16Z</time>
      </trkpt>
      <trkpt lat="44.91202" lon="6.57173">
        <ele>2114</ele>
        <time>2025-02-12T11:40:19Z</time>
      </trkpt>
      <trkpt lat="44.91202" lon="6.57173">
        <ele>2114</ele>
        <time>2025-02-12T11:40:28Z</time>
      </trkpt>
      <trkpt lat="44.91198" lon="6.57172">
        <ele>2114.8</ele>
        <time>2025-02-12T11:40:33Z</time>
      </trkpt>
      <trkpt lat="44.91195" lon="6.5717">
        <ele>2115.4</ele>
        <time>2025-02-12T11:40:39Z</time>
      </trkpt>
      <trkpt lat="44.91195" lon="6.5717">
        <ele>2115.4</ele>
        <time>2025-02-12T11:40:45Z</time>
      </trkpt>
      <trkpt lat="44.91195" lon="6.5717">
        <ele>2115.4</ele>
        <time>2025-02-12T11:40:57Z</time>
      </trkpt>
      <trkpt lat="44.91195" lon="6.5717">
        <ele>2115.4</ele>
        <time>2025-02-12T11:41:14Z</time>
      </trkpt>
      <trkpt lat="44.91195" lon="6.5717">
        <ele>2115.4</ele>
        <time>2025-02-12T11:41:29Z</time>
      </trkpt>
      <trkpt lat="44.91195" lon="6.5717">
        <ele>2115.4</ele>
        <time>2025-02-12T11:41:42Z</time>
      </trkpt>
      <trkpt lat="44.91195" lon="6.5717">
        <ele>2115.4</ele>
        <time>2025-02-12T11:41:56Z</time>
      </trkpt>
      <trkpt lat="44.91195" lon="6.5717">
        <ele>2115.4</ele>
        <time>2025-02-12T11:42:13Z</time>
      </trkpt>
      <trkpt lat="44.91195" lon="6.5717">
        <ele>2115.4</ele>
        <time>2025-02-12T11:42:26Z</time>
      </trkpt>
      <trkpt lat="44.91195" lon="6.5717">
        <ele>2115.4</ele>
        <time>2025-02-12T11:42:38Z</time>
      </trkpt>
      <trkpt lat="44.91195" lon="6.5717">
        <ele>2115.4</ele>
        <time>2025-02-12T11:42:52Z</time>
      </trkpt>
      <trkpt lat="44.91195" lon="6.5717">
        <ele>2115.4</ele>
        <time>2025-02-12T11:43:06Z</time>
      </trkpt>
      <trkpt lat="44.91195" lon="6.5717">
        <ele>2115.4</ele>
        <time>2025-02-12T11:43:22Z</time>
      </trkpt>
      <trkpt lat="44.91195" lon="6.5717">
        <ele>2115.4</ele>
        <time>2025-02-12T11:43:38Z</time>
      </trkpt>
      <trkpt lat="44.91195" lon="6.5717">
        <ele>2115.4</ele>
        <time>2025-02-12T11:43:51Z</time>
      </trkpt>
      <trkpt lat="44.91195" lon="6.5717">
        <ele>2115.4</ele>
        <time>2025-02-12T11:44:04Z</time>
      </trkpt>
      <trkpt lat="44.91195" lon="6.5717">
        <ele>2115.4</ele>
        <time>2025-02-12T11:44:22Z</time>
      </trkpt>
      <trkpt lat="44.91195" lon="6.5717">
        <ele>2115.4</ele>
        <time>2025-02-12T11:44:37Z</time>
      </trkpt>
      <trkpt lat="44.91195" lon="6.5717">
        <ele>2115.4</ele>
        <time>2025-02-12T11:44:52Z</time>
      </trkpt>
      <trkpt lat="44.91195" lon="6.5717">
        <ele>2115.4</ele>
        <time>2025-02-12T11:45:05Z</time>
      </trkpt>
      <trkpt lat="44.91195" lon="6.5717">
        <ele>2115.4</ele>
        <time>2025-02-12T11:45:15Z</time>
      </trkpt>
      <trkpt lat="44.91195" lon="6.5717">
        <ele>2115.4</ele>
        <time>2025-02-12T11:45:26Z</time>
      </trkpt>
      <trkpt lat="44.91195" lon="6.5717">
        <ele>2115.4</ele>
        <time>2025-02-12T11:45:36Z</time>
      </trkpt>
      <trkpt lat="44.91195" lon="6.5717">
        <ele>2115.4</ele>
        <time>2025-02-12T11:45:42Z</time>
      </trkpt>
      <trkpt lat="44.91164" lon="6.57159">
        <ele>2121.9</ele>
        <time>2025-02-12T11:45:49Z</time>
      </trkpt>
      <trkpt lat="44.91164" lon="6.57159">
        <ele>2121.9</ele>
        <time>2025-02-12T11:45:58Z</time>
      </trkpt>
      <trkpt lat="44.91154" lon="6.57155">
        <ele>2124.2</ele>
        <time>2025-02-12T11:46:05Z</time>
      </trkpt>
      <trkpt lat="44.91149" lon="6.57154">
        <ele>2125.3</ele>
        <time>2025-02-12T11:46:11Z</time>
      </trkpt>
      <trkpt lat="44.91149" lon="6.57154">
        <ele>2125.3</ele>
        <time>2025-02-12T11:46:17Z</time>
      </trkpt>
      <trkpt lat="44.91149" lon="6.57154">
        <ele>2125.3</ele>
        <time>2025-02-12T11:46:27Z</time>
      </trkpt>
      <trkpt lat="44.91149" lon="6.57154">
        <ele>2125.3</ele>
        <time>2025-02-12T11:46:35Z</time>
      </trkpt>
      <trkpt lat="44.91149" lon="6.57154">
        <ele>2125.3</ele>
        <time>2025-02-12T11:46:43Z</time>
      </trkpt>
      <trkpt lat="44.91149" lon="6.57154">
        <ele>2125.3</ele>
        <time>2025-02-12T11:46:49Z</time>
      </trkpt>
      <trkpt lat="44.91149" lon="6.57154">
        <ele>2125.3</ele>
        <time>2025-02-12T11:46:56Z</time>
      </trkpt>
      <trkpt lat="44.91149" lon="6.57154">
        <ele>2125.3</ele>
        <time>2025-02-12T11:47:03Z</time>
      </trkpt>
      <trkpt lat="44.91119" lon="6.57143">
        <ele>2131.8</ele>
        <time>2025-02-12T11:47:09Z</time>
      </trkpt>
      <trkpt lat="44.91119" lon="6.57143">
        <ele>2131.8</ele>
        <time>2025-02-12T11:47:16Z</time>
      </trkpt>
      <trkpt lat="44.91111" lon="6.5714">
        <ele>2133.5</ele>
        <time>2025-02-12T11:47:29Z</time>
      </trkpt>
      <trkpt lat="44.91109" lon="6.57139">
        <ele>2134.1</ele>
        <time>2025-02-12T11:47:36Z</time>
      </trkpt>
      <trkpt lat="44.91109" lon="6.57139">
        <ele>2134.1</ele>
        <time>2025-02-12T11:47:42Z</time>
      </trkpt>
      <trkpt lat="44.91099" lon="6.57135">
        <ele>2136.2</ele>
        <time>2025-02-12T11:47:48Z</time>
      </trkpt>
      <trkpt lat="44.91099" lon="6.57135">
        <ele>2136.2</ele>
        <time>2025-02-12T11:47:54Z</time>
      </trkpt>
      <trkpt lat="44.91099" lon="6.57135">
        <ele>2136.2</ele>
        <time>2025-02-12T11:48:05Z</time>
      </trkpt>
      <trkpt lat="44.91099" lon="6.57135">
        <ele>2136.2</ele>
        <time>2025-02-12T11:48:13Z</time>
      </trkpt>
      <trkpt lat="44.91091" lon="6.57132">
        <ele>2137.9</ele>
        <time>2025-02-12T11:48:20Z</time>
      </trkpt>
      <trkpt lat="44.91091" lon="6.57132">
        <ele>2137.9</ele>
        <time>2025-02-12T11:48:25Z</time>
      </trkpt>
      <trkpt lat="44.91091" lon="6.57132">
        <ele>2137.9</ele>
        <time>2025-02-12T11:48:34Z</time>
      </trkpt>
      <trkpt lat="44.91091" lon="6.57132">
        <ele>2137.9</ele>
        <time>2025-02-12T11:48:47Z</time>
      </trkpt>
      <trkpt lat="44.91091" lon="6.57132">
        <ele>2137.9</ele>
        <time>2025-02-12T11:49:02Z</time>
      </trkpt>
      <trkpt lat="44.91091" lon="6.57132">
        <ele>2137.9</ele>
        <time>2025-02-12T11:49:12Z</time>
      </trkpt>
      <trkpt lat="44.91091" lon="6.57132">
        <ele>2137.9</ele>
        <time>2025-02-12T11:49:29Z</time>
      </trkpt>
      <trkpt lat="44.91091" lon="6.57132">
        <ele>2137.9</ele>
        <time>2025-02-12T11:49:44Z</time>
      </trkpt>
      <trkpt lat="44.91091" lon="6.57132">
        <ele>2137.9</ele>
        <time>2025-02-12T11:49:58Z</time>
      </trkpt>
      <trkpt lat="44.91091" lon="6.57132">
        <ele>2137.9</ele>
        <time>2025-02-12T11:50:15Z</time>
      </trkpt>
      <trkpt lat="44.91091" lon="6.57132">
        <ele>2137.9</ele>
        <time>2025-02-12T11:50:27Z</time>
      </trkpt>
      <trkpt lat="44.91091" lon="6.57132">
        <ele>2137.9</ele>
        <time>2025-02-12T11:50:43Z</time>
      </trkpt>
      <trkpt lat="44.91091" lon="6.57132">
        <ele>2137.9</ele>
        <time>2025-02-12T11:50:56Z</time>
      </trkpt>
      <trkpt lat="44.91091" lon="6.57132">
        <ele>2137.9</ele>
        <time>2025-02-12T11:51:10Z</time>
      </trkpt>
      <trkpt lat="44.91091" lon="6.57132">
        <ele>2137.9</ele>
        <time>2025-02-12T11:51:24Z</time>
      </trkpt>
      <trkpt lat="44.91091" lon="6.57132">
        <ele>2137.9</ele>
        <time>2025-02-12T11:51:39Z</time>
      </trkpt>
      <trkpt lat="44.91091" lon="6.57132">
        <ele>2137.9</ele>
        <time>2025-02-12T11:51:52Z</time>
      </trkpt>
      <trkpt lat="44.91091" lon="6.57132">
        <ele>2137.9</ele>
        <time>2025-02-12T11:52:11Z</time>
      </trkpt>
      <trkpt lat="44.91091" lon="6.57132">
        <ele>2137.9</ele>
        <time>2025-02-12T11:52:26Z</time>
      </trkpt>
      <trkpt lat="44.91091" lon="6.57132">
        <ele>2137.9</ele>
        <time>2025-02-12T11:52:39Z</time>
      </trkpt>
      <trkpt lat="44.91091" lon="6.57132">
        <ele>2137.9</ele>
        <time>2025-02-12T11:52:53Z</time>
      </trkpt>
      <trkpt lat="44.91091" lon="6.57132">
        <ele>2137.9</ele>
        <time>2025-02-12T11:53:06Z</time>
      </trkpt>
      <trkpt lat="44.91091" lon="6.57132">
        <ele>2137.9</ele>
        <time>2025-02-12T11:53:21Z</time>
      </trkpt>
      <trkpt lat="44.91091" lon="6.57132">
        <ele>2137.9</ele>
        <time>2025-02-12T11:53:37Z</time>
      </trkpt>
      <trkpt lat="44.91091" lon="6.57132">
        <ele>2137.9</ele>
        <time>2025-02-12T11:53:48Z</time>
      </trkpt>
      <trkpt lat="44.91091" lon="6.57132">
        <ele>2137.9</ele>
        <time>2025-02-12T11:54:00Z</time>
      </trkpt>
      <trkpt lat="44.91091" lon="6.57132">
        <ele>2137.9</ele>
        <time>2025-02-12T11:54:14Z</time>
      </trkpt>
      <trkpt lat="44.91091" lon="6.57132">
        <ele>2137.9</ele>
        <time>2025-02-12T11:54:27Z</time>
      </trkpt>
      <trkpt lat="44.91091" lon="6.57132">
        <ele>2137.9</ele>
        <time>2025-02-12T11:54:41Z</time>
      </trkpt>
      <trkpt lat="44.91091" lon="6.57132">
        <ele>2137.9</ele>
        <time>2025-02-12T11:54:56Z</time>
      </trkpt>
      <trkpt lat="44.91091" lon="6.57132">
        <ele>2137.9</ele>
        <time>2025-02-12T11:55:09Z</time>
      </trkpt>
      <trkpt lat="44.91091" lon="6.57132">
        <ele>2137.9</ele>
        <time>2025-02-12T11:55:18Z</time>
      </trkpt>
      <trkpt lat="44.91091" lon="6.57132">
        <ele>2137.9</ele>
        <time>2025-02-12T11:55:30Z</time>
      </trkpt>
      <trkpt lat="44.91091" lon="6.57132">
        <ele>2137.9</ele>
        <time>2025-02-12T11:55:42Z</time>
      </trkpt>
      <trkpt lat="44.91091" lon="6.57132">
        <ele>2137.9</ele>
        <time>2025-02-12T11:55:55Z</time>
      </trkpt>
      <trkpt lat="44.91091" lon="6.57132">
        <ele>2137.9</ele>
        <time>2025-02-12T11:56:10Z</time>
      </trkpt>
      <trkpt lat="44.91091" lon="6.57132">
        <ele>2137.9</ele>
        <time>2025-02-12T11:56:24Z</time>
      </trkpt>
      <trkpt lat="44.91091" lon="6.57132">
        <ele>2137.9</ele>
        <time>2025-02-12T11:56:37Z</time>
      </trkpt>
      <trkpt lat="44.91091" lon="6.57132">
        <ele>2137.9</ele>
        <time>2025-02-12T11:56:52Z</time>
      </trkpt>
      <trkpt lat="44.91091" lon="6.57132">
        <ele>2137.9</ele>
        <time>2025-02-12T11:57:05Z</time>
      </trkpt>
      <trkpt lat="44.91091" lon="6.57132">
        <ele>2137.9</ele>
        <time>2025-02-12T11:57:21Z</time>
      </trkpt>
      <trkpt lat="44.91091" lon="6.57132">
        <ele>2137.9</ele>
        <time>2025-02-12T11:57:41Z</time>
      </trkpt>
      <trkpt lat="44.91091" lon="6.57132">
        <ele>2137.9</ele>
        <time>2025-02-12T11:57:58Z</time>
      </trkpt>
      <trkpt lat="44.91091" lon="6.57132">
        <ele>2137.9</ele>
        <time>2025-02-12T11:58:13Z</time>
      </trkpt>
      <trkpt lat="44.91091" lon="6.57132">
        <ele>2137.9</ele>
        <time>2025-02-12T11:58:28Z</time>
      </trkpt>
      <trkpt lat="44.91091" lon="6.57132">
        <ele>2137.9</ele>
        <time>2025-02-12T11:58:38Z</time>
      </trkpt>
      <trkpt lat="44.91091" lon="6.57132">
        <ele>2137.9</ele>
        <time>2025-02-12T11:58:48Z</time>
      </trkpt>
      <trkpt lat="44.91091" lon="6.57132">
        <ele>2137.9</ele>
        <time>2025-02-12T11:59:06Z</time>
      </trkpt>
      <trkpt lat="44.91091" lon="6.57132">
        <ele>2137.9</ele>
        <time>2025-02-12T11:59:23Z</time>
      </trkpt>
      <trkpt lat="44.91091" lon="6.57132">
        <ele>2137.9</ele>
        <time>2025-02-12T11:59:40Z</time>
      </trkpt>
      <trkpt lat="44.91091" lon="6.57132">
        <ele>2137.9</ele>
        <time>2025-02-12T12:00:00Z</time>
      </trkpt>
      <trkpt lat="44.91091" lon="6.57132">
        <ele>2137.9</ele>
        <time>2025-02-12T12:00:14Z</time>
      </trkpt>
      <trkpt lat="44.91091" lon="6.57132">
        <ele>2137.9</ele>
        <time>2025-02-12T12:00:29Z</time>
      </trkpt>
      <trkpt lat="44.91091" lon="6.57132">
        <ele>2137.9</ele>
        <time>2025-02-12T12:00:47Z</time>
      </trkpt>
      <trkpt lat="44.91091" lon="6.57132">
        <ele>2137.9</ele>
        <time>2025-02-12T12:01:07Z</time>
      </trkpt>
      <trkpt lat="44.91091" lon="6.57132">
        <ele>2137.9</ele>
        <time>2025-02-12T12:01:25Z</time>
      </trkpt>
      <trkpt lat="44.91091" lon="6.57132">
        <ele>2137.9</ele>
        <time>2025-02-12T12:01:40Z</time>
      </trkpt>
      <trkpt lat="44.91091" lon="6.57132">
        <ele>2137.9</ele>
        <time>2025-02-12T12:02:03Z</time>
      </trkpt>
      <trkpt lat="44.91091" lon="6.57132">
        <ele>2137.9</ele>
        <time>2025-02-12T12:02:20Z</time>
      </trkpt>
      <trkpt lat="44.91091" lon="6.57132">
        <ele>2137.9</ele>
        <time>2025-02-12T12:02:33Z</time>
      </trkpt>
      <trkpt lat="44.91091" lon="6.57132">
        <ele>2137.9</ele>
        <time>2025-02-12T12:02:45Z</time>
      </trkpt>
      <trkpt lat="44.91091" lon="6.57132">
        <ele>2137.9</ele>
        <time>2025-02-12T12:02:57Z</time>
      </trkpt>
      <trkpt lat="44.91091" lon="6.57132">
        <ele>2137.9</ele>
        <time>2025-02-12T12:03:19Z</time>
      </trkpt>
      <trkpt lat="44.91091" lon="6.57132">
        <ele>2137.9</ele>
        <time>2025-02-12T12:03:37Z</time>
      </trkpt>
      <trkpt lat="44.91091" lon="6.57132">
        <ele>2137.9</ele>
        <time>2025-02-12T12:03:51Z</time>
      </trkpt>
      <trkpt lat="44.91091" lon="6.57132">
        <ele>2137.9</ele>
        <time>2025-02-12T12:03:57Z</time>
      </trkpt>
      <trkpt lat="44.91091" lon="6.57132">
        <ele>2137.9</ele>
        <time>2025-02-12T12:04:12Z</time>
      </trkpt>
      <trkpt lat="44.91091" lon="6.57132">
        <ele>2137.9</ele>
        <time>2025-02-12T12:04:29Z</time>
      </trkpt>
      <trkpt lat="44.91091" lon="6.57132">
        <ele>2137.9</ele>
        <time>2025-02-12T12:04:44Z</time>
      </trkpt>
      <trkpt lat="44.91091" lon="6.57132">
        <ele>2137.9</ele>
        <time>2025-02-12T12:04:57Z</time>
      </trkpt>
      <trkpt lat="44.91091" lon="6.57132">
        <ele>2137.9</ele>
        <time>2025-02-12T12:05:10Z</time>
      </trkpt>
      <trkpt lat="44.91091" lon="6.57132">
        <ele>2137.9</ele>
        <time>2025-02-12T12:05:24Z</time>
      </trkpt>
      <trkpt lat="44.91091" lon="6.57132">
        <ele>2137.9</ele>
        <time>2025-02-12T12:05:39Z</time>
      </trkpt>
      <trkpt lat="44.91091" lon="6.57132">
        <ele>2137.9</ele>
        <time>2025-02-12T12:05:54Z</time>
      </trkpt>
      <trkpt lat="44.91091" lon="6.57132">
        <ele>2137.9</ele>
        <time>2025-02-12T12:06:06Z</time>
      </trkpt>
      <trkpt lat="44.91091" lon="6.57132">
        <ele>2137.9</ele>
        <time>2025-02-12T12:06:22Z</time>
      </trkpt>
      <trkpt lat="44.91091" lon="6.57132">
        <ele>2137.9</ele>
        <time>2025-02-12T12:06:32Z</time>
      </trkpt>
      <trkpt lat="44.91091" lon="6.57132">
        <ele>2137.9</ele>
        <time>2025-02-12T12:06:45Z</time>
      </trkpt>
      <trkpt lat="44.91091" lon="6.57132">
        <ele>2137.9</ele>
        <time>2025-02-12T12:06:55Z</time>
      </trkpt>
      <trkpt lat="44.91091" lon="6.57132">
        <ele>2137.9</ele>
        <time>2025-02-12T12:07:13Z</time>
      </trkpt>
      <trkpt lat="44.91091" lon="6.57132">
        <ele>2137.9</ele>
        <time>2025-02-12T12:07:27Z</time>
      </trkpt>
      <trkpt lat="44.91091" lon="6.57132">
        <ele>2137.9</ele>
        <time>2025-02-12T12:07:38Z</time>
      </trkpt>
      <trkpt lat="44.91091" lon="6.57132">
        <ele>2137.9</ele>
        <time>2025-02-12T12:07:51Z</time>
      </trkpt>
      <trkpt lat="44.91091" lon="6.57132">
        <ele>2137.9</ele>
        <time>2025-02-12T12:08:03Z</time>
      </trkpt>
      <trkpt lat="44.91091" lon="6.57132">
        <ele>2137.9</ele>
        <time>2025-02-12T12:08:15Z</time>
      </trkpt>
      <trkpt lat="44.91091" lon="6.57132">
        <ele>2137.9</ele>
        <time>2025-02-12T12:08:27Z</time>
      </trkpt>
      <trkpt lat="44.91091" lon="6.57132">
        <ele>2137.9</ele>
        <time>2025-02-12T12:08:36Z</time>
      </trkpt>
      <trkpt lat="44.91091" lon="6.57132">
        <ele>2137.9</ele>
        <time>2025-02-12T12:08:47Z</time>
      </trkpt>
      <trkpt lat="44.91091" lon="6.57132">
        <ele>2137.9</ele>
        <time>2025-02-12T12:09:01Z</time>
      </trkpt>
      <trkpt lat="44.91091" lon="6.57132">
        <ele>2137.9</ele>
        <time>2025-02-12T12:09:13Z</time>
      </trkpt>
      <trkpt lat="44.91091" lon="6.57132">
        <ele>2137.9</ele>
        <time>2025-02-12T12:09:30Z</time>
      </trkpt>
      <trkpt lat="44.91091" lon="6.57132">
        <ele>2137.9</ele>
        <time>2025-02-12T12:09:45Z</time>
      </trkpt>
      <trkpt lat="44.91091" lon="6.57132">
        <ele>2137.9</ele>
        <time>2025-02-12T12:09:58Z</time>
      </trkpt>
      <trkpt lat="44.91091" lon="6.57132">
        <ele>2137.9</ele>
        <time>2025-02-12T12:10:06Z</time>
      </trkpt>
      <trkpt lat="44.91091" lon="6.57132">
        <ele>2137.9</ele>
        <time>2025-02-12T12:10:16Z</time>
      </trkpt>
      <trkpt lat="44.91091" lon="6.57132">
        <ele>2137.9</ele>
        <time>2025-02-12T12:10:31Z</time>
      </trkpt>
      <trkpt lat="44.91091" lon="6.57132">
        <ele>2137.9</ele>
        <time>2025-02-12T12:10:46Z</time>
      </trkpt>
      <trkpt lat="44.91091" lon="6.57132">
        <ele>2137.9</ele>
        <time>2025-02-12T12:11:07Z</time>
      </trkpt>
      <trkpt lat="44.91091" lon="6.57132">
        <ele>2137.9</ele>
        <time>2025-02-12T12:11:23Z</time>
      </trkpt>
      <trkpt lat="44.91091" lon="6.57132">
        <ele>2137.9</ele>
        <time>2025-02-12T12:11:40Z</time>
      </trkpt>
      <trkpt lat="44.91091" lon="6.57132">
        <ele>2137.9</ele>
        <time>2025-02-12T12:12:01Z</time>
      </trkpt>
      <trkpt lat="44.91091" lon="6.57132">
        <ele>2137.9</ele>
        <time>2025-02-12T12:12:22Z</time>
      </trkpt>
      <trkpt lat="44.91091" lon="6.57132">
        <ele>2137.9</ele>
        <time>2025-02-12T12:12:42Z</time>
      </trkpt>
      <trkpt lat="44.91091" lon="6.57132">
        <ele>2137.9</ele>
        <time>2025-02-12T12:13:00Z</time>
      </trkpt>
      <trkpt lat="44.91091" lon="6.57132">
        <ele>2137.9</ele>
        <time>2025-02-12T12:13:15Z</time>
      </trkpt>
      <trkpt lat="44.91091" lon="6.57132">
        <ele>2137.9</ele>
        <time>2025-02-12T12:13:29Z</time>
      </trkpt>
      <trkpt lat="44.91091" lon="6.57132">
        <ele>2137.9</ele>
        <time>2025-02-12T12:13:45Z</time>
      </trkpt>
      <trkpt lat="44.91091" lon="6.57132">
        <ele>2137.9</ele>
        <time>2025-02-12T12:14:00Z</time>
      </trkpt>
      <trkpt lat="44.91091" lon="6.57132">
        <ele>2137.9</ele>
        <time>2025-02-12T12:14:15Z</time>
      </trkpt>
      <trkpt lat="44.91091" lon="6.57132">
        <ele>2137.9</ele>
        <time>2025-02-12T12:14:32Z</time>
      </trkpt>
      <trkpt lat="44.91091" lon="6.57132">
        <ele>2137.9</ele>
        <time>2025-02-12T12:14:50Z</time>
      </trkpt>
      <trkpt lat="44.91091" lon="6.57132">
        <ele>2137.9</ele>
        <time>2025-02-12T12:15:04Z</time>
      </trkpt>
      <trkpt lat="44.91091" lon="6.57132">
        <ele>2137.9</ele>
        <time>2025-02-12T12:15:20Z</time>
      </trkpt>
      <trkpt lat="44.91091" lon="6.57132">
        <ele>2137.9</ele>
        <time>2025-02-12T12:15:35Z</time>
      </trkpt>
      <trkpt lat="44.91091" lon="6.57132">
        <ele>2137.9</ele>
        <time>2025-02-12T12:15:53Z</time>
      </trkpt>
      <trkpt lat="44.91091" lon="6.57132">
        <ele>2137.9</ele>
        <time>2025-02-12T12:16:09Z</time>
      </trkpt>
      <trkpt lat="44.91091" lon="6.57132">
        <ele>2137.9</ele>
        <time>2025-02-12T12:16:20Z</time>
      </trkpt>
      <trkpt lat="44.91091" lon="6.57132">
        <ele>2137.9</ele>
        <time>2025-02-12T12:16:28Z</time>
      </trkpt>
      <trkpt lat="44.91076" lon="6.57126">
        <ele>2141.2</ele>
        <time>2025-02-12T12:16:34Z</time>
      </trkpt>
      <trkpt lat="44.91076" lon="6.57126">
        <ele>2141.3</ele>
        <time>2025-02-12T12:16:42Z</time>
      </trkpt>
      <trkpt lat="44.9108" lon="6.57125">
        <ele>2140.4</ele>
        <time>2025-02-12T12:16:44Z</time>
      </trkpt>
      <trkpt lat="44.91082" lon="6.57129">
        <ele>2139.6</ele>
        <time>2025-02-12T12:16:46Z</time>
      </trkpt>
      <trkpt lat="44.9109" lon="6.57132">
        <ele>2137.9</ele>
        <time>2025-02-12T12:16:48Z</time>
      </trkpt>
      <trkpt lat="44.91098" lon="6.57135">
        <ele>2136.2</ele>
        <time>2025-02-12T12:16:50Z</time>
      </trkpt>
      <trkpt lat="44.91102" lon="6.57136">
        <ele>2135.2</ele>
        <time>2025-02-12T12:16:51Z</time>
      </trkpt>
      <trkpt lat="44.91112" lon="6.5714">
        <ele>2132.9</ele>
        <time>2025-02-12T12:16:53Z</time>
      </trkpt>
      <trkpt lat="44.91117" lon="6.57142">
        <ele>2131.8</ele>
        <time>2025-02-12T12:16:55Z</time>
      </trkpt>
      <trkpt lat="44.91131" lon="6.57147">
        <ele>2128.9</ele>
        <time>2025-02-12T12:16:57Z</time>
      </trkpt>
      <trkpt lat="44.91139" lon="6.5715">
        <ele>2127.1</ele>
        <time>2025-02-12T12:16:59Z</time>
      </trkpt>
      <trkpt lat="44.91139" lon="6.5715">
        <ele>2127.1</ele>
        <time>2025-02-12T12:17:00Z</time>
      </trkpt>
      <trkpt lat="44.91149" lon="6.57154">
        <ele>2124.8</ele>
        <time>2025-02-12T12:17:02Z</time>
      </trkpt>
      <trkpt lat="44.91152" lon="6.57155">
        <ele>2124.2</ele>
        <time>2025-02-12T12:17:03Z</time>
      </trkpt>
      <trkpt lat="44.91155" lon="6.57156">
        <ele>2123.4</ele>
        <time>2025-02-12T12:17:04Z</time>
      </trkpt>
      <trkpt lat="44.91163" lon="6.57159">
        <ele>2121.8</ele>
        <time>2025-02-12T12:17:06Z</time>
      </trkpt>
      <trkpt lat="44.91166" lon="6.5716">
        <ele>2121</ele>
        <time>2025-02-12T12:17:07Z</time>
      </trkpt>
      <trkpt lat="44.91172" lon="6.57162">
        <ele>2119.6</ele>
        <time>2025-02-12T12:17:09Z</time>
      </trkpt>
      <trkpt lat="44.91187" lon="6.57168">
        <ele>2116.4</ele>
        <time>2025-02-12T12:17:13Z</time>
      </trkpt>
      <trkpt lat="44.91191" lon="6.57169">
        <ele>2115.6</ele>
        <time>2025-02-12T12:17:14Z</time>
      </trkpt>
      <trkpt lat="44.91195" lon="6.57171">
        <ele>2114.7</ele>
        <time>2025-02-12T12:17:15Z</time>
      </trkpt>
      <trkpt lat="44.91204" lon="6.57174">
        <ele>2112.8</ele>
        <time>2025-02-12T12:17:17Z</time>
      </trkpt>
      <trkpt lat="44.91209" lon="6.57176">
        <ele>2111.9</ele>
        <time>2025-02-12T12:17:18Z</time>
      </trkpt>
      <trkpt lat="44.91213" lon="6.57177">
        <ele>2110.9</ele>
        <time>2025-02-12T12:17:19Z</time>
      </trkpt>
      <trkpt lat="44.91227" lon="6.57182">
        <ele>2108.2</ele>
        <time>2025-02-12T12:17:22Z</time>
      </trkpt>
      <trkpt lat="44.91233" lon="6.57186">
        <ele>2106.8</ele>
        <time>2025-02-12T12:17:24Z</time>
      </trkpt>
      <trkpt lat="44.9124" lon="6.57191">
        <ele>2105.3</ele>
        <time>2025-02-12T12:17:26Z</time>
      </trkpt>
      <trkpt lat="44.91243" lon="6.57192">
        <ele>2104.6</ele>
        <time>2025-02-12T12:17:27Z</time>
      </trkpt>
      <trkpt lat="44.91249" lon="6.57196">
        <ele>2103</ele>
        <time>2025-02-12T12:17:29Z</time>
      </trkpt>
      <trkpt lat="44.91271" lon="6.57214">
        <ele>2097.4</ele>
        <time>2025-02-12T12:17:35Z</time>
      </trkpt>
      <trkpt lat="44.91279" lon="6.57222">
        <ele>2095.3</ele>
        <time>2025-02-12T12:17:38Z</time>
      </trkpt>
      <trkpt lat="44.91283" lon="6.57225">
        <ele>2094.4</ele>
        <time>2025-02-12T12:17:41Z</time>
      </trkpt>
      <trkpt lat="44.91284" lon="6.57226">
        <ele>2094</ele>
        <time>2025-02-12T12:17:42Z</time>
      </trkpt>
      <trkpt lat="44.91286" lon="6.57228">
        <ele>2093.6</ele>
        <time>2025-02-12T12:17:43Z</time>
      </trkpt>
      <trkpt lat="44.91289" lon="6.57231">
        <ele>2092.7</ele>
        <time>2025-02-12T12:17:44Z</time>
      </trkpt>
      <trkpt lat="44.91295" lon="6.57236">
        <ele>2091.2</ele>
        <time>2025-02-12T12:17:45Z</time>
      </trkpt>
      <trkpt lat="44.91303" lon="6.57243">
        <ele>2089.1</ele>
        <time>2025-02-12T12:17:47Z</time>
      </trkpt>
      <trkpt lat="44.91314" lon="6.57239">
        <ele>2086.6</ele>
        <time>2025-02-12T12:17:49Z</time>
      </trkpt>
      <trkpt lat="44.91316" lon="6.57228">
        <ele>2085.2</ele>
        <time>2025-02-12T12:17:50Z</time>
      </trkpt>
      <trkpt lat="44.9132" lon="6.57205">
        <ele>2081.2</ele>
        <time>2025-02-12T12:17:51Z</time>
      </trkpt>
      <trkpt lat="44.91324" lon="6.57202">
        <ele>2079.6</ele>
        <time>2025-02-12T12:17:52Z</time>
      </trkpt>
      <trkpt lat="44.91335" lon="6.57204">
        <ele>2075.9</ele>
        <time>2025-02-12T12:17:54Z</time>
      </trkpt>
      <trkpt lat="44.91338" lon="6.57201">
        <ele>2074.4</ele>
        <time>2025-02-12T12:17:55Z</time>
      </trkpt>
      <trkpt lat="44.91335" lon="6.57189">
        <ele>2071.2</ele>
        <time>2025-02-12T12:17:58Z</time>
      </trkpt>
      <trkpt lat="44.91338" lon="6.57182">
        <ele>2069.2</ele>
        <time>2025-02-12T12:17:59Z</time>
      </trkpt>
      <trkpt lat="44.91342" lon="6.5718">
        <ele>2068.1</ele>
        <time>2025-02-12T12:18:00Z</time>
      </trkpt>
      <trkpt lat="44.91345" lon="6.57179">
        <ele>2066.9</ele>
        <time>2025-02-12T12:18:01Z</time>
      </trkpt>
      <trkpt lat="44.91354" lon="6.57176">
        <ele>2063.8</ele>
        <time>2025-02-12T12:18:02Z</time>
      </trkpt>
      <trkpt lat="44.91356" lon="6.5717">
        <ele>2062.3</ele>
        <time>2025-02-12T12:18:03Z</time>
      </trkpt>
      <trkpt lat="44.91358" lon="6.5716">
        <ele>2060.2</ele>
        <time>2025-02-12T12:18:05Z</time>
      </trkpt>
      <trkpt lat="44.91365" lon="6.57158">
        <ele>2058.4</ele>
        <time>2025-02-12T12:18:07Z</time>
      </trkpt>
      <trkpt lat="44.9137" lon="6.57151">
        <ele>2056.7</ele>
        <time>2025-02-12T12:18:08Z</time>
      </trkpt>
      <trkpt lat="44.91375" lon="6.57144">
        <ele>2055.1</ele>
        <time>2025-02-12T12:18:09Z</time>
      </trkpt>
      <trkpt lat="44.91379" lon="6.57136">
        <ele>2053.5</ele>
        <time>2025-02-12T12:18:11Z</time>
      </trkpt>
      <trkpt lat="44.91379" lon="6.57131">
        <ele>2052.6</ele>
        <time>2025-02-12T12:18:12Z</time>
      </trkpt>
      <trkpt lat="44.91379" lon="6.57125">
        <ele>2051.7</ele>
        <time>2025-02-12T12:18:13Z</time>
      </trkpt>
      <trkpt lat="44.91385" lon="6.57118">
        <ele>2049.8</ele>
        <time>2025-02-12T12:18:15Z</time>
      </trkpt>
      <trkpt lat="44.91388" lon="6.57113">
        <ele>2048.8</ele>
        <time>2025-02-12T12:18:16Z</time>
      </trkpt>
      <trkpt lat="44.91389" lon="6.57108">
        <ele>2048</ele>
        <time>2025-02-12T12:18:17Z</time>
      </trkpt>
      <trkpt lat="44.91388" lon="6.57105">
        <ele>2047.4</ele>
        <time>2025-02-12T12:18:18Z</time>
      </trkpt>
      <trkpt lat="44.91387" lon="6.57099">
        <ele>2046.3</ele>
        <time>2025-02-12T12:18:20Z</time>
      </trkpt>
      <trkpt lat="44.91392" lon="6.57089">
        <ele>2044.2</ele>
        <time>2025-02-12T12:18:22Z</time>
      </trkpt>
      <trkpt lat="44.91393" lon="6.57083">
        <ele>2043.1</ele>
        <time>2025-02-12T12:18:23Z</time>
      </trkpt>
      <trkpt lat="44.91393" lon="6.57078">
        <ele>2042.2</ele>
        <time>2025-02-12T12:18:24Z</time>
      </trkpt>
      <trkpt lat="44.9139" lon="6.57067">
        <ele>2040.2</ele>
        <time>2025-02-12T12:18:26Z</time>
      </trkpt>
      <trkpt lat="44.9139" lon="6.5705">
        <ele>2037.1</ele>
        <time>2025-02-12T12:18:30Z</time>
      </trkpt>
      <trkpt lat="44.91396" lon="6.57038">
        <ele>2034.5</ele>
        <time>2025-02-12T12:18:33Z</time>
      </trkpt>
      <trkpt lat="44.91399" lon="6.57027">
        <ele>2032.3</ele>
        <time>2025-02-12T12:18:35Z</time>
      </trkpt>
      <trkpt lat="44.91403" lon="6.57018">
        <ele>2030.3</ele>
        <time>2025-02-12T12:18:37Z</time>
      </trkpt>
      <trkpt lat="44.91413" lon="6.57013">
        <ele>2027.4</ele>
        <time>2025-02-12T12:18:39Z</time>
      </trkpt>
      <trkpt lat="44.91418" lon="6.57009">
        <ele>2025.9</ele>
        <time>2025-02-12T12:18:40Z</time>
      </trkpt>
      <trkpt lat="44.91423" lon="6.57005">
        <ele>2024.4</ele>
        <time>2025-02-12T12:18:41Z</time>
      </trkpt>
      <trkpt lat="44.91436" lon="6.56999">
        <ele>2021.4</ele>
        <time>2025-02-12T12:18:43Z</time>
      </trkpt>
      <trkpt lat="44.91448" lon="6.56992">
        <ele>2018.8</ele>
        <time>2025-02-12T12:18:45Z</time>
      </trkpt>
      <trkpt lat="44.91458" lon="6.56989">
        <ele>2020.7</ele>
        <time>2025-02-12T12:18:47Z</time>
      </trkpt>
      <trkpt lat="44.91473" lon="6.56988">
        <ele>2020.9</ele>
        <time>2025-02-12T12:18:51Z</time>
      </trkpt>
      <trkpt lat="44.91482" lon="6.56988">
        <ele>2020.7</ele>
        <time>2025-02-12T12:18:57Z</time>
      </trkpt>
      <trkpt lat="44.91488" lon="6.56986">
        <ele>2020.4</ele>
        <time>2025-02-12T12:19:02Z</time>
      </trkpt>
      <trkpt lat="44.91495" lon="6.56987">
        <ele>2020.1</ele>
        <time>2025-02-12T12:19:07Z</time>
      </trkpt>
      <trkpt lat="44.91506" lon="6.56991">
        <ele>2019.5</ele>
        <time>2025-02-12T12:19:12Z</time>
      </trkpt>
      <trkpt lat="44.91516" lon="6.56987">
        <ele>2018.9</ele>
        <time>2025-02-12T12:19:14Z</time>
      </trkpt>
      <trkpt lat="44.91518" lon="6.5699">
        <ele>2018.7</ele>
        <time>2025-02-12T12:19:17Z</time>
      </trkpt>
      <trkpt lat="44.91526" lon="6.57003">
        <ele>2018</ele>
        <time>2025-02-12T12:19:23Z</time>
      </trkpt>
      <trkpt lat="44.91546" lon="6.57011">
        <ele>2016.6</ele>
        <time>2025-02-12T12:19:30Z</time>
      </trkpt>
      <trkpt lat="44.91562" lon="6.57017">
        <ele>2015.1</ele>
        <time>2025-02-12T12:19:36Z</time>
      </trkpt>
      <trkpt lat="44.91578" lon="6.57027">
        <ele>2013.3</ele>
        <time>2025-02-12T12:19:41Z</time>
      </trkpt>
      <trkpt lat="44.91597" lon="6.57041">
        <ele>2010.5</ele>
        <time>2025-02-12T12:19:47Z</time>
      </trkpt>
      <trkpt lat="44.91613" lon="6.57054">
        <ele>2007.7</ele>
        <time>2025-02-12T12:19:51Z</time>
      </trkpt>
      <trkpt lat="44.91621" lon="6.57057">
        <ele>2006.4</ele>
        <time>2025-02-12T12:19:53Z</time>
      </trkpt>
      <trkpt lat="44.91624" lon="6.57058">
        <ele>2006</ele>
        <time>2025-02-12T12:19:54Z</time>
      </trkpt>
      <trkpt lat="44.91628" lon="6.57059">
        <ele>2005.2</ele>
        <time>2025-02-12T12:19:56Z</time>
      </trkpt>
      <trkpt lat="44.91635" lon="6.57062">
        <ele>2003.8</ele>
        <time>2025-02-12T12:19:58Z</time>
      </trkpt>
      <trkpt lat="44.91644" lon="6.57063">
        <ele>2002</ele>
        <time>2025-02-12T12:20:00Z</time>
      </trkpt>
      <trkpt lat="44.91649" lon="6.57061">
        <ele>2000.6</ele>
        <time>2025-02-12T12:20:02Z</time>
      </trkpt>
      <trkpt lat="44.91653" lon="6.57059">
        <ele>1999.7</ele>
        <time>2025-02-12T12:20:03Z</time>
      </trkpt>
      <trkpt lat="44.9166" lon="6.57057">
        <ele>1997.9</ele>
        <time>2025-02-12T12:20:05Z</time>
      </trkpt>
      <trkpt lat="44.91664" lon="6.57056">
        <ele>1997.2</ele>
        <time>2025-02-12T12:20:06Z</time>
      </trkpt>
      <trkpt lat="44.91668" lon="6.57054">
        <ele>1996.1</ele>
        <time>2025-02-12T12:20:08Z</time>
      </trkpt>
      <trkpt lat="44.91672" lon="6.57054">
        <ele>1995.2</ele>
        <time>2025-02-12T12:20:10Z</time>
      </trkpt>
      <trkpt lat="44.91677" lon="6.57057">
        <ele>1994</ele>
        <time>2025-02-12T12:20:12Z</time>
      </trkpt>
      <trkpt lat="44.9168" lon="6.57058">
        <ele>1993</ele>
        <time>2025-02-12T12:20:13Z</time>
      </trkpt>
      <trkpt lat="44.91684" lon="6.57061">
        <ele>1991.5</ele>
        <time>2025-02-12T12:20:14Z</time>
      </trkpt>
      <trkpt lat="44.91691" lon="6.57065">
        <ele>1989.4</ele>
        <time>2025-02-12T12:20:16Z</time>
      </trkpt>
      <trkpt lat="44.91694" lon="6.57066">
        <ele>1988.5</ele>
        <time>2025-02-12T12:20:17Z</time>
      </trkpt>
      <trkpt lat="44.91702" lon="6.57071">
        <ele>1986.2</ele>
        <time>2025-02-12T12:20:19Z</time>
      </trkpt>
      <trkpt lat="44.91706" lon="6.57074">
        <ele>1985.1</ele>
        <time>2025-02-12T12:20:20Z</time>
      </trkpt>
      <trkpt lat="44.91714" lon="6.57079">
        <ele>1982.7</ele>
        <time>2025-02-12T12:20:22Z</time>
      </trkpt>
      <trkpt lat="44.91725" lon="6.57087">
        <ele>1979.7</ele>
        <time>2025-02-12T12:20:25Z</time>
      </trkpt>
      <trkpt lat="44.9173" lon="6.5709">
        <ele>1978.5</ele>
        <time>2025-02-12T12:20:26Z</time>
      </trkpt>
      <trkpt lat="44.91738" lon="6.57095">
        <ele>1976.2</ele>
        <time>2025-02-12T12:20:28Z</time>
      </trkpt>
      <trkpt lat="44.91745" lon="6.571">
        <ele>1974.5</ele>
        <time>2025-02-12T12:20:30Z</time>
      </trkpt>
      <trkpt lat="44.91751" lon="6.57104">
        <ele>1972.7</ele>
        <time>2025-02-12T12:20:32Z</time>
      </trkpt>
      <trkpt lat="44.91756" lon="6.57107">
        <ele>1971.5</ele>
        <time>2025-02-12T12:20:34Z</time>
      </trkpt>
      <trkpt lat="44.91759" lon="6.57109">
        <ele>1970.7</ele>
        <time>2025-02-12T12:20:35Z</time>
      </trkpt>
      <trkpt lat="44.91765" lon="6.57113">
        <ele>1969.1</ele>
        <time>2025-02-12T12:20:37Z</time>
      </trkpt>
      <trkpt lat="44.91769" lon="6.57116">
        <ele>1968.2</ele>
        <time>2025-02-12T12:20:38Z</time>
      </trkpt>
      <trkpt lat="44.91773" lon="6.57119">
        <ele>1967</ele>
        <time>2025-02-12T12:20:39Z</time>
      </trkpt>
      <trkpt lat="44.91781" lon="6.57124">
        <ele>1965</ele>
        <time>2025-02-12T12:20:41Z</time>
      </trkpt>
      <trkpt lat="44.91784" lon="6.57126">
        <ele>1964.3</ele>
        <time>2025-02-12T12:20:42Z</time>
      </trkpt>
      <trkpt lat="44.91787" lon="6.5713">
        <ele>1963.6</ele>
        <time>2025-02-12T12:20:43Z</time>
      </trkpt>
      <trkpt lat="44.91794" lon="6.57137">
        <ele>1962</ele>
        <time>2025-02-12T12:20:45Z</time>
      </trkpt>
      <trkpt lat="44.91798" lon="6.5714">
        <ele>1961.3</ele>
        <time>2025-02-12T12:20:46Z</time>
      </trkpt>
      <trkpt lat="44.91801" lon="6.57144">
        <ele>1960.6</ele>
        <time>2025-02-12T12:20:47Z</time>
      </trkpt>
      <trkpt lat="44.9181" lon="6.57152">
        <ele>1959</ele>
        <time>2025-02-12T12:20:49Z</time>
      </trkpt>
      <trkpt lat="44.91814" lon="6.57157">
        <ele>1958.3</ele>
        <time>2025-02-12T12:20:50Z</time>
      </trkpt>
      <trkpt lat="44.91824" lon="6.57171">
        <ele>1956.5</ele>
        <time>2025-02-12T12:20:53Z</time>
      </trkpt>
      <trkpt lat="44.91826" lon="6.57175">
        <ele>1956.1</ele>
        <time>2025-02-12T12:20:54Z</time>
      </trkpt>
      <trkpt lat="44.91837" lon="6.57181">
        <ele>1955</ele>
        <time>2025-02-12T12:20:57Z</time>
      </trkpt>
      <trkpt lat="44.91847" lon="6.57186">
        <ele>1953.7</ele>
        <time>2025-02-12T12:21:01Z</time>
      </trkpt>
      <trkpt lat="44.91861" lon="6.57193">
        <ele>1951.7</ele>
        <time>2025-02-12T12:21:06Z</time>
      </trkpt>
      <trkpt lat="44.91869" lon="6.57197">
        <ele>1950.6</ele>
        <time>2025-02-12T12:21:09Z</time>
      </trkpt>
      <trkpt lat="44.91871" lon="6.57198">
        <ele>1950.4</ele>
        <time>2025-02-12T12:21:10Z</time>
      </trkpt>
      <trkpt lat="44.91885" lon="6.57205">
        <ele>1948.8</ele>
        <time>2025-02-12T12:21:14Z</time>
      </trkpt>
      <trkpt lat="44.91904" lon="6.57207">
        <ele>1947</ele>
        <time>2025-02-12T12:21:19Z</time>
      </trkpt>
      <trkpt lat="44.91924" lon="6.57203">
        <ele>1945.2</ele>
        <time>2025-02-12T12:21:24Z</time>
      </trkpt>
      <trkpt lat="44.91933" lon="6.57199">
        <ele>1944.5</ele>
        <time>2025-02-12T12:21:26Z</time>
      </trkpt>
      <trkpt lat="44.91943" lon="6.57195">
        <ele>1944</ele>
        <time>2025-02-12T12:21:28Z</time>
      </trkpt>
      <trkpt lat="44.91949" lon="6.57192">
        <ele>1943.8</ele>
        <time>2025-02-12T12:21:29Z</time>
      </trkpt>
      <trkpt lat="44.91965" lon="6.57189">
        <ele>1943.3</ele>
        <time>2025-02-12T12:21:32Z</time>
      </trkpt>
      <trkpt lat="44.92001" lon="6.57198">
        <ele>1943.2</ele>
        <time>2025-02-12T12:21:38Z</time>
      </trkpt>
      <trkpt lat="44.9201" lon="6.57202">
        <ele>1943.3</ele>
        <time>2025-02-12T12:21:40Z</time>
      </trkpt>
      <trkpt lat="44.92023" lon="6.57208">
        <ele>1943</ele>
        <time>2025-02-12T12:21:43Z</time>
      </trkpt>
      <trkpt lat="44.92027" lon="6.57211">
        <ele>1942.6</ele>
        <time>2025-02-12T12:21:44Z</time>
      </trkpt>
      <trkpt lat="44.92037" lon="6.57219">
        <ele>1941.4</ele>
        <time>2025-02-12T12:21:49Z</time>
      </trkpt>
      <trkpt lat="44.92072" lon="6.57192">
        <ele>1937.2</ele>
        <time>2025-02-12T12:21:54Z</time>
      </trkpt>
      <trkpt lat="44.92087" lon="6.57192">
        <ele>1935.9</ele>
        <time>2025-02-12T12:21:58Z</time>
      </trkpt>
      <trkpt lat="44.92097" lon="6.57194">
        <ele>1934.6</ele>
        <time>2025-02-12T12:22:02Z</time>
      </trkpt>
      <trkpt lat="44.92106" lon="6.57196">
        <ele>1932.8</ele>
        <time>2025-02-12T12:22:04Z</time>
      </trkpt>
      <trkpt lat="44.92116" lon="6.57198">
        <ele>1930.4</ele>
        <time>2025-02-12T12:22:06Z</time>
      </trkpt>
      <trkpt lat="44.9212" lon="6.57196">
        <ele>1928.9</ele>
        <time>2025-02-12T12:22:07Z</time>
      </trkpt>
      <trkpt lat="44.92129" lon="6.57191">
        <ele>1926</ele>
        <time>2025-02-12T12:22:09Z</time>
      </trkpt>
      <trkpt lat="44.9214" lon="6.57195">
        <ele>1922.2</ele>
        <time>2025-02-12T12:22:11Z</time>
      </trkpt>
      <trkpt lat="44.92147" lon="6.57218">
        <ele>1917.4</ele>
        <time>2025-02-12T12:22:13Z</time>
      </trkpt>
      <trkpt lat="44.92154" lon="6.57217">
        <ele>1915.9</ele>
        <time>2025-02-12T12:22:14Z</time>
      </trkpt>
      <trkpt lat="44.92159" lon="6.57217">
        <ele>1914.5</ele>
        <time>2025-02-12T12:22:15Z</time>
      </trkpt>
      <trkpt lat="44.92171" lon="6.57217">
        <ele>1911.8</ele>
        <time>2025-02-12T12:22:17Z</time>
      </trkpt>
      <trkpt lat="44.92183" lon="6.57212">
        <ele>1909.1</ele>
        <time>2025-02-12T12:22:19Z</time>
      </trkpt>
      <trkpt lat="44.92187" lon="6.57209">
        <ele>1908.2</ele>
        <time>2025-02-12T12:22:20Z</time>
      </trkpt>
      <trkpt lat="44.9219" lon="6.57206">
        <ele>1907.4</ele>
        <time>2025-02-12T12:22:21Z</time>
      </trkpt>
      <trkpt lat="44.92197" lon="6.57202">
        <ele>1905.9</ele>
        <time>2025-02-12T12:22:23Z</time>
      </trkpt>
      <trkpt lat="44.92204" lon="6.57197">
        <ele>1904.1</ele>
        <time>2025-02-12T12:22:25Z</time>
      </trkpt>
      <trkpt lat="44.92207" lon="6.57195">
        <ele>1903.5</ele>
        <time>2025-02-12T12:22:26Z</time>
      </trkpt>
      <trkpt lat="44.92209" lon="6.57193">
        <ele>1902.8</ele>
        <time>2025-02-12T12:22:27Z</time>
      </trkpt>
      <trkpt lat="44.92217" lon="6.57187">
        <ele>1900.8</ele>
        <time>2025-02-12T12:22:29Z</time>
      </trkpt>
      <trkpt lat="44.9224" lon="6.57214">
        <ele>1893.1</ele>
        <time>2025-02-12T12:22:31Z</time>
      </trkpt>
      <trkpt lat="44.92244" lon="6.57215">
        <ele>1891.9</ele>
        <time>2025-02-12T12:22:32Z</time>
      </trkpt>
      <trkpt lat="44.92249" lon="6.57217">
        <ele>1890.6</ele>
        <time>2025-02-12T12:22:33Z</time>
      </trkpt>
      <trkpt lat="44.9226" lon="6.57223">
        <ele>1887.7</ele>
        <time>2025-02-12T12:22:35Z</time>
      </trkpt>
      <trkpt lat="44.9227" lon="6.5723">
        <ele>1885.2</ele>
        <time>2025-02-12T12:22:37Z</time>
      </trkpt>
      <trkpt lat="44.92275" lon="6.5723">
        <ele>1884.1</ele>
        <time>2025-02-12T12:22:38Z</time>
      </trkpt>
      <trkpt lat="44.92281" lon="6.57231">
        <ele>1883.2</ele>
        <time>2025-02-12T12:22:39Z</time>
      </trkpt>
      <trkpt lat="44.92292" lon="6.57234">
        <ele>1881.5</ele>
        <time>2025-02-12T12:22:41Z</time>
      </trkpt>
      <trkpt lat="44.92307" lon="6.57232">
        <ele>1879.9</ele>
        <time>2025-02-12T12:22:45Z</time>
      </trkpt>
      <trkpt lat="44.92322" lon="6.5722">
        <ele>1878.8</ele>
        <time>2025-02-12T12:22:49Z</time>
      </trkpt>
      <trkpt lat="44.92327" lon="6.57216">
        <ele>1878.5</ele>
        <time>2025-02-12T12:22:53Z</time>
      </trkpt>
      <trkpt lat="44.9235" lon="6.57236">
        <ele>1877.5</ele>
        <time>2025-02-12T12:22:57Z</time>
      </trkpt>
      <trkpt lat="44.92358" lon="6.57254">
        <ele>1876.8</ele>
        <time>2025-02-12T12:23:01Z</time>
      </trkpt>
      <trkpt lat="44.92364" lon="6.57262">
        <ele>1876.4</ele>
        <time>2025-02-12T12:23:03Z</time>
      </trkpt>
      <trkpt lat="44.92369" lon="6.57271">
        <ele>1876.1</ele>
        <time>2025-02-12T12:23:05Z</time>
      </trkpt>
      <trkpt lat="44.92383" lon="6.57289">
        <ele>1878.9</ele>
        <time>2025-02-12T12:23:11Z</time>
      </trkpt>
      <trkpt lat="44.92383" lon="6.57289">
        <ele>1878.9</ele>
        <time>2025-02-12T12:23:12Z</time>
      </trkpt>
    </trkseg>
  </trk>
</gpx>